Provisional Data: West Branch Pine Creek near Galeton, PA


Please select a monitoring station.
Please select start date.
Please select start date.

Toggle Unit: C/F Toggle Unit: C/F
Sample Time Temperature (C) Temperature (F) Specific Conductivity (mS/cm) pH   Turbidity (NTU+) DO (mg/L)
3/7/2021 12:00:00 AM 1.55 34.79 0.049 6.77 2.14 13.4
3/7/2021 12:15:00 AM 1.52 34.736 0.049 6.79 2.11 13.41
3/7/2021 12:30:00 AM 1.49 34.682 0.049 6.79 2.16 13.42
3/7/2021 12:45:00 AM 1.45 34.61 0.049 6.78 2.08 13.44
3/7/2021 1:00:00 AM 1.4 34.52 0.049 6.76 2.12 13.46
3/7/2021 1:15:00 AM 1.36 34.448 0.049 6.75 2.1 13.47
3/7/2021 1:30:00 AM 1.32 34.376 0.049 6.76 2.12 13.49
3/7/2021 1:45:00 AM 1.28 34.304 0.049 6.75 2.16 13.5
3/7/2021 2:00:00 AM 1.24 34.232 0.049 6.75 2.1 13.52
3/7/2021 2:15:00 AM 1.19 34.142 0.049 6.75 2.14 13.52
3/7/2021 2:30:00 AM 1.14 34.052 0.049 6.75 2.12 13.55
3/7/2021 2:45:00 AM 1.09 33.962 0.049 6.72 2.16 13.56
3/7/2021 3:00:00 AM 1.04 33.872 0.049 6.75 2.14 13.58
3/7/2021 3:15:00 AM 0.98 33.764 0.049 6.74 2.14 13.6
3/7/2021 3:30:00 AM 0.93 33.674 0.049 6.74 2.15 13.62
3/7/2021 3:45:00 AM 0.87 33.566 0.049 6.73 2.1 13.64
3/7/2021 4:00:00 AM 0.81 33.458 0.049 6.74 2.13 13.66
3/7/2021 4:15:00 AM 0.76 33.368 0.049 6.73 2.15 13.68
3/7/2021 4:30:00 AM 0.71 33.278 0.049 6.72 2.1 13.71
3/7/2021 4:45:00 AM 0.66 33.188 0.049 6.73 2.11 13.74
3/7/2021 5:00:00 AM 0.63 33.134 0.049 6.72 2.18 13.75
3/7/2021 5:15:00 AM 0.6 33.08 0.049 6.72 2.15 13.77
3/7/2021 5:30:00 AM 0.56 33.008 0.049 6.73 2.1 13.79
3/7/2021 5:45:00 AM 0.54 32.972 0.049 6.72 2.13 13.8
3/7/2021 6:00:00 AM 0.51 32.918 0.049 6.72 2.13 13.82
3/7/2021 6:15:00 AM 0.47 32.846 0.049 6.74 2.13 13.84
3/7/2021 6:30:00 AM 0.43 32.774 0.049 6.73 2.14 13.86
3/7/2021 6:45:00 AM 0.4 32.72 0.049 6.74 2.15 13.88
3/7/2021 7:00:00 AM 0.36 32.648 0.049 6.75 2.14 13.92
3/7/2021 7:15:00 AM 0.32 32.576 0.049 6.74 2.1 13.96
3/7/2021 7:30:00 AM 0.29 32.522 0.049 6.73 2.14 14
3/7/2021 7:45:00 AM 0.26 32.468 0.049 6.74 2.13 14.04
3/7/2021 8:00:00 AM 0.24 32.432 0.049 6.76 2.11 14.09
3/7/2021 8:15:00 AM 0.22 32.396 0.049 6.78 2.15 14.12
3/7/2021 8:30:00 AM 0.21 32.378 0.049 6.78 2.2 14.16
3/7/2021 8:45:00 AM 0.22 32.396 0.049 6.81 2.14 14.19
3/7/2021 9:00:00 AM 0.24 32.432 0.049 6.83 2.12 14.2
3/7/2021 9:15:00 AM 0.29 32.522 0.049 6.83 2.1 14.22
3/7/2021 9:30:00 AM 0.35 32.63 0.049 6.85 2.13 14.22
3/7/2021 9:45:00 AM 0.42 32.756 0.049 6.85 2.08 14.22
3/7/2021 10:00:00 AM 0.5 32.9 0.049 6.86 2.13 14.21
3/7/2021 10:15:00 AM 0.62 33.116 0.049 6.9 2.14 14.18
3/7/2021 10:30:00 AM 0.73 33.314 0.049 6.9 2.1 14.15
3/7/2021 10:45:00 AM 0.86 33.548 0.048 6.9 2.13 14.11
3/7/2021 11:00:00 AM 1 33.8 0.048 6.91 2.07 14.08
3/7/2021 11:15:00 AM 1.15 34.07 0.048 6.93 2.06 14.03
3/7/2021 11:30:00 AM 1.32 34.376 0.048 6.95 2.05 13.98
3/7/2021 11:45:00 AM 1.49 34.682 0.048 6.94 2.07 13.92
3/7/2021 12:00:00 PM 1.66 34.988 0.048 6.93 2.08 13.86
3/7/2021 12:15:00 PM 1.85 35.33 0.048 6.93 2.12 13.8
3/7/2021 12:30:00 PM 2.02 35.636 0.048 6.96 2.06 13.74
3/7/2021 12:45:00 PM 2.2 35.96 0.048 6.97 2.01 13.67
3/7/2021 1:00:00 PM 2.35 36.23 0.048 6.95 2.04 13.62
3/7/2021 1:15:00 PM 2.51 36.518 0.048 6.95 2.03 13.56
3/7/2021 1:30:00 PM 2.67 36.806 0.047 6.95 2.05 13.5
3/7/2021 1:45:00 PM 2.84 37.112 0.047 6.97 2.06 13.43
3/7/2021 2:00:00 PM 2.99 37.382 0.047 6.97 2.05 13.37
3/7/2021 2:15:00 PM 3.15 37.67 0.047 6.97 2.03 13.31
3/7/2021 2:30:00 PM 3.27 37.886 0.047 6.95 2.03 13.26
3/7/2021 2:45:00 PM 3.41 38.138 0.047 6.98 2.03 13.21
3/7/2021 3:00:00 PM 3.52 38.336 0.047 6.98 2.08 13.16
3/7/2021 3:15:00 PM 3.62 38.516 0.047 7 2.04 13.12
3/7/2021 3:30:00 PM 3.68 38.624 0.047 6.98 2.03 13.08
3/7/2021 3:45:00 PM 3.72 38.696 0.047 6.99 2.02 13.05
3/7/2021 4:00:00 PM 3.73 38.714 0.047 6.99 2.03 13.04
3/7/2021 4:15:00 PM 3.73 38.714 0.047 6.98 2.11 13.02
3/7/2021 4:30:00 PM 3.69 38.642 0.047 6.96 2.06 13.01
3/7/2021 4:45:00 PM 3.64 38.552 0.047 6.93 2.09 13.01
3/7/2021 5:00:00 PM 3.57 38.426 0.047 6.93 2.07 13
3/7/2021 5:15:00 PM 3.5 38.3 0.047 6.94 2.06 13
3/7/2021 5:30:00 PM 3.41 38.138 0.047 6.93 2.04 13.01
3/7/2021 5:45:00 PM 3.34 38.012 0.047 6.94 2.14 13.01
3/7/2021 6:00:00 PM 3.24 37.832 0.047 6.9 2.08 13.01
3/7/2021 6:15:00 PM 3.13 37.634 0.047 6.88 2.17 13.01
3/7/2021 6:30:00 PM 3.03 37.454 0.047 6.88 2.14 13.01
3/7/2021 6:45:00 PM 2.92 37.256 0.048 6.83 2.15 13.01
3/7/2021 7:00:00 PM 2.83 37.094 0.048 6.81 2.09 13.02
3/7/2021 7:15:00 PM 2.74 36.932 0.048 6.79 2.14 13.03
3/7/2021 7:30:00 PM 2.65 36.77 0.048 6.81 2.1 13.05
3/7/2021 7:45:00 PM 2.55 36.59 0.048 6.79 2.11 13.07
3/7/2021 8:00:00 PM 2.47 36.446 0.048 6.77 2.13 13.1
3/7/2021 8:15:00 PM 2.38 36.284 0.048 6.74 2.16 13.13
3/7/2021 8:30:00 PM 2.3 36.14 0.048 6.75 2.13 13.16
3/7/2021 8:45:00 PM 2.22 35.996 0.048 6.76 2.14 13.19
3/7/2021 9:00:00 PM 2.13 35.834 0.048 6.76 2.11 13.22
3/7/2021 9:15:00 PM 2.06 35.708 0.048 6.74 2.17 13.25
3/7/2021 9:30:00 PM 1.97 35.546 0.048 6.72 2.12 13.28
3/7/2021 9:45:00 PM 1.89 35.402 0.048 6.74 2.15 13.3
3/7/2021 10:00:00 PM 1.82 35.276 0.048 6.74 2.12 13.33
3/7/2021 10:15:00 PM 1.74 35.132 0.048 6.74 2.16 13.36
3/7/2021 10:30:00 PM 1.67 35.006 0.048 6.75 2.15 13.39
3/7/2021 10:45:00 PM 1.59 34.862 0.048 6.72 2.15 13.42
3/7/2021 11:00:00 PM 1.52 34.736 0.048 6.74 2.14 13.45
3/7/2021 11:15:00 PM 1.45 34.61 0.048 6.73 2.11 13.48
3/7/2021 11:30:00 PM 1.37 34.466 0.049 6.74 2.12 13.51
3/7/2021 11:45:00 PM 1.3 34.34 0.049 6.74 2.1 13.54
3/8/2021 12:00:00 AM 1.22 34.196 0.049 6.71 2.09 13.57
3/8/2021 12:15:00 AM 1.15 34.07 0.049 6.71 2.11 13.6
3/8/2021 12:30:00 AM 1.08 33.944 0.049 6.72 2.13 13.62
3/8/2021 12:45:00 AM 1 33.8 0.049 6.72 2.18 13.65
3/8/2021 1:00:00 AM 0.93 33.674 0.049 6.73 2.12 13.68
3/8/2021 1:15:00 AM 0.86 33.548 0.049 6.74 2.07 13.7
3/8/2021 1:30:00 AM 0.79 33.422 0.049 6.73 2.07 13.73
3/8/2021 1:45:00 AM 0.72 33.296 0.049 6.71 2.11 13.77
3/8/2021 2:00:00 AM 0.64 33.152 0.049 6.72 2.1 13.8
3/8/2021 2:15:00 AM 0.57 33.026 0.049 6.73 2.09 13.83
3/8/2021 2:30:00 AM 0.5 32.9 0.049 6.73 2.09 13.86
3/8/2021 2:45:00 AM 0.44 32.792 0.049 6.74 2.09 13.89
3/8/2021 3:00:00 AM 0.37 32.666 0.049 6.71 2.09 13.93
3/8/2021 3:15:00 AM 0.3 32.54 0.049 6.71 2.09 13.95
3/8/2021 3:30:00 AM 0.24 32.432 0.049 6.73 2.07 13.98
3/8/2021 3:45:00 AM 0.18 32.324 0.049 6.73 2.06 14
3/8/2021 4:00:00 AM 0.12 32.216 0.049 6.71 2.12 14.04
3/8/2021 4:15:00 AM 0.06 32.108 0.049 6.71 2.11 14.06
3/8/2021 4:30:00 AM 0.01 32.018 0.049 6.73 2.09 14.07
3/8/2021 4:45:00 AM -0.05 31.91 0.049 6.74 2.08 14.1
3/8/2021 5:00:00 AM -0.1 31.82 0.049 6.73 2.09 14.12
3/8/2021 5:15:00 AM -0.13 31.766 0.05 6.73 2.14 14.14
3/8/2021 5:30:00 AM -0.1 31.82 0.05 6.78 2.6 14.16
3/8/2021 5:45:00 AM -0.1 31.82 0.05 6.78 2.2 14.18
3/8/2021 6:00:00 AM -0.09 31.838 0.05 6.79 2.26 14.21
3/8/2021 6:15:00 AM -0.09 31.838 0.05 6.86 2.58 14.21
3/8/2021 6:30:00 AM -0.08 31.856 0.05 6.87 2.24 14.23
3/8/2021 6:45:00 AM -0.08 31.856 0.05 6.87 5.12 14.26
3/8/2021 7:00:00 AM -0.08 31.856 0.05 6.88 2.18 14.28
3/8/2021 7:15:00 AM -0.08 31.856 0.05 6.89 2.05 14.3
3/8/2021 7:30:00 AM -0.08 31.856 0.05 6.91 2.08 14.35
3/8/2021 7:45:00 AM -0.08 31.856 0.05 6.91 1.99 14.36
3/8/2021 8:00:00 AM -0.08 31.856 0.05 6.92 1.95 14.39
3/8/2021 8:15:00 AM -0.08 31.856 0.05 6.93 1.94 14.41
3/8/2021 8:30:00 AM -0.08 31.856 0.05 6.93 2.06 14.43
3/8/2021 8:45:00 AM -0.08 31.856 0.05 6.93 1.95 14.44
3/8/2021 9:00:00 AM -0.08 31.856 0.05 6.94 1.96 14.46
3/8/2021 9:15:00 AM -0.08 31.856 0.05 6.95 1.99 14.46
3/8/2021 9:30:00 AM -0.08 31.856 0.05 6.95 1.95 14.48
3/8/2021 9:45:00 AM -0.08 31.856 0.05 6.96 1.97 14.46
3/8/2021 10:00:00 AM -0.06 31.892 0.049 6.88 2.19 14.47
3/8/2021 10:15:00 AM -0.03 31.946 0.049 6.86 2.03 14.45
3/8/2021 10:30:00 AM -0.01 31.982 0.049 6.84 2.2 14.43
3/8/2021 10:45:00 AM 0.03 32.054 0.049 6.85 2.19 14.41
3/8/2021 11:00:00 AM 0.07 32.126 0.049 6.86 2.21 14.39
3/8/2021 11:15:00 AM 0.13 32.234 0.048 6.88 2.15 14.35
3/8/2021 11:30:00 AM 0.49 32.882 0.048 6.94 2.21 14.28
3/8/2021 11:45:00 AM 0.82 33.476 0.048 6.96 2.12 14.19
3/8/2021 12:00:00 PM 1.03 33.854 0.048 6.96 2.15 14.15
3/8/2021 12:15:00 PM 1.13 34.034 0.048 6.96 2.09 14.1
3/8/2021 12:30:00 PM 1.31 34.358 0.048 6.96 2.53 14.05
3/8/2021 12:45:00 PM 1.46 34.628 0.048 6.98 2.06 14
3/8/2021 1:00:00 PM 1.55 34.79 0.047 6.98 2.09 13.96
3/8/2021 1:15:00 PM 1.67 35.006 0.047 6.97 2.11 13.92
3/8/2021 1:30:00 PM 1.79 35.222 0.047 6.96 2.13 13.87
3/8/2021 1:45:00 PM 1.91 35.438 0.047 6.97 2.05 13.82
3/8/2021 2:00:00 PM 1.99 35.582 0.047 6.98 2.02 13.78
3/8/2021 2:15:00 PM 2.09 35.762 0.047 6.98 2.07 13.75
3/8/2021 2:30:00 PM 2.16 35.888 0.047 6.98 2.05 13.72
3/8/2021 2:45:00 PM 2.2 35.96 0.047 6.97 2.08 13.7
3/8/2021 3:00:00 PM 2.31 36.158 0.047 6.95 2.06 13.68
3/8/2021 3:15:00 PM 2.41 36.338 0.047 6.96 2.03 13.65
3/8/2021 3:30:00 PM 2.48 36.464 0.047 6.97 2.05 13.61
3/8/2021 3:45:00 PM 2.54 36.572 0.047 6.97 2.03 13.57
3/8/2021 4:00:00 PM 2.65 36.77 0.047 6.96 2.08 13.52
3/8/2021 4:15:00 PM 2.74 36.932 0.047 6.96 2.06 13.48
3/8/2021 4:30:00 PM 2.77 36.986 0.047 6.94 2.05 13.44
3/8/2021 4:45:00 PM 2.8 37.04 0.047 6.96 2.08 13.41
3/8/2021 5:00:00 PM 2.81 37.058 0.047 6.96 2.02 13.38
3/8/2021 5:15:00 PM 2.82 37.076 0.047 6.96 2.04 13.35
3/8/2021 5:30:00 PM 2.81 37.058 0.047 6.95 2.03 13.31
3/8/2021 5:45:00 PM 2.8 37.04 0.047 6.92 2.09 13.27
3/8/2021 6:00:00 PM 2.78 37.004 0.047 6.93 2.05 13.24
3/8/2021 6:15:00 PM 2.75 36.95 0.047 6.91 2.08 13.2
3/8/2021 6:30:00 PM 2.72 36.896 0.047 6.9 2.08 13.17
3/8/2021 6:45:00 PM 2.68 36.824 0.047 6.89 2.12 13.14
3/8/2021 7:00:00 PM 2.65 36.77 0.047 6.86 2.08 13.12
3/8/2021 7:15:00 PM 2.61 36.698 0.047 6.87 2.07 13.11
3/8/2021 7:30:00 PM 2.57 36.626 0.047 6.84 2.06 13.11
3/8/2021 7:45:00 PM 2.53 36.554 0.047 6.84 2.09 13.11
3/8/2021 8:00:00 PM 2.48 36.464 0.047 6.84 2.06 13.12
3/8/2021 8:15:00 PM 2.44 36.392 0.048 6.81 2.15 13.12
3/8/2021 8:30:00 PM 2.4 36.32 0.048 6.82 2.1 13.14
3/8/2021 8:45:00 PM 2.36 36.248 0.048 6.82 2.09 13.15
3/8/2021 9:00:00 PM 2.32 36.176 0.048 6.8 2.08 13.15
3/8/2021 9:15:00 PM 2.29 36.122 0.048 6.81 2.07 13.17
3/8/2021 9:30:00 PM 2.25 36.05 0.048 6.82 2.08 13.18
3/8/2021 9:45:00 PM 2.22 35.996 0.048 6.81 2.07 13.19
3/8/2021 10:00:00 PM 2.22 35.996 0.048 6.79 2.12 13.2
3/8/2021 10:15:00 PM 2.21 35.978 0.048 6.8 2.09 13.2
3/8/2021 10:30:00 PM 2.2 35.96 0.048 6.81 2.11 13.2
3/8/2021 10:45:00 PM 2.2 35.96 0.048 6.81 2.12 13.21
3/8/2021 11:00:00 PM 2.21 35.978 0.048 6.79 2.07 13.21
3/8/2021 11:15:00 PM 2.2 35.96 0.048 6.81 2.09 13.21
3/8/2021 11:30:00 PM 2.18 35.924 0.048 6.81 2.09 13.21
3/8/2021 11:45:00 PM 2.17 35.906 0.048 6.81 2.11 13.21
3/9/2021 12:00:00 AM 2.17 35.906 0.048 6.81 2.09 13.21
3/9/2021 12:15:00 AM 2.15 35.87 0.048 6.78 2.1 13.22
3/9/2021 12:30:00 AM 2.13 35.834 0.048 6.79 2.07 13.22
3/9/2021 12:45:00 AM 2.11 35.798 0.048 6.81 2.11 13.23
3/9/2021 1:00:00 AM 2.11 35.798 0.048 6.81 2.08 13.23
3/9/2021 1:15:00 AM 2.1 35.78 0.048 6.82 2.05 13.23
3/9/2021 1:30:00 AM 2.07 35.726 0.048 6.81 2.1 13.24
3/9/2021 1:45:00 AM 2.05 35.69 0.048 6.8 2.11 13.24
3/9/2021 2:00:00 AM 2.02 35.636 0.048 6.78 2.06 13.26
3/9/2021 2:15:00 AM 2 35.6 0.048 6.81 2.1 13.26
3/9/2021 2:30:00 AM 1.98 35.564 0.048 6.81 2.07 13.27
3/9/2021 2:45:00 AM 1.97 35.546 0.048 6.8 2.08 13.28
3/9/2021 3:00:00 AM 1.94 35.492 0.048 6.82 2.11 13.29
3/9/2021 3:15:00 AM 1.92 35.456 0.048 6.8 2.06 13.29
3/9/2021 3:30:00 AM 1.89 35.402 0.048 6.8 2.08 13.3
3/9/2021 3:45:00 AM 1.87 35.366 0.048 6.78 2.07 13.3
3/9/2021 4:00:00 AM 1.85 35.33 0.048 6.79 2.04 13.31
3/9/2021 4:15:00 AM 1.81 35.258 0.048 6.81 2.02 13.32
3/9/2021 4:30:00 AM 1.79 35.222 0.048 6.8 2.09 13.33
3/9/2021 4:45:00 AM 1.76 35.168 0.048 6.78 2.06 13.34
3/9/2021 5:00:00 AM 1.74 35.132 0.048 6.77 2.06 13.35
3/9/2021 5:15:00 AM 1.71 35.078 0.048 6.78 2.01 13.36
3/9/2021 5:30:00 AM 1.69 35.042 0.048 6.79 2.05 13.37
3/9/2021 5:45:00 AM 1.67 35.006 0.048 6.78 2.01 13.38
3/9/2021 6:00:00 AM 1.64 34.952 0.049 6.78 2.03 13.39
3/9/2021 6:15:00 AM 1.62 34.916 0.049 6.79 2.08 13.41
3/9/2021 6:30:00 AM 1.6 34.88 0.049 6.78 2.08 13.42
3/9/2021 6:45:00 AM 1.58 34.844 0.049 6.78 2.06 13.44
3/9/2021 7:00:00 AM 1.56 34.808 0.049 6.76 2.05 13.47
3/9/2021 7:15:00 AM 1.55 34.79 0.048 6.79 2.05 13.52
3/9/2021 7:30:00 AM 1.55 34.79 0.048 6.82 2 13.56
3/9/2021 7:45:00 AM 1.55 34.79 0.048 6.82 1.97 13.6
3/9/2021 8:00:00 AM 1.57 34.826 0.048 6.83 2.03 13.63
3/9/2021 8:15:00 AM 1.59 34.862 0.048 6.83 2 13.66
3/9/2021 8:30:00 AM 1.62 34.916 0.048 6.85 2.07 13.68
3/9/2021 8:45:00 AM 1.67 35.006 0.048 6.85 2.06 13.7
3/9/2021 9:00:00 AM 1.74 35.132 0.048 6.88 2.06 13.71
3/9/2021 9:15:00 AM 1.83 35.294 0.048 6.89 1.96 13.7
3/9/2021 9:30:00 AM 1.93 35.474 0.048 6.91 2.04 13.69
3/9/2021 9:45:00 AM 2.05 35.69 0.048 6.92 2.01 13.67
3/9/2021 10:00:00 AM 2.19 35.942 0.048 6.93 2 13.65
3/9/2021 10:15:00 AM 2.35 36.23 0.048 6.95 2.05 13.61
3/9/2021 10:30:00 AM 2.54 36.572 0.048 6.97 1.98 13.56
3/9/2021 10:45:00 AM 2.74 36.932 0.048 6.96 2 13.5
3/9/2021 11:00:00 AM 2.93 37.274 0.048 6.96 2.05 13.44
3/9/2021 11:15:00 AM 3.13 37.634 0.048 6.99 2.01 13.39
3/9/2021 11:30:00 AM 3.33 37.994 0.047 7 1.97 13.33
3/9/2021 11:45:00 AM 3.54 38.372 0.047 7.01 1.99 13.26
3/9/2021 12:00:00 PM 3.74 38.732 0.047 7 2.04 13.19
3/9/2021 12:15:00 PM 3.94 39.092 0.047 7.01 2.06 13.14
3/9/2021 12:30:00 PM 4.14 39.452 0.047 7.02 2.01 13.07
3/9/2021 12:45:00 PM 4.38 39.884 0.047 7.03 1.99 12.99
3/9/2021 1:00:00 PM 4.56 40.208 0.047 7.04 1.99 12.93
3/9/2021 1:15:00 PM 4.75 40.55 0.047 7.04 2 12.87
3/9/2021 1:30:00 PM 4.93 40.874 0.047 7.03 2 12.8
3/9/2021 1:45:00 PM 5.1 41.18 0.047 7.04 2.05 12.73
3/9/2021 2:00:00 PM 5.27 41.486 0.047 7.05 2.03 12.68
3/9/2021 2:15:00 PM 5.42 41.756 0.047 7.04 2.03 12.62
3/9/2021 2:30:00 PM 5.57 42.026 0.047 7.04 2.08 12.56
3/9/2021 2:45:00 PM 5.69 42.242 0.047 7.01 2.08 12.51
3/9/2021 3:00:00 PM 5.8 42.44 0.047 7.04 2.11 12.48
3/9/2021 3:15:00 PM 5.92 42.656 0.047 7.04 2.07 12.43
3/9/2021 3:30:00 PM 6.01 42.818 0.047 7.03 2.15 12.39
3/9/2021 3:45:00 PM 6.05 42.89 0.047 7.04 2.11 12.36
3/9/2021 4:00:00 PM 6.08 42.944 0.047 7.01 2.15 12.33
3/9/2021 4:15:00 PM 6.07 42.926 0.047 7 2.18 12.32
3/9/2021 4:30:00 PM 6.04 42.872 0.047 7 2.24 12.3
3/9/2021 4:45:00 PM 5.99 42.782 0.047 6.99 2.23 12.29
3/9/2021 5:00:00 PM 5.92 42.656 0.047 6.98 2.28 12.28
3/9/2021 5:15:00 PM 5.84 42.512 0.047 6.97 2.31 12.27
3/9/2021 5:30:00 PM 5.74 42.332 0.047 6.96 2.36 12.27
3/9/2021 5:45:00 PM 5.64 42.152 0.047 6.93 2.44 12.27
3/9/2021 6:00:00 PM 5.52 41.936 0.047 6.91 2.43 12.26
3/9/2021 6:15:00 PM 5.4 41.72 0.047 6.9 2.46 12.26
3/9/2021 6:30:00 PM 5.28 41.504 0.047 6.89 2.45 12.25
3/9/2021 6:45:00 PM 5.17 41.306 0.047 6.84 2.55 12.24
3/9/2021 7:00:00 PM 5.05 41.09 0.047 6.86 2.6 12.26
3/9/2021 7:15:00 PM 4.94 40.892 0.047 6.85 2.55 12.28
3/9/2021 7:30:00 PM 4.82 40.676 0.047 6.83 2.49 12.3
3/9/2021 7:45:00 PM 4.71 40.478 0.047 6.8 2.54 12.33
3/9/2021 8:00:00 PM 4.6 40.28 0.047 6.78 2.53 12.36
3/9/2021 8:15:00 PM 4.49 40.082 0.048 6.78 2.51 12.39
3/9/2021 8:30:00 PM 4.4 39.92 0.048 6.77 2.53 12.42
3/9/2021 8:45:00 PM 4.3 39.74 0.048 6.76 2.46 12.44
3/9/2021 9:00:00 PM 4.2 39.56 0.048 6.76 2.39 12.48
3/9/2021 9:15:00 PM 4.12 39.416 0.048 6.75 2.46 12.51
3/9/2021 9:30:00 PM 4.03 39.254 0.048 6.75 2.48 12.54
3/9/2021 9:45:00 PM 3.95 39.11 0.048 6.75 2.43 12.57
3/9/2021 10:00:00 PM 3.86 38.948 0.048 6.74 2.4 12.61
3/9/2021 10:15:00 PM 3.78 38.804 0.048 6.73 2.44 12.63
3/9/2021 10:30:00 PM 3.71 38.678 0.048 6.71 2.48 12.65
3/9/2021 10:45:00 PM 3.63 38.534 0.048 6.74 2.37 12.68
3/9/2021 11:00:00 PM 3.56 38.408 0.048 6.74 2.38 12.71
3/9/2021 11:15:00 PM 3.48 38.264 0.048 6.75 2.38 12.74
3/9/2021 11:30:00 PM 3.41 38.138 0.048 6.72 2.39 12.76
3/9/2021 11:45:00 PM 3.34 38.012 0.048 6.72 2.39 12.79
3/10/2021 12:00:00 AM 3.27 37.886 0.048 6.72 2.39 12.82
3/10/2021 12:15:00 AM 3.2 37.76 0.049 6.73 2.38 12.85
3/10/2021 12:30:00 AM 3.13 37.634 0.049 6.74 2.44 12.87
3/10/2021 12:45:00 AM 3.06 37.508 0.049 6.74 2.41 12.9
3/10/2021 1:00:00 AM 2.99 37.382 0.049 6.73 2.41 12.92
3/10/2021 1:15:00 AM 2.93 37.274 0.049 6.72 2.37 12.95
3/10/2021 1:30:00 AM 2.86 37.148 0.049 6.74 2.34 12.97
3/10/2021 1:45:00 AM 2.8 37.04 0.049 6.73 2.35 13
3/10/2021 2:00:00 AM 2.74 36.932 0.049 6.72 2.34 13.02
3/10/2021 2:15:00 AM 2.68 36.824 0.049 6.73 2.38 13.05
3/10/2021 2:30:00 AM 2.62 36.716 0.049 6.75 2.32 13.08
3/10/2021 2:45:00 AM 2.56 36.608 0.049 6.74 2.35 13.1
3/10/2021 3:00:00 AM 2.5 36.5 0.049 6.73 2.29 13.12
3/10/2021 3:15:00 AM 2.45 36.41 0.049 6.72 2.33 13.14
3/10/2021 3:30:00 AM 2.4 36.32 0.049 6.73 2.29 13.16
3/10/2021 3:45:00 AM 2.35 36.23 0.049 6.73 2.25 13.18
3/10/2021 4:00:00 AM 2.3 36.14 0.049 6.74 2.31 13.2
3/10/2021 4:15:00 AM 2.25 36.05 0.049 6.72 2.27 13.21
3/10/2021 4:30:00 AM 2.2 35.96 0.049 6.74 2.28 13.23
3/10/2021 4:45:00 AM 2.16 35.888 0.049 6.73 2.22 13.24
3/10/2021 5:00:00 AM 2.12 35.816 0.049 6.72 2.32 13.26
3/10/2021 5:15:00 AM 2.08 35.744 0.049 6.72 2.25 13.28
3/10/2021 5:30:00 AM 2.04 35.672 0.049 6.74 2.28 13.29
3/10/2021 5:45:00 AM 2 35.6 0.049 6.73 2.28 13.3
3/10/2021 6:00:00 AM 1.96 35.528 0.049 6.74 2.23 13.32
3/10/2021 6:15:00 AM 1.92 35.456 0.049 6.74 2.21 13.34
3/10/2021 6:30:00 AM 1.89 35.402 0.049 6.75 2.21 13.36
3/10/2021 6:45:00 AM 1.86 35.348 0.049 6.75 2.25 13.39
3/10/2021 7:00:00 AM 1.83 35.294 0.049 6.74 2.23 13.42
3/10/2021 7:15:00 AM 1.8 35.24 0.049 6.74 2.26 13.45
3/10/2021 7:30:00 AM 1.78 35.204 0.049 6.74 2.24 13.49
3/10/2021 7:45:00 AM 1.76 35.168 0.049 6.76 2.21 13.54
3/10/2021 8:00:00 AM 1.77 35.186 0.049 6.77 2.21 13.58
3/10/2021 8:15:00 AM 1.77 35.186 0.049 6.78 2.23 13.61
3/10/2021 8:30:00 AM 1.79 35.222 0.049 6.81 2.25 13.64
3/10/2021 8:45:00 AM 1.82 35.276 0.049 6.82 2.21 13.66
3/10/2021 9:00:00 AM 1.89 35.402 0.049 6.83 2.19 13.67
3/10/2021 9:15:00 AM 1.97 35.546 0.049 6.86 2.18 13.67
3/10/2021 9:30:00 AM 2.05 35.69 0.049 6.88 2.23 13.66
3/10/2021 9:45:00 AM 2.16 35.888 0.048 6.88 2.26 13.64
3/10/2021 10:00:00 AM 2.3 36.14 0.048 6.91 2.18 13.62
3/10/2021 10:15:00 AM 2.46 36.428 0.048 6.92 2.21 13.59
3/10/2021 10:30:00 AM 2.65 36.77 0.048 6.93 2.24 13.55
3/10/2021 10:45:00 AM 2.84 37.112 0.048 6.94 2.15 13.49
3/10/2021 11:00:00 AM 3.05 37.49 0.048 6.96 2.16 13.44
3/10/2021 11:15:00 AM 3.27 37.886 0.048 6.99 2.18 13.37
3/10/2021 11:30:00 AM 3.49 38.282 0.048 6.99 2.22 13.31
3/10/2021 11:45:00 AM 3.71 38.678 0.048 6.96 2.19 13.24
3/10/2021 12:00:00 PM 3.95 39.11 0.048 6.99 2.18 13.16
3/10/2021 12:15:00 PM 4.19 39.542 0.048 7 2.13 13.09
3/10/2021 12:30:00 PM 4.41 39.938 0.048 7.01 2.17 13.01
3/10/2021 12:45:00 PM 4.64 40.352 0.047 6.98 2.19 12.93
3/10/2021 1:00:00 PM 4.86 40.748 0.047 7.01 2.15 12.86
3/10/2021 1:15:00 PM 5.08 41.144 0.047 7.01 2.15 12.79
3/10/2021 1:30:00 PM 5.29 41.522 0.047 7.02 2.16 12.72
3/10/2021 1:45:00 PM 5.47 41.846 0.047 7.02 2.2 12.65
3/10/2021 2:00:00 PM 5.66 42.188 0.047 7.03 2.24 12.58
3/10/2021 2:15:00 PM 5.84 42.512 0.047 7.05 2.24 12.51
3/10/2021 2:30:00 PM 6.01 42.818 0.047 7.04 2.3 12.45
3/10/2021 2:45:00 PM 6.16 43.088 0.047 7.04 2.29 12.4
3/10/2021 3:00:00 PM 6.28 43.304 0.047 7.04 2.34 12.34
3/10/2021 3:15:00 PM 6.38 43.484 0.047 7.04 2.39 12.3
3/10/2021 3:30:00 PM 6.46 43.628 0.047 7.04 2.41 12.26
3/10/2021 3:45:00 PM 6.5 43.7 0.047 7.02 2.45 12.22
3/10/2021 4:00:00 PM 6.51 43.718 0.047 7.03 2.6 12.21
3/10/2021 4:15:00 PM 6.5 43.7 0.047 7 2.7 12.19
3/10/2021 4:30:00 PM 6.46 43.628 0.046 6.99 2.82 12.18
3/10/2021 4:45:00 PM 6.4 43.52 0.046 7 2.83 12.17
3/10/2021 5:00:00 PM 6.33 43.394 0.046 6.99 2.96 12.17
3/10/2021 5:15:00 PM 6.26 43.268 0.046 6.98 3 12.17
3/10/2021 5:30:00 PM 6.16 43.088 0.046 6.97 3.23 12.16
3/10/2021 5:45:00 PM 6.05 42.89 0.046 6.94 3.18 12.14
3/10/2021 6:00:00 PM 5.95 42.71 0.046 6.92 3.22 12.13
3/10/2021 6:15:00 PM 5.83 42.494 0.046 6.87 3.29 12.11
3/10/2021 6:30:00 PM 5.72 42.296 0.046 6.86 3.53 12.09
3/10/2021 6:45:00 PM 5.61 42.098 0.046 6.86 3.39 12.09
3/10/2021 7:00:00 PM 5.49 41.882 0.046 6.81 3.5 12.1
3/10/2021 7:15:00 PM 5.38 41.684 0.047 6.79 3.62 12.1
3/10/2021 7:30:00 PM 5.28 41.504 0.047 6.79 3.71 12.12
3/10/2021 7:45:00 PM 5.18 41.324 0.047 6.77 3.74 12.14
3/10/2021 8:00:00 PM 5.08 41.144 0.047 6.77 3.87 12.17
3/10/2021 8:15:00 PM 4.99 40.982 0.047 6.75 3.71 12.19
3/10/2021 8:30:00 PM 4.9 40.82 0.047 6.76 3.75 12.22
3/10/2021 8:45:00 PM 4.83 40.694 0.047 6.76 3.76 12.25
3/10/2021 9:00:00 PM 4.75 40.55 0.047 6.76 3.77 12.27
3/10/2021 9:15:00 PM 4.67 40.406 0.047 6.75 3.85 12.29
3/10/2021 9:30:00 PM 4.6 40.28 0.047 6.74 3.97 12.31
3/10/2021 9:45:00 PM 4.52 40.136 0.047 6.73 4.06 12.33
3/10/2021 10:00:00 PM 4.44 39.992 0.047 6.73 4.07 12.36
3/10/2021 10:15:00 PM 4.37 39.866 0.047 6.71 4.12 12.39
3/10/2021 10:30:00 PM 4.3 39.74 0.047 6.73 4 12.41
3/10/2021 10:45:00 PM 4.23 39.614 0.047 6.73 4.02 12.43
3/10/2021 11:00:00 PM 4.16 39.488 0.047 6.73 3.92 12.46
3/10/2021 11:15:00 PM 4.09 39.362 0.047 6.72 3.98 12.48
3/10/2021 11:30:00 PM 4.03 39.254 0.047 6.7 3.89 12.5
3/10/2021 11:45:00 PM 3.97 39.146 0.047 6.72 3.99 12.52
3/11/2021 12:00:00 AM 3.92 39.056 0.047 6.73 4 12.54
3/11/2021 12:15:00 AM 3.87 38.966 0.047 6.72 3.87 12.56
3/11/2021 12:30:00 AM 3.82 38.876 0.047 6.71 4.16 12.58
3/11/2021 12:45:00 AM 3.78 38.804 0.047 6.71 3.94 12.6
3/11/2021 1:00:00 AM 3.75 38.75 0.047 6.74 3.88 12.61
3/11/2021 1:15:00 AM 3.72 38.696 0.047 6.74 3.92 12.62
3/11/2021 1:30:00 AM 3.7 38.66 0.047 6.73 4 12.63
3/11/2021 1:45:00 AM 3.67 38.606 0.047 6.73 4.03 12.64
3/11/2021 2:00:00 AM 3.65 38.57 0.047 6.73 3.91 12.65
3/11/2021 2:15:00 AM 3.63 38.534 0.047 6.72 4.06 12.65
3/11/2021 2:30:00 AM 3.62 38.516 0.047 6.75 3.87 12.66
3/11/2021 2:45:00 AM 3.6 38.48 0.047 6.75 4.09 12.66
3/11/2021 3:00:00 AM 3.6 38.48 0.047 6.75 4.1 12.67
3/11/2021 3:15:00 AM 3.58 38.444 0.047 6.75 4.01 12.67
3/11/2021 3:30:00 AM 3.58 38.444 0.047 6.74 4.04 12.67
3/11/2021 3:45:00 AM 3.57 38.426 0.047 6.74 4.05 12.67
3/11/2021 4:00:00 AM 3.56 38.408 0.047 6.73 4.19 12.68
3/11/2021 4:15:00 AM 3.55 38.39 0.047 6.74 4.22 12.67
3/11/2021 4:30:00 AM 3.55 38.39 0.047 6.75 4.23 12.67
3/11/2021 4:45:00 AM 3.55 38.39 0.047 6.72 4.31 12.67
3/11/2021 5:00:00 AM 3.54 38.372 0.047 6.72 4.32 12.68
3/11/2021 5:15:00 AM 3.54 38.372 0.047 6.73 4.22 12.68
3/11/2021 5:30:00 AM 3.52 38.336 0.047 6.74 4.27 12.68
3/11/2021 5:45:00 AM 3.51 38.318 0.047 6.73 4.32 12.68
3/11/2021 6:00:00 AM 3.5 38.3 0.047 6.72 4.52 12.68
3/11/2021 6:15:00 AM 3.49 38.282 0.047 6.71 4.41 12.69
3/11/2021 6:30:00 AM 3.48 38.264 0.047 6.73 4.61 12.69
3/11/2021 6:45:00 AM 3.47 38.246 0.047 6.72 4.52 12.7
3/11/2021 7:00:00 AM 3.46 38.228 0.047 6.73 4.56 12.72
3/11/2021 7:15:00 AM 3.45 38.21 0.047 6.75 4.67 12.74
3/11/2021 7:30:00 AM 3.44 38.192 0.047 6.73 4.75 12.77
3/11/2021 7:45:00 AM 3.44 38.192 0.047 6.74 4.67 12.8
3/11/2021 8:00:00 AM 3.45 38.21 0.046 6.74 4.59 12.83
3/11/2021 8:15:00 AM 3.5 38.3 0.046 6.77 4.4 12.86
3/11/2021 8:30:00 AM 3.54 38.372 0.046 6.8 4.62 12.89
3/11/2021 8:45:00 AM 3.63 38.534 0.046 6.8 4.67 12.91
3/11/2021 9:00:00 AM 3.68 38.624 0.046 6.83 4.54 12.92
3/11/2021 9:15:00 AM 3.75 38.75 0.046 6.84 4.58 12.92
3/11/2021 9:30:00 AM 3.83 38.894 0.046 6.86 4.63 12.91
3/11/2021 9:45:00 AM 3.86 38.948 0.046 6.86 4.8 12.89
3/11/2021 10:00:00 AM 3.92 39.056 0.046 6.9 4.45 12.88
3/11/2021 10:15:00 AM 4.03 39.254 0.046 6.91 4.74 12.86
3/11/2021 10:30:00 AM 4.13 39.434 0.046 6.91 4.46 12.85
3/11/2021 10:45:00 AM 4.3 39.74 0.046 6.92 4.28 12.82
3/11/2021 11:00:00 AM 4.52 40.136 0.045 6.93 4.27 12.79
3/11/2021 11:15:00 AM 4.7 40.46 0.045 6.95 4.32 12.75
3/11/2021 11:30:00 AM 4.91 40.838 0.045 6.93 4.65 12.7
3/11/2021 11:45:00 AM 5.09 41.162 0.045 6.94 4.73 12.65
3/11/2021 12:00:00 PM 5.29 41.522 0.045 6.96 4.72 12.59
3/11/2021 12:15:00 PM 5.47 41.846 0.045 6.96 5.09 12.54
3/11/2021 12:30:00 PM 5.69 42.242 0.045 6.96 4.83 12.47
3/11/2021 12:45:00 PM 5.79 42.422 0.045 6.96 4.91 12.43
3/11/2021 1:00:00 PM 5.94 42.692 0.045 6.97 5.26 12.37
3/11/2021 1:15:00 PM 5.97 42.746 0.044 6.96 5.23 12.34
3/11/2021 1:30:00 PM 6.17 43.106 0.044 6.96 5.74 12.29
3/11/2021 1:45:00 PM 6.26 43.268 0.044 6.96 5.27 12.26
3/11/2021 2:00:00 PM 6.39 43.502 0.044 6.97 6.09 12.22
3/11/2021 2:15:00 PM 6.49 43.682 0.044 6.95 6.69 12.18
3/11/2021 2:30:00 PM 6.54 43.772 0.044 6.94 6.64 12.15
3/11/2021 2:45:00 PM 6.51 43.718 0.044 6.92 7.16 12.11
3/11/2021 3:00:00 PM 6.54 43.772 0.043 6.92 7.2 12.07
3/11/2021 3:15:00 PM 6.49 43.682 0.043 6.9 7.71 12.05
3/11/2021 3:30:00 PM 6.44 43.592 0.043 6.87 8.17 12.02
3/11/2021 3:45:00 PM 6.38 43.484 0.043 6.84 8.77 12.01
3/11/2021 4:00:00 PM 6.3 43.34 0.043 6.81 9.45 12
3/11/2021 4:15:00 PM 6.25 43.25 0.043 6.81 9.56 12.01
3/11/2021 4:30:00 PM 6.19 43.142 0.043 6.82 9.82 12.02
3/11/2021 4:45:00 PM 6.14 43.052 0.043 6.77 10.56 12.03
3/11/2021 5:00:00 PM 6.07 42.926 0.042 6.71 10.55 12.02
3/11/2021 5:15:00 PM 6.01 42.818 0.042 6.69 11.19 12
3/11/2021 5:30:00 PM 5.92 42.656 0.042 6.67 11.24 12
3/11/2021 5:45:00 PM 5.83 42.494 0.042 6.65 11.38 12.02
3/11/2021 6:00:00 PM 5.74 42.332 0.042 6.65 11.38 12.02
3/11/2021 6:15:00 PM 5.64 42.152 0.042 6.73 12.6 12.03
3/11/2021 6:30:00 PM 5.56 42.008 0.042 6.7 12.45 12.04
3/11/2021 6:45:00 PM 5.5 41.9 0.042 6.67 12.72 12.05
3/11/2021 7:00:00 PM 5.42 41.756 0.042 6.67 13.39 12.06
3/11/2021 7:15:00 PM 5.35 41.63 0.042 6.64 13.51 12.07
3/11/2021 7:30:00 PM 5.28 41.504 0.042 6.62 13.79 12.1
3/11/2021 7:45:00 PM 5.19 41.342 0.042 6.6 14.05 12.1
3/11/2021 8:00:00 PM 5.12 41.216 0.042 6.58 14.08 12.12
3/11/2021 8:15:00 PM 5.06 41.108 0.042 6.58 14.77 12.14
3/11/2021 8:30:00 PM 5 41 0.042 6.55 14.66 12.16
3/11/2021 8:45:00 PM 4.95 40.91 0.042 6.57 14.91 12.18
3/11/2021 9:00:00 PM 4.9 40.82 0.041 6.58 15.22 12.2
3/11/2021 9:15:00 PM 4.86 40.748 0.041 6.55 15.49 12.21
3/11/2021 9:30:00 PM 4.83 40.694 0.041 6.56 16.15 12.22
3/11/2021 9:45:00 PM 4.8 40.64 0.041 6.55 16.01 12.23
3/11/2021 10:00:00 PM 4.77 40.586 0.041 6.61 18.07 12.24
3/11/2021 10:15:00 PM 4.74 40.532 0.041 6.56 17.59 12.25
3/11/2021 10:30:00 PM 4.71 40.478 0.041 6.58 12.37 12.26
3/11/2021 10:45:00 PM 4.69 40.442 0.041 6.58 16.74 12.27
3/11/2021 11:00:00 PM 4.67 40.406 0.041 6.54 16.08 12.28
3/11/2021 11:15:00 PM 4.64 40.352 0.041 6.53 15.1 12.28
3/11/2021 11:30:00 PM 4.62 40.316 0.041 6.54 16.09 12.29
3/11/2021 11:45:00 PM 4.61 40.298 0.041 6.56 15.31 12.3
3/12/2021 12:00:00 AM 4.6 40.28 0.041 6.5 15.68 12.3
3/12/2021 12:15:00 AM 4.59 40.262 0.041 6.49 15.6 12.31
3/12/2021 12:30:00 AM 4.56 40.208 0.041 6.55 18.34 12.31
3/12/2021 12:45:00 AM 4.55 40.19 0.041 6.53 17.14 12.32
3/12/2021 1:00:00 AM 4.52 40.136 0.041 6.56 18.98 12.33
3/12/2021 1:15:00 AM 4.5 40.1 0.041 6.6 18.42 12.34
3/12/2021 1:30:00 AM 4.49 40.082 0.041 6.58 20.66 12.35
3/12/2021 1:45:00 AM 4.47 40.046 0.041 6.58 17.87 12.36
3/12/2021 2:00:00 AM 4.45 40.01 0.04 6.57 15.64 12.37
3/12/2021 2:15:00 AM 4.44 39.992 0.04 6.54 21.68 12.37
3/12/2021 2:30:00 AM 4.42 39.956 0.04 6.57 14.24 12.38
3/12/2021 2:45:00 AM 4.41 39.938 0.04 6.57 19.16 12.39
3/12/2021 3:00:00 AM 4.39 39.902 0.04 6.54 17.99 12.39
3/12/2021 3:15:00 AM 4.37 39.866 0.04 6.52 17.63 12.4
3/12/2021 3:30:00 AM 4.36 39.848 0.04 6.44 22.2 12.4
3/12/2021 3:45:00 AM 4.35 39.83 0.04 6.53 19.28 12.41
3/12/2021 4:00:00 AM 4.34 39.812 0.04 6.47 25.98 12.42
3/12/2021 4:15:00 AM 4.32 39.776 0.04 6.42 20.6 12.43
3/12/2021 4:30:00 AM 4.29 39.722 0.04 6.44 20.41 12.43
3/12/2021 4:45:00 AM 4.27 39.686 0.04 6.43 20.14 12.44
3/12/2021 5:00:00 AM 4.24 39.632 0.04 6.53 20.73 12.45
3/12/2021 5:15:00 AM 4.21 39.578 0.04 6.52 20.04 12.46
3/12/2021 5:30:00 AM 4.18 39.524 0.04 6.54 17.74 12.47
3/12/2021 5:45:00 AM 4.15 39.47 0.039 6.54 20.36 12.48
3/12/2021 6:00:00 AM 4.11 39.398 0.039 6.52 18.88 12.49
3/12/2021 6:15:00 AM 4.07 39.326 0.039 6.54 20.89 12.5
3/12/2021 6:30:00 AM 4.04 39.272 0.039 6.52 21.6 12.52
3/12/2021 6:45:00 AM 4.01 39.218 0.039 6.55 20.55 12.53
3/12/2021 7:00:00 AM 3.99 39.182 0.039 6.51 17.32 12.54
3/12/2021 7:15:00 AM 3.96 39.128 0.039 6.5 20.73 12.56
3/12/2021 7:30:00 AM 3.94 39.092 0.039 6.53 16.27 12.57
3/12/2021 7:45:00 AM 3.92 39.056 0.039 6.5 24.39 12.59
3/12/2021 8:00:00 AM 3.92 39.056 0.039 6.49 19.71 12.6
3/12/2021 8:15:00 AM 3.92 39.056 0.039 6.53 20.24 12.6
3/12/2021 8:30:00 AM 3.94 39.092 0.039 6.5 19.08 12.62
3/12/2021 8:45:00 AM 3.98 39.164 0.039 6.48 395.49 12.62
3/12/2021 9:00:00 AM 4.04 39.272 0.039 6.42 17.91 12.61
3/12/2021 9:15:00 AM 4.1 39.38 0.039 6.47 19.42 12.61
3/12/2021 9:30:00 AM 4.17 39.506 0.039 6.49 16 12.6
3/12/2021 9:45:00 AM 4.25 39.65 0.039 6.4 18.81 12.58
3/12/2021 10:00:00 AM 4.34 39.812 0.039 6.43 18.39 12.57
3/12/2021 10:15:00 AM 4.44 39.992 0.039 6.47 18.57 12.56
3/12/2021 10:30:00 AM 4.56 40.208 0.038 6.6 14.82 12.53
3/12/2021 10:45:00 AM 4.67 40.406 0.039 6.57 218.99 12.5
3/12/2021 11:00:00 AM 4.8 40.64 0.039 6.56 17.18 12.47
3/12/2021 11:15:00 AM 4.93 40.874 0.038 6.54 16.51 12.43
3/12/2021 11:30:00 AM 5.07 41.126 0.039 6.6 15.18 12.4
3/12/2021 11:45:00 AM 5.22 41.396 0.039 6.6 17.43 12.37
3/12/2021 12:00:00 PM 5.35 41.63 0.039 6.57 18.13 12.32
3/12/2021 12:15:00 PM 5.48 41.864 0.039 6.64 17.15 12.27
3/12/2021 12:30:00 PM 5.62 42.116 0.039 6.73 16.76 12.23
3/12/2021 12:45:00 PM 5.75 42.35 0.039 6.72 16.13 12.19
3/12/2021 1:00:00 PM 5.88 42.584 0.039 6.77 47.23 12.15
3/12/2021 1:15:00 PM 6.01 42.818 0.039 6.74 15.96 12.11
3/12/2021 1:30:00 PM 6.13 43.034 0.039 6.74 13.76 12.07
3/12/2021 1:45:00 PM 6.24 43.232 0.039 6.75 15.45 12.04
3/12/2021 2:00:00 PM 6.34 43.412 0.039 6.72 14.9 12
3/12/2021 2:15:00 PM 6.43 43.574 0.039 6.73 16.34 11.96
3/12/2021 2:30:00 PM 6.5 43.7 0.038 6.74 14.69 11.93
3/12/2021 2:45:00 PM 6.56 43.808 0.039 6.69 14.96 11.92
3/12/2021 3:00:00 PM 6.61 43.898 0.038 6.73 14.94 11.9
3/12/2021 3:15:00 PM 6.63 43.934 0.038 6.73 15.13 11.88
3/12/2021 3:30:00 PM 6.64 43.952 0.038 6.73 15.59 11.86
3/12/2021 3:45:00 PM 6.63 43.934 0.038 6.71 15.61 11.85
3/12/2021 4:00:00 PM 6.61 43.898 0.038 6.71 15.52 11.86
3/12/2021 4:15:00 PM 6.56 43.808 0.038 6.69 15.82 11.85
3/12/2021 4:30:00 PM 6.51 43.718 0.038 6.62 17.49 11.85
3/12/2021 4:45:00 PM 6.43 43.574 0.038 6.67 15.95 11.85
3/12/2021 5:00:00 PM 6.34 43.412 0.038 6.66 15.84 11.87
3/12/2021 5:15:00 PM 6.25 43.25 0.038 6.62 16.6 11.87
3/12/2021 5:30:00 PM 6.13 43.034 0.038 6.62 16.77 11.89
3/12/2021 5:45:00 PM 6.02 42.836 0.038 6.58 17.96 11.92
3/12/2021 6:00:00 PM 5.9 42.62 0.038 6.58 16.1 11.95
3/12/2021 6:15:00 PM 5.79 42.422 0.038 6.54 16.28 11.97
3/12/2021 6:30:00 PM 5.67 42.206 0.038 6.54 17.32 11.99
3/12/2021 6:45:00 PM 5.57 42.026 0.038 6.52 17.28 12.02
3/12/2021 7:00:00 PM 5.47 41.846 0.038 6.52 16.75 12.04
3/12/2021 7:15:00 PM 5.39 41.702 0.038 6.52 21.01 12.08
3/12/2021 7:30:00 PM 5.31 41.558 0.038 6.49 16.89 12.1
3/12/2021 7:45:00 PM 5.24 41.432 0.038 6.48 15.67 12.12
3/12/2021 8:00:00 PM 5.17 41.306 0.038 6.5 15.67 12.15
3/12/2021 8:15:00 PM 5.11 41.198 0.038 6.44 12.37 12.17
3/12/2021 8:30:00 PM 5.05 41.09 0.038 6.45 15.47 12.19
3/12/2021 8:45:00 PM 4.99 40.982 0.038 6.38 15.34 12.22
3/12/2021 9:00:00 PM 4.95 40.91 0.038 6.39 14.88 12.23
3/12/2021 9:15:00 PM 4.9 40.82 0.038 6.4 14.07 12.25
3/12/2021 9:30:00 PM 4.85 40.73 0.038 6.4 14.1 12.26
3/12/2021 9:45:00 PM 4.81 40.658 0.038 6.52 13.39 12.29
3/12/2021 10:00:00 PM 4.76 40.568 0.038 6.5 13.35 12.3
3/12/2021 10:15:00 PM 4.72 40.496 0.038 6.5 12.61 12.32
3/12/2021 10:30:00 PM 4.68 40.424 0.038 6.52 12.86 12.33
3/12/2021 10:45:00 PM 4.63 40.334 0.038 6.51 12.19 12.35
3/12/2021 11:00:00 PM 4.58 40.244 0.038 6.51 12.21 12.36
3/12/2021 11:15:00 PM 4.53 40.154 0.038 6.46 12 12.38
3/12/2021 11:30:00 PM 4.49 40.082 0.038 6.47 11.78 12.39
3/12/2021 11:45:00 PM 4.44 39.992 0.038 6.49 11.7 12.41
3/13/2021 12:00:00 AM 4.4 39.92 0.038 6.49 11.54 12.43
3/13/2021 12:15:00 AM 4.35 39.83 0.038 6.51 11.45 12.45
3/13/2021 12:30:00 AM 4.29 39.722 0.038 6.49 11.07 12.47
3/13/2021 12:45:00 AM 4.23 39.614 0.038 6.48 11.27 12.49
3/13/2021 1:00:00 AM 4.19 39.542 0.038 6.46 11.05 12.51
3/13/2021 1:15:00 AM 4.16 39.488 0.038 6.48 11.3 12.52
3/13/2021 1:30:00 AM 4.12 39.416 0.038 6.5 11.09 12.54
3/13/2021 1:45:00 AM 4.07 39.326 0.038 6.5 10.86 12.55
3/13/2021 2:00:00 AM 4.03 39.254 0.038 6.49 10.88 12.57
3/13/2021 2:15:00 AM 4 39.2 0.038 6.5 10.74 12.58
3/13/2021 2:30:00 AM 3.97 39.146 0.038 6.49 10.42 12.6
3/13/2021 2:45:00 AM 3.94 39.092 0.038 6.5 10.46 12.6
3/13/2021 3:00:00 AM 3.91 39.038 0.037 6.51 10.09 12.61
3/13/2021 3:15:00 AM 3.89 39.002 0.037 6.5 10.14 12.62
3/13/2021 3:30:00 AM 3.85 38.93 0.037 6.51 10.26 12.63
3/13/2021 3:45:00 AM 3.82 38.876 0.037 6.51 9.85 12.65
3/13/2021 4:00:00 AM 3.8 38.84 0.037 6.52 9.75 12.66
3/13/2021 4:15:00 AM 3.77 38.786 0.037 6.49 9.59 12.67
3/13/2021 4:30:00 AM 3.73 38.714 0.037 6.48 9.55 12.68
3/13/2021 4:45:00 AM 3.71 38.678 0.037 6.51 9.43 12.69
3/13/2021 5:00:00 AM 3.68 38.624 0.037 6.49 9.17 12.7
3/13/2021 5:15:00 AM 3.66 38.588 0.037 6.47 9.69 12.72
3/13/2021 5:30:00 AM 3.63 38.534 0.037 6.48 9.37 12.73
3/13/2021 5:45:00 AM 3.6 38.48 0.037 6.49 9.38 12.74
3/13/2021 6:00:00 AM 3.57 38.426 0.037 6.49 9.56 12.75
3/13/2021 6:15:00 AM 3.54 38.372 0.037 6.49 9.17 12.76
3/13/2021 6:30:00 AM 3.52 38.336 0.037 6.5 9.28 12.77
3/13/2021 6:45:00 AM 3.5 38.3 0.037 6.49 9.21 12.78
3/13/2021 7:00:00 AM 3.48 38.264 0.037 6.51 9.07 12.79
3/13/2021 7:15:00 AM 3.47 38.246 0.037 6.5 8.86 12.8
3/13/2021 7:30:00 AM 3.46 38.228 0.037 6.53 8.73 12.82
3/13/2021 7:45:00 AM 3.45 38.21 0.037 6.51 8.57 12.83
3/13/2021 8:00:00 AM 3.45 38.21 0.037 6.53 8.35 12.84
3/13/2021 8:15:00 AM 3.45 38.21 0.037 6.53 8.42 12.85
3/13/2021 8:30:00 AM 3.47 38.246 0.037 6.54 8.24 12.85
3/13/2021 8:45:00 AM 3.5 38.3 0.037 6.5 8.08 12.86
3/13/2021 9:00:00 AM 3.54 38.372 0.037 6.54 8.06 12.86
3/13/2021 9:15:00 AM 3.59 38.462 0.037 6.58 7.97 12.86
3/13/2021 9:30:00 AM 3.65 38.57 0.037 6.59 7.87 12.85
3/13/2021 9:45:00 AM 3.72 38.696 0.037 6.58 7.79 12.84
3/13/2021 10:00:00 AM 3.8 38.84 0.037 6.6 7.85 12.83
3/13/2021 10:15:00 AM 3.89 39.002 0.037 6.6 7.86 12.8
3/13/2021 10:30:00 AM 3.98 39.164 0.037 6.61 7.73 12.78
3/13/2021 10:45:00 AM 4.09 39.362 0.037 6.62 7.98 12.75
3/13/2021 11:00:00 AM 4.21 39.578 0.037 6.62 7.72 12.73
3/13/2021 11:15:00 AM 4.33 39.794 0.037 6.63 7.62 12.69
3/13/2021 11:30:00 AM 4.46 40.028 0.037 6.64 7.88 12.66
3/13/2021 11:45:00 AM 4.59 40.262 0.037 6.66 7.36 12.61
3/13/2021 12:00:00 PM 4.73 40.514 0.037 6.64 7.58 12.57
3/13/2021 12:15:00 PM 4.87 40.766 0.037 6.64 7.35 12.53
3/13/2021 12:30:00 PM 5.02 41.036 0.037 6.66 7.36 12.49
3/13/2021 12:45:00 PM 5.15 41.27 0.037 6.68 7.3 12.45
3/13/2021 1:00:00 PM 5.29 41.522 0.037 6.67 7.11 12.39
3/13/2021 1:15:00 PM 5.42 41.756 0.037 6.66 7.17 12.35
3/13/2021 1:30:00 PM 5.55 41.99 0.037 6.69 7.14 12.31
3/13/2021 1:45:00 PM 5.68 42.224 0.037 6.7 7.07 12.27
3/13/2021 2:00:00 PM 5.79 42.422 0.037 6.7 7.21 12.22
3/13/2021 2:15:00 PM 5.88 42.584 0.037 6.7 7.09 12.19
3/13/2021 2:30:00 PM 5.96 42.728 0.037 6.7 7.12 12.16
3/13/2021 2:45:00 PM 6.03 42.854 0.037 6.71 6.8 12.13
3/13/2021 3:00:00 PM 6.09 42.962 0.037 6.71 6.81 12.11
3/13/2021 3:15:00 PM 6.13 43.034 0.037 6.69 7 12.08
3/13/2021 3:30:00 PM 6.16 43.088 0.037 6.7 7.1 12.06
3/13/2021 3:45:00 PM 6.17 43.106 0.037 6.69 7.08 12.05
3/13/2021 4:00:00 PM 6.17 43.106 0.037 6.7 6.8 12.03
3/13/2021 4:15:00 PM 6.15 43.07 0.037 6.69 7.06 12.03
3/13/2021 4:30:00 PM 6.12 43.016 0.037 6.7 6.76 12.02
3/13/2021 4:45:00 PM 6.08 42.944 0.037 6.68 6.6 12.02
3/13/2021 5:00:00 PM 6.03 42.854 0.037 6.68 6.78 12.02
3/13/2021 5:15:00 PM 5.95 42.71 0.037 6.67 6.74 12.04
3/13/2021 5:30:00 PM 5.87 42.566 0.037 6.64 6.81 12.04
3/13/2021 5:45:00 PM 5.79 42.422 0.037 6.63 6.52 12.05
3/13/2021 6:00:00 PM 5.7 42.26 0.037 6.61 6.55 12.06
3/13/2021 6:15:00 PM 5.61 42.098 0.037 6.54 6.61 12.07
3/13/2021 6:30:00 PM 5.53 41.954 0.037 6.59 6.69 12.08
3/13/2021 6:45:00 PM 5.44 41.792 0.037 6.61 6.62 12.09
3/13/2021 7:00:00 PM 5.36 41.648 0.037 6.59 6.72 12.12
3/13/2021 7:15:00 PM 5.28 41.504 0.037 6.56 6.4 12.13
3/13/2021 7:30:00 PM 5.2 41.36 0.037 6.53 6.58 12.15
3/13/2021 7:45:00 PM 5.13 41.234 0.037 6.54 6.53 12.17
3/13/2021 8:00:00 PM 5.05 41.09 0.037 6.56 6.45 12.19
3/13/2021 8:15:00 PM 4.99 40.982 0.037 6.52 6.47 12.21
3/13/2021 8:30:00 PM 4.92 40.856 0.037 6.52 6.4 12.22
3/13/2021 8:45:00 PM 4.85 40.73 0.037 6.54 6.62 12.25
3/13/2021 9:00:00 PM 4.79 40.622 0.037 6.52 6.24 12.26
3/13/2021 9:15:00 PM 4.73 40.514 0.037 6.52 6.28 12.29
3/13/2021 9:30:00 PM 4.68 40.424 0.037 6.56 6.19 12.3
3/13/2021 9:45:00 PM 4.63 40.334 0.037 6.5 6.11 12.32
3/13/2021 10:00:00 PM 4.58 40.244 0.037 6.51 6.24 12.33
3/13/2021 10:15:00 PM 4.54 40.172 0.037 6.47 6.01 12.35
3/13/2021 10:30:00 PM 4.5 40.1 0.037 6.53 6.19 12.36
3/13/2021 10:45:00 PM 4.46 40.028 0.037 6.5 6.12 12.37
3/13/2021 11:00:00 PM 4.43 39.974 0.037 6.52 6.06 12.38
3/13/2021 11:15:00 PM 4.4 39.92 0.037 6.52 6.12 12.39
3/13/2021 11:30:00 PM 4.36 39.848 0.038 6.5 5.97 12.4
3/13/2021 11:45:00 PM 4.33 39.794 0.038 6.54 5.8 12.41
3/14/2021 12:00:00 AM 4.3 39.74 0.038 6.49 5.98 12.42
3/14/2021 12:15:00 AM 4.27 39.686 0.038 6.52 5.86 12.43
3/14/2021 12:30:00 AM 4.25 39.65 0.038 6.56 5.98 12.44
3/14/2021 12:45:00 AM 4.22 39.596 0.038 6.51 5.93 12.44
3/14/2021 1:00:00 AM 4.2 39.56 0.038 6.54 5.89 12.44
3/14/2021 1:15:00 AM 4.19 39.542 0.038 6.53 5.81 12.45
3/14/2021 1:30:00 AM 4.18 39.524 0.038 6.55 5.96 12.45
3/14/2021 1:45:00 AM 4.16 39.488 0.038 6.55 5.9 12.46
3/14/2021 3:00:00 AM 4.09 39.362 0.038 6.54 5.74 12.48
3/14/2021 3:15:00 AM 4.08 39.344 0.038 6.52 5.72 12.47
3/14/2021 3:30:00 AM 4.07 39.326 0.038 6.51 5.66 12.48
3/14/2021 3:45:00 AM 4.05 39.29 0.038 6.55 5.62 12.48
3/14/2021 4:00:00 AM 4.04 39.272 0.038 6.53 5.68 12.49
3/14/2021 4:15:00 AM 4.02 39.236 0.038 6.55 5.59 12.48
3/14/2021 4:30:00 AM 4.01 39.218 0.037 6.51 5.67 12.49
3/14/2021 4:45:00 AM 3.99 39.182 0.038 6.55 5.67 12.5
3/14/2021 5:00:00 AM 3.97 39.146 0.037 6.56 5.57 12.5
3/14/2021 5:15:00 AM 3.96 39.128 0.037 6.52 5.43 12.51
3/14/2021 5:30:00 AM 3.94 39.092 0.038 6.5 5.44 12.51
3/14/2021 5:45:00 AM 3.93 39.074 0.038 6.55 5.62 12.51
3/14/2021 6:00:00 AM 3.91 39.038 0.037 6.55 5.49 12.52
3/14/2021 6:15:00 AM 3.89 39.002 0.037 6.53 5.36 12.52
3/14/2021 6:30:00 AM 3.88 38.984 0.037 6.5 5.3 12.53
3/14/2021 6:45:00 AM 3.87 38.966 0.037 6.53 5.48 12.54
3/14/2021 7:00:00 AM 3.85 38.93 0.037 6.49 5.27 12.55
3/14/2021 7:15:00 AM 3.85 38.93 0.037 6.48 5.16 12.56
3/14/2021 7:30:00 AM 3.84 38.912 0.037 6.54 5.17 12.57
3/14/2021 7:45:00 AM 3.84 38.912 0.037 6.55 5.16 12.58
3/14/2021 8:00:00 AM 3.85 38.93 0.037 6.53 5.18 12.59
3/14/2021 8:15:00 AM 3.88 38.984 0.037 6.53 4.97 12.6
3/14/2021 8:30:00 AM 3.92 39.056 0.037 6.54 4.95 12.6
3/14/2021 8:45:00 AM 3.98 39.164 0.037 6.54 4.97 12.6
3/14/2021 9:00:00 AM 4.04 39.272 0.037 6.56 4.76 12.6
3/14/2021 9:15:00 AM 4.11 39.398 0.037 6.56 4.87 12.59
3/14/2021 9:30:00 AM 4.19 39.542 0.037 6.57 5 12.58
3/14/2021 9:45:00 AM 4.27 39.686 0.037 6.57 4.9 12.56
3/14/2021 10:00:00 AM 4.37 39.866 0.037 6.59 4.77 12.55
3/14/2021 11:15:00 AM 4.47 40.046 0.037 6.6 4.73 12.52
3/14/2021 11:30:00 AM 4.57 40.226 0.037 6.59 4.69 12.5
3/14/2021 11:45:00 AM 4.68 40.424 0.037 6.57 4.95 12.48
3/14/2021 12:00:00 PM 4.78 40.604 0.037 6.6 4.86 12.45
3/14/2021 12:15:00 PM 4.95 40.91 0.037 6.61 4.86 12.42
3/14/2021 12:30:00 PM 5.1 41.18 0.037 6.62 4.78 12.38
3/14/2021 12:45:00 PM 5.21 41.378 0.037 6.63 4.86 12.35
3/14/2021 1:00:00 PM 5.31 41.558 0.037 6.63 4.82 12.32
3/14/2021 1:15:00 PM 5.4 41.72 0.037 6.62 4.61 12.28
3/14/2021 1:30:00 PM 5.5 41.9 0.037 6.63 4.73 12.26
3/14/2021 1:45:00 PM 5.64 42.152 0.037 6.63 4.77 12.23
3/14/2021 2:00:00 PM 5.71 42.278 0.037 6.66 4.87 12.2
3/14/2021 2:15:00 PM 5.79 42.422 0.037 6.66 4.83 12.17
3/14/2021 2:30:00 PM 5.83 42.494 0.037 6.66 4.92 12.15
3/14/2021 2:45:00 PM 5.87 42.566 0.037 6.64 4.82 12.13
3/14/2021 3:00:00 PM 5.98 42.764 0.037 6.65 4.63 12.1
3/14/2021 3:15:00 PM 6.06 42.908 0.037 6.64 4.6 12.07
3/14/2021 3:30:00 PM 6.09 42.962 0.037 6.64 4.82 12.05
3/14/2021 3:45:00 PM 6.15 43.07 0.037 6.65 4.56 12.03
3/14/2021 4:00:00 PM 6.18 43.124 0.037 6.64 4.61 12.02
3/14/2021 4:15:00 PM 6.21 43.178 0.037 6.66 4.91 12.03
3/14/2021 4:30:00 PM 6.2 43.16 0.037 6.66 4.87 12.02
3/14/2021 4:45:00 PM 6.19 43.142 0.037 6.66 4.69 12.01
3/14/2021 5:00:00 PM 6.17 43.106 0.037 6.63 4.81 12.01
3/14/2021 5:15:00 PM 6.11 42.998 0.037 6.63 4.57 12.02
3/14/2021 5:30:00 PM 6.04 42.872 0.037 6.62 4.61 12.02
3/14/2021 5:45:00 PM 5.95 42.71 0.037 6.61 4.71 12.04
3/14/2021 6:00:00 PM 5.84 42.512 0.037 6.62 4.68 12.06
3/14/2021 6:15:00 PM 5.71 42.278 0.037 6.59 4.7 12.08
3/14/2021 6:30:00 PM 5.59 42.062 0.037 6.6 4.59 12.11
3/14/2021 6:45:00 PM 5.48 41.864 0.037 6.58 4.74 12.12
3/14/2021 7:00:00 PM 5.37 41.666 0.037 6.54 4.64 12.14
3/14/2021 7:15:00 PM 5.27 41.486 0.037 6.54 4.53 12.16
3/14/2021 7:30:00 PM 5.16 41.288 0.037 6.52 4.66 12.18
3/14/2021 7:45:00 PM 5.06 41.108 0.037 6.52 4.71 12.2
3/14/2021 8:00:00 PM 4.96 40.928 0.037 6.5 4.67 12.22
3/14/2021 8:15:00 PM 4.86 40.748 0.037 6.51 4.56 12.25
3/14/2021 8:30:00 PM 4.76 40.568 0.037 6.5 4.67 12.28
3/14/2021 8:45:00 PM 4.68 40.424 0.038 6.5 4.72 12.31
3/14/2021 9:00:00 PM 4.58 40.244 0.038 6.49 4.69 12.34
3/14/2021 9:15:00 PM 4.5 40.1 0.038 6.49 4.65 12.37
3/14/2021 9:30:00 PM 4.43 39.974 0.038 6.48 4.67 12.4
3/14/2021 9:45:00 PM 4.34 39.812 0.038 6.48 4.6 12.43
3/14/2021 10:00:00 PM 4.25 39.65 0.038 6.47 4.54 12.46
3/14/2021 10:15:00 PM 4.17 39.506 0.038 6.48 4.58 12.49
3/14/2021 10:30:00 PM 4.09 39.362 0.038 6.48 4.51 12.51
3/14/2021 10:45:00 PM 4.02 39.236 0.038 6.48 4.48 12.55
3/14/2021 11:00:00 PM 3.96 39.128 0.038 6.49 4.52 12.57
3/14/2021 11:15:00 PM 3.9 39.02 0.038 6.48 4.4 12.6
3/14/2021 11:30:00 PM 3.83 38.894 0.038 6.47 4.33 12.63
3/14/2021 11:45:00 PM 3.76 38.768 0.038 6.48 4.3 12.65
3/15/2021 12:00:00 AM 3.69 38.642 0.038 6.5 4.38 12.67
3/15/2021 12:15:00 AM 3.63 38.534 0.038 6.49 4.46 12.7
3/15/2021 12:30:00 AM 3.58 38.444 0.038 6.5 4.46 12.71
3/15/2021 12:45:00 AM 3.53 38.354 0.038 6.5 4.21 12.74
3/15/2021 1:00:00 AM 3.47 38.246 0.038 6.51 4.18 12.75
3/15/2021 1:15:00 AM 3.42 38.156 0.038 6.5 4.32 12.78
3/15/2021 1:30:00 AM 3.37 38.066 0.038 6.5 4.34 12.8
3/15/2021 1:45:00 AM 3.33 37.994 0.038 6.5 4.17 12.82
3/15/2021 2:00:00 AM 3.29 37.922 0.038 6.49 4.36 12.83
3/15/2021 2:15:00 AM 3.25 37.85 0.038 6.49 4.12 12.85
3/15/2021 2:30:00 AM 3.21 37.778 0.038 6.49 4.19 12.86
3/15/2021 2:45:00 AM 3.18 37.724 0.038 6.51 4.41 12.87
3/15/2021 3:00:00 AM 3.15 37.67 0.038 6.5 4.33 12.88
3/15/2021 3:15:00 AM 3.11 37.598 0.038 6.53 4.23 12.9
3/15/2021 3:30:00 AM 3.08 37.544 0.038 6.52 4.13 12.91
3/15/2021 3:45:00 AM 3.04 37.472 0.038 6.52 4.2 12.92
3/15/2021 4:00:00 AM 3.01 37.418 0.038 6.51 4.12 12.93
3/15/2021 4:15:00 AM 2.97 37.346 0.038 6.51 4.14 12.94
3/15/2021 4:30:00 AM 2.95 37.31 0.038 6.52 4.1 12.95
3/15/2021 4:45:00 AM 2.92 37.256 0.038 6.51 4.01 12.96
3/15/2021 5:00:00 AM 2.89 37.202 0.038 6.52 4.09 12.97
3/15/2021 5:15:00 AM 2.86 37.148 0.038 6.52 4.07 12.98
3/15/2021 5:30:00 AM 2.84 37.112 0.038 6.51 3.87 12.99
3/15/2021 5:45:00 AM 2.81 37.058 0.038 6.52 4.02 13
3/15/2021 6:00:00 AM 2.79 37.022 0.038 6.52 3.89 13.01
3/15/2021 6:15:00 AM 2.76 36.968 0.038 6.52 3.99 13.03
3/15/2021 6:30:00 AM 2.73 36.914 0.038 6.52 4 13.04
3/15/2021 6:45:00 AM 2.71 36.878 0.038 6.51 3.95 13.05
3/15/2021 7:00:00 AM 2.68 36.824 0.038 6.52 3.84 13.06
3/15/2021 7:15:00 AM 2.65 36.77 0.038 6.52 3.94 13.08
3/15/2021 7:30:00 AM 2.63 36.734 0.038 6.52 3.86 13.09
3/15/2021 7:45:00 AM 2.6 36.68 0.038 6.52 3.86 13.11
3/15/2021 8:00:00 AM 2.58 36.644 0.038 6.53 3.83 13.13
3/15/2021 8:15:00 AM 2.56 36.608 0.038 6.52 3.82 13.15
3/15/2021 8:30:00 AM 2.54 36.572 0.038 6.52 3.84 13.17
3/15/2021 8:45:00 AM 2.53 36.554 0.038 6.53 3.77 13.18
3/15/2021 9:00:00 AM 2.52 36.536 0.038 6.57 3.77 13.2
3/15/2021 9:15:00 AM 2.52 36.536 0.038 6.57 3.79 13.21
3/15/2021 9:30:00 AM 2.53 36.554 0.038 6.57 3.69 13.23
3/15/2021 9:45:00 AM 2.56 36.608 0.038 6.57 3.68 13.24
3/15/2021 10:00:00 AM 2.59 36.662 0.038 6.58 3.67 13.24
3/15/2021 10:15:00 AM 2.65 36.77 0.038 6.6 3.62 13.25
3/15/2021 10:30:00 AM 2.7 36.86 0.038 6.61 3.69 13.24
3/15/2021 10:45:00 AM 2.77 36.986 0.038 6.61 3.77 13.23
3/15/2021 11:00:00 AM 2.85 37.13 0.038 6.63 3.52 13.22
3/15/2021 11:15:00 AM 2.95 37.31 0.038 6.65 3.78 13.19
3/15/2021 11:30:00 AM 3.05 37.49 0.038 6.66 3.5 13.17
3/15/2021 11:45:00 AM 3.15 37.67 0.038 6.68 3.73 13.14
3/15/2021 12:00:00 PM 3.28 37.904 0.038 6.7 3.61 13.11
3/15/2021 12:15:00 PM 3.39 38.102 0.038 6.69 3.54 13.09
3/15/2021 12:30:00 PM 3.52 38.336 0.038 6.71 3.47 13.05
3/15/2021 12:45:00 PM 3.64 38.552 0.038 6.71 3.59 13.01
3/15/2021 1:00:00 PM 3.79 38.822 0.038 6.72 3.65 12.96
3/15/2021 1:15:00 PM 3.93 39.074 0.038 6.7 3.38 12.92
3/15/2021 1:30:00 PM 4.08 39.344 0.038 6.7 3.45 12.87
3/15/2021 1:45:00 PM 4.21 39.578 0.038 6.72 3.43 12.83
3/15/2021 2:00:00 PM 4.35 39.83 0.038 6.72 3.41 12.78
3/15/2021 2:15:00 PM 4.48 40.064 0.038 6.7 3.47 12.74
3/15/2021 2:30:00 PM 4.61 40.298 0.038 6.7 3.39 12.69
3/15/2021 2:45:00 PM 4.74 40.532 0.038 6.72 3.38 12.65
3/15/2021 3:00:00 PM 4.84 40.712 0.038 6.73 3.33 12.61
3/15/2021 3:15:00 PM 4.93 40.874 0.038 6.71 3.41 12.57
3/15/2021 3:30:00 PM 5.03 41.054 0.038 6.72 3.44 12.52
3/15/2021 3:45:00 PM 5.09 41.162 0.038 6.71 3.43 12.5
3/15/2021 4:00:00 PM 5.17 41.306 0.038 6.74 3.32 12.47
3/15/2021 4:15:00 PM 5.23 41.414 0.038 6.75 3.45 12.45
3/15/2021 4:30:00 PM 5.28 41.504 0.038 6.68 3.54 12.43
3/15/2021 4:45:00 PM 5.32 41.576 0.038 6.68 3.53 12.41
3/15/2021 5:00:00 PM 5.33 41.594 0.038 6.71 3.48 12.39
3/15/2021 5:15:00 PM 5.3 41.54 0.038 6.71 3.41 12.38
3/15/2021 5:30:00 PM 5.28 41.504 0.038 6.69 3.48 12.37
3/15/2021 5:45:00 PM 5.23 41.414 0.038 6.68 3.48 12.37
3/15/2021 6:00:00 PM 5.16 41.288 0.038 6.7 3.46 12.37
3/15/2021 6:15:00 PM 5.09 41.162 0.038 6.69 3.36 12.37
3/15/2021 6:30:00 PM 5.01 41.018 0.038 6.7 3.54 12.38
3/15/2021 6:45:00 PM 4.92 40.856 0.038 6.69 3.53 12.4
3/15/2021 7:00:00 PM 4.84 40.712 0.038 6.63 3.55 12.39
3/15/2021 7:15:00 PM 4.76 40.568 0.038 6.66 3.62 12.4
3/15/2021 7:30:00 PM 4.68 40.424 0.038 6.65 3.53 12.4
3/15/2021 7:45:00 PM 4.61 40.298 0.038 6.64 3.55 12.41
3/15/2021 8:00:00 PM 4.54 40.172 0.038 6.64 3.57 12.42
3/15/2021 8:15:00 PM 4.48 40.064 0.038 6.62 3.46 12.44
3/15/2021 8:30:00 PM 4.41 39.938 0.038 6.62 3.62 12.45
3/15/2021 8:45:00 PM 4.36 39.848 0.038 6.62 3.61 12.46
3/15/2021 9:00:00 PM 4.3 39.74 0.038 6.61 3.52 12.47
3/15/2021 9:15:00 PM 4.24 39.632 0.038 6.61 3.61 12.49
3/15/2021 9:30:00 PM 4.18 39.524 0.038 6.54 3.46 12.5
3/15/2021 9:45:00 PM 4.13 39.434 0.038 6.55 3.37 12.52
3/15/2021 10:00:00 PM 4.08 39.344 0.038 6.61 3.57 12.54
3/15/2021 10:15:00 PM 4.03 39.254 0.038 6.59 3.52 12.56
3/15/2021 10:30:00 PM 3.99 39.182 0.038 6.61 3.6 12.57
3/15/2021 10:45:00 PM 3.95 39.11 0.039 6.61 3.5 12.59
3/15/2021 11:00:00 PM 3.91 39.038 0.039 6.62 3.6 12.6
3/15/2021 11:15:00 PM 3.88 38.984 0.039 6.59 3.49 12.61
3/15/2021 11:30:00 PM 3.85 38.93 0.039 6.6 3.49 12.62
3/15/2021 11:45:00 PM 3.82 38.876 0.039 6.6 3.53 12.63
3/16/2021 12:00:00 AM 3.79 38.822 0.039 6.6 3.56 12.64
3/16/2021 12:15:00 AM 3.76 38.768 0.039 6.65 3.49 12.65
3/16/2021 12:30:00 AM 3.73 38.714 0.039 6.65 3.49 12.66
3/16/2021 12:45:00 AM 3.71 38.678 0.039 6.64 3.52 12.66
3/16/2021 1:00:00 AM 3.69 38.642 0.039 6.64 3.55 12.67
3/16/2021 1:15:00 AM 3.67 38.606 0.039 6.63 3.46 12.67
3/16/2021 1:30:00 AM 3.65 38.57 0.039 6.64 3.36 12.68
3/16/2021 1:45:00 AM 3.64 38.552 0.039 6.63 3.43 12.68
3/16/2021 2:00:00 AM 3.62 38.516 0.039 6.63 3.31 12.68
3/16/2021 2:15:00 AM 3.61 38.498 0.039 6.64 3.33 12.68
3/16/2021 2:30:00 AM 3.59 38.462 0.039 6.64 3.58 12.69
3/16/2021 2:45:00 AM 3.58 38.444 0.039 6.64 3.38 12.7
3/16/2021 3:00:00 AM 3.57 38.426 0.039 6.64 3.28 12.7
3/16/2021 3:15:00 AM 3.55 38.39 0.039 6.64 3.36 12.7
3/16/2021 3:30:00 AM 3.54 38.372 0.039 6.64 3.32 12.71
3/16/2021 3:45:00 AM 3.53 38.354 0.039 6.64 3.3 12.71
3/16/2021 4:00:00 AM 3.52 38.336 0.039 6.64 3.58 12.71
3/16/2021 4:15:00 AM 3.51 38.318 0.039 6.63 3.39 12.71
3/16/2021 4:30:00 AM 3.51 38.318 0.039 6.64 3.32 12.71
3/16/2021 4:45:00 AM 3.5 38.3 0.039 6.64 3.33 12.71
3/16/2021 5:00:00 AM 3.49 38.282 0.039 6.65 3.41 12.71
3/16/2021 5:15:00 AM 3.47 38.246 0.039 6.64 3.34 12.71
3/16/2021 5:30:00 AM 3.47 38.246 0.039 6.64 3.44 12.71
3/16/2021 5:45:00 AM 3.46 38.228 0.039 6.64 3.31 12.71
3/16/2021 6:00:00 AM 3.46 38.228 0.039 6.64 3.26 12.72
3/16/2021 6:15:00 AM 3.46 38.228 0.039 6.64 3.25 12.72
3/16/2021 6:30:00 AM 3.46 38.228 0.039 6.63 3.28 12.72
3/16/2021 6:45:00 AM 3.45 38.21 0.039 6.63 3.25 12.72
3/16/2021 7:00:00 AM 3.45 38.21 0.039 6.63 3.26 12.72
3/16/2021 7:15:00 AM 3.45 38.21 0.039 6.62 3.37 12.72
3/16/2021 7:30:00 AM 3.45 38.21 0.039 6.62 3.44 12.72
3/16/2021 7:45:00 AM 3.46 38.228 0.039 6.64 3.25 12.72
3/16/2021 8:00:00 AM 3.45 38.21 0.039 6.64 3.21 12.72
3/16/2021 8:15:00 AM 3.45 38.21 0.039 6.64 3.26 12.72
3/16/2021 8:30:00 AM 3.45 38.21 0.039 6.63 3.28 12.73
3/16/2021 8:45:00 AM 3.43 38.174 0.039 6.64 3.2 12.74
3/16/2021 9:00:00 AM 3.42 38.156 0.039 6.65 3.26 12.76
3/16/2021 9:15:00 AM 3.37 38.066 0.039 6.65 3.18 12.78
3/16/2021 9:30:00 AM 3.34 38.012 0.039 6.65 3.17 12.79
3/16/2021 9:45:00 AM 3.33 37.994 0.039 6.65 3.16 12.81
3/16/2021 10:00:00 AM 3.32 37.976 0.039 6.65 3.12 12.83
3/16/2021 10:15:00 AM 3.33 37.994 0.039 6.67 3.02 12.84
3/16/2021 10:30:00 AM 3.35 38.03 0.039 6.67 3.02 12.86
3/16/2021 10:45:00 AM 3.37 38.066 0.039 6.69 3.01 12.86
3/16/2021 11:00:00 AM 3.39 38.102 0.039 6.69 2.95 12.87
3/16/2021 11:15:00 AM 3.42 38.156 0.039 6.68 3 12.88
3/16/2021 11:30:00 AM 3.45 38.21 0.039 6.68 3.02 12.88
3/16/2021 11:45:00 AM 3.46 38.228 0.038 6.68 3.19 12.89
3/16/2021 12:00:00 PM 3.49 38.282 0.038 6.68 2.96 12.88
3/16/2021 12:15:00 PM 3.51 38.318 0.038 6.69 3.02 12.88
3/16/2021 12:30:00 PM 3.56 38.408 0.038 6.71 2.94 12.88
3/16/2021 12:45:00 PM 3.58 38.444 0.038 6.71 3.04 12.87
3/16/2021 1:00:00 PM 3.63 38.534 0.038 6.71 3.11 12.86
3/16/2021 1:15:00 PM 3.68 38.624 0.038 6.71 3.02 12.85
3/16/2021 1:30:00 PM 3.71 38.678 0.038 6.72 3.02 12.83
3/16/2021 1:45:00 PM 3.73 38.714 0.038 6.72 2.96 12.81
3/16/2021 2:00:00 PM 3.75 38.75 0.038 6.72 3.02 12.79
3/16/2021 2:15:00 PM 3.77 38.786 0.038 6.71 3.07 12.77
3/16/2021 2:30:00 PM 3.79 38.822 0.038 6.72 3.06 12.76
3/16/2021 2:45:00 PM 3.81 38.858 0.038 6.72 2.97 12.74
3/16/2021 3:00:00 PM 3.82 38.876 0.038 6.72 3.03 12.73
3/16/2021 3:15:00 PM 3.86 38.948 0.038 6.73 3.03 12.73
3/16/2021 3:30:00 PM 3.89 39.002 0.038 6.73 3.06 12.73
3/16/2021 3:45:00 PM 3.93 39.074 0.038 6.73 3.02 12.73
3/16/2021 4:00:00 PM 3.96 39.128 0.038 6.73 3.06 12.72
3/16/2021 4:15:00 PM 3.99 39.182 0.038 6.74 2.97 12.71
3/16/2021 4:30:00 PM 4.03 39.254 0.038 6.74 3.12 12.7
3/16/2021 4:45:00 PM 4.06 39.308 0.038 6.75 3.04 12.69
3/16/2021 5:00:00 PM 4.09 39.362 0.038 6.74 2.97 12.68
3/16/2021 5:15:00 PM 4.11 39.398 0.038 6.74 2.98 12.68
3/16/2021 5:30:00 PM 4.12 39.416 0.038 6.75 3 12.67
3/16/2021 5:45:00 PM 4.14 39.452 0.038 6.74 2.95 12.64
3/16/2021 6:00:00 PM 4.15 39.47 0.038 6.74 3.08 12.63
3/16/2021 6:15:00 PM 4.15 39.47 0.038 6.71 2.97 12.6
3/16/2021 6:30:00 PM 4.15 39.47 0.038 6.73 2.99 12.58
3/16/2021 6:45:00 PM 4.15 39.47 0.039 6.71 2.94 12.56
3/16/2021 7:00:00 PM 4.15 39.47 0.039 6.71 2.97 12.54
3/16/2021 7:15:00 PM 4.15 39.47 0.039 6.71 3 12.52
3/16/2021 7:30:00 PM 4.14 39.452 0.039 6.7 2.89 12.51
3/16/2021 7:45:00 PM 4.14 39.452 0.039 6.69 2.93 12.5
3/16/2021 8:00:00 PM 4.13 39.434 0.039 6.68 3.04 12.49
3/16/2021 8:15:00 PM 4.13 39.434 0.039 6.68 2.98 12.48
3/16/2021 8:30:00 PM 4.12 39.416 0.039 6.66 2.97 12.48
3/16/2021 8:45:00 PM 4.12 39.416 0.039 6.67 3.04 12.47
3/16/2021 9:00:00 PM 4.11 39.398 0.039 6.67 3.11 12.48
3/16/2021 9:15:00 PM 4.11 39.398 0.039 6.66 3.03 12.48
3/16/2021 9:30:00 PM 4.11 39.398 0.039 6.66 2.99 12.48
3/16/2021 9:45:00 PM 4.1 39.38 0.039 6.66 3.08 12.47
3/16/2021 10:00:00 PM 4.09 39.362 0.039 6.66 3.03 12.48
3/16/2021 10:15:00 PM 4.08 39.344 0.039 6.65 3 12.48
3/16/2021 10:30:00 PM 4.08 39.344 0.039 6.66 3.05 12.48
3/16/2021 10:45:00 PM 4.07 39.326 0.039 6.65 2.97 12.48
3/16/2021 11:00:00 PM 4.07 39.326 0.039 6.65 3.04 12.49
3/16/2021 11:15:00 PM 4.06 39.308 0.039 6.65 2.88 12.49
3/16/2021 11:30:00 PM 4.06 39.308 0.039 6.64 3 12.49
3/16/2021 11:45:00 PM 4.05 39.29 0.039 6.64 3 12.49
3/17/2021 12:00:00 AM 4.05 39.29 0.039 6.64 3.06 12.49
3/17/2021 12:15:00 AM 4.04 39.272 0.039 6.66 3.03 12.49
3/17/2021 12:30:00 AM 4.04 39.272 0.039 6.65 2.98 12.5
3/17/2021 12:45:00 AM 4.03 39.254 0.039 6.66 2.97 12.5
3/17/2021 1:00:00 AM 4.03 39.254 0.039 6.65 3.03 12.5
3/17/2021 1:15:00 AM 4.03 39.254 0.039 6.65 2.93 12.5
3/17/2021 1:30:00 AM 4.02 39.236 0.039 6.66 3 12.5
3/17/2021 1:45:00 AM 4.01 39.218 0.039 6.67 2.94 12.5
3/17/2021 2:00:00 AM 4.01 39.218 0.039 6.65 3.02 12.5
3/17/2021 2:15:00 AM 4 39.2 0.039 6.65 2.86 12.51
3/17/2021 2:30:00 AM 4 39.2 0.039 6.66 3 12.5
3/17/2021 2:45:00 AM 4 39.2 0.039 6.66 2.89 12.5
3/17/2021 3:00:00 AM 4 39.2 0.039 6.65 2.9 12.5
3/17/2021 3:15:00 AM 3.99 39.182 0.039 6.67 2.88 12.5
3/17/2021 3:30:00 AM 3.99 39.182 0.039 6.66 2.9 12.5
3/17/2021 3:45:00 AM 3.99 39.182 0.039 6.65 2.87 12.51
3/17/2021 4:00:00 AM 3.99 39.182 0.039 6.66 2.96 12.5
3/17/2021 4:15:00 AM 3.98 39.164 0.039 6.66 2.86 12.51
3/17/2021 4:30:00 AM 3.98 39.164 0.039 6.67 2.92 12.5
3/17/2021 4:45:00 AM 3.98 39.164 0.039 6.67 2.91 12.51
3/17/2021 5:00:00 AM 3.99 39.182 0.039 6.66 2.8 12.51
3/17/2021 5:15:00 AM 3.99 39.182 0.039 6.66 2.82 12.51
3/17/2021 5:30:00 AM 3.99 39.182 0.039 6.66 2.91 12.51
3/17/2021 5:45:00 AM 3.99 39.182 0.039 6.66 2.92 12.51
3/17/2021 6:00:00 AM 3.99 39.182 0.039 6.65 2.86 12.51
3/17/2021 6:15:00 AM 3.99 39.182 0.039 6.66 2.88 12.51
3/17/2021 6:30:00 AM 3.99 39.182 0.039 6.66 2.84 12.52
3/17/2021 6:45:00 AM 4 39.2 0.039 6.65 2.85 12.52
3/17/2021 7:00:00 AM 4 39.2 0.039 6.66 2.9 12.51
3/17/2021 7:15:00 AM 4 39.2 0.039 6.66 2.86 12.52
3/17/2021 7:30:00 AM 4 39.2 0.039 6.65 2.87 12.52
3/17/2021 7:45:00 AM 4.01 39.218 0.039 6.66 2.87 12.52
3/17/2021 8:00:00 AM 4.01 39.218 0.039 6.68 2.82 12.53
3/17/2021 8:15:00 AM 4.02 39.236 0.039 6.66 2.79 12.55
3/17/2021 8:30:00 AM 4.03 39.254 0.039 6.67 2.85 12.57
3/17/2021 8:45:00 AM 4.04 39.272 0.039 6.68 2.83 12.59
3/17/2021 9:00:00 AM 4.06 39.308 0.039 6.69 2.77 12.61
3/17/2021 9:15:00 AM 4.09 39.362 0.039 6.71 2.75 12.62
3/17/2021 9:30:00 AM 4.12 39.416 0.039 6.71 2.77 12.63
3/17/2021 9:45:00 AM 4.15 39.47 0.039 6.73 2.75 12.65
3/17/2021 10:00:00 AM 4.2 39.56 0.039 6.72 2.75 12.66
3/17/2021 10:15:00 AM 4.25 39.65 0.039 6.74 2.71 12.66
3/17/2021 10:30:00 AM 4.3 39.74 0.039 6.75 2.77 12.66
3/17/2021 10:45:00 AM 4.36 39.848 0.039 6.75 2.68 12.65
3/17/2021 11:00:00 AM 4.43 39.974 0.039 6.77 2.66 12.65
3/17/2021 11:15:00 AM 4.52 40.136 0.039 6.77 2.65 12.64
3/17/2021 11:30:00 AM 4.61 40.298 0.039 6.78 2.64 12.61
3/17/2021 11:45:00 AM 4.7 40.46 0.039 6.8 2.69 12.6
3/17/2021 12:00:00 PM 4.81 40.658 0.039 6.78 2.72 12.57
3/17/2021 12:15:00 PM 4.92 40.856 0.039 6.8 2.67 12.55
3/17/2021 12:30:00 PM 5.06 41.108 0.039 6.8 2.63 12.51
3/17/2021 12:45:00 PM 5.2 41.36 0.039 6.81 2.6 12.47
3/17/2021 1:00:00 PM 5.35 41.63 0.039 6.83 2.66 12.42
3/17/2021 1:15:00 PM 5.5 41.9 0.039 6.82 2.74 12.38
3/17/2021 1:30:00 PM 5.65 42.17 0.039 6.83 2.61 12.34
3/17/2021 1:45:00 PM 5.81 42.458 0.039 6.84 2.58 12.29
3/17/2021 2:00:00 PM 5.99 42.782 0.039 6.84 2.62 12.23
3/17/2021 2:15:00 PM 6.16 43.088 0.039 6.83 2.69 12.17
3/17/2021 2:30:00 PM 6.32 43.376 0.038 6.85 2.75 12.12
3/17/2021 2:45:00 PM 6.47 43.646 0.038 6.84 2.59 12.08
3/17/2021 3:00:00 PM 6.61 43.898 0.038 6.84 2.65 12.03
3/17/2021 3:15:00 PM 6.74 44.132 0.038 6.86 2.65 11.99
3/17/2021 3:30:00 PM 6.86 44.348 0.038 6.85 2.7 11.94
3/17/2021 3:45:00 PM 6.98 44.564 0.038 6.87 2.69 11.9
3/17/2021 4:00:00 PM 7.08 44.744 0.038 6.86 2.63 11.87
3/17/2021 4:15:00 PM 7.17 44.906 0.038 6.85 2.64 11.84
3/17/2021 4:30:00 PM 7.24 45.032 0.038 6.84 2.66 11.81
3/17/2021 4:45:00 PM 7.29 45.122 0.038 6.83 2.6 11.78
3/17/2021 5:00:00 PM 7.32 45.176 0.038 6.84 2.61 11.76
3/17/2021 5:15:00 PM 7.33 45.194 0.038 6.85 2.65 11.74
3/17/2021 5:30:00 PM 7.32 45.176 0.038 6.85 2.67 11.73
3/17/2021 5:45:00 PM 7.3 45.14 0.038 6.84 2.6 11.71
3/17/2021 6:00:00 PM 7.28 45.104 0.038 6.83 2.68 11.7
3/17/2021 6:15:00 PM 7.23 45.014 0.038 6.82 2.67 11.7
3/17/2021 6:30:00 PM 7.18 44.924 0.038 6.81 2.65 11.69
3/17/2021 6:45:00 PM 7.11 44.798 0.039 6.8 2.72 11.68
3/17/2021 7:00:00 PM 7.02 44.636 0.039 6.78 2.67 11.68
3/17/2021 7:15:00 PM 6.92 44.456 0.039 6.77 2.77 11.68
3/17/2021 7:30:00 PM 6.82 44.276 0.039 6.75 2.72 11.67
3/17/2021 7:45:00 PM 6.72 44.096 0.039 6.73 2.73 11.67
3/17/2021 8:00:00 PM 6.61 43.898 0.039 6.73 2.68 11.68
3/17/2021 8:15:00 PM 6.51 43.718 0.039 6.71 2.7 11.7
3/17/2021 8:30:00 PM 6.41 43.538 0.039 6.7 2.75 11.72
3/17/2021 8:45:00 PM 6.31 43.358 0.039 6.69 2.7 11.74
3/17/2021 9:00:00 PM 6.21 43.178 0.039 6.69 2.73 11.77
3/17/2021 9:15:00 PM 6.12 43.016 0.039 6.67 2.71 11.79
3/17/2021 9:30:00 PM 6.03 42.854 0.039 6.66 2.73 11.81
3/17/2021 9:45:00 PM 5.94 42.692 0.039 6.65 2.7 11.83
3/17/2021 10:00:00 PM 5.86 42.548 0.039 6.65 2.71 11.86
3/17/2021 10:15:00 PM 5.77 42.386 0.039 6.65 2.72 11.88
3/17/2021 10:30:00 PM 5.68 42.224 0.039 6.64 2.75 11.92
3/17/2021 10:45:00 PM 5.6 42.08 0.039 6.65 2.72 11.94
3/17/2021 11:00:00 PM 5.52 41.936 0.039 6.64 2.73 11.97
3/17/2021 11:15:00 PM 5.43 41.774 0.039 6.64 2.69 11.99
3/17/2021 11:30:00 PM 5.36 41.648 0.039 6.64 2.67 12.01
3/17/2021 11:45:00 PM 5.29 41.522 0.039 6.65 2.67 12.04
3/18/2021 12:00:00 AM 5.22 41.396 0.039 6.65 2.67 12.06
3/18/2021 12:15:00 AM 5.16 41.288 0.039 6.65 2.73 12.07
3/18/2021 12:30:00 AM 5.11 41.198 0.039 6.65 2.79 12.1
3/18/2021 12:45:00 AM 5.07 41.126 0.039 6.65 2.65 12.12
3/18/2021 1:00:00 AM 5.03 41.054 0.039 6.65 2.7 12.12
3/18/2021 1:15:00 AM 5 41 0.039 6.66 2.68 12.13
3/18/2021 1:30:00 AM 4.97 40.946 0.039 6.65 2.72 12.15
3/18/2021 1:45:00 AM 4.94 40.892 0.039 6.66 2.75 12.16
3/18/2021 2:00:00 AM 4.91 40.838 0.039 6.65 2.72 12.17
3/18/2021 2:15:00 AM 4.89 40.802 0.039 6.67 2.65 12.17
3/18/2021 2:30:00 AM 4.86 40.748 0.039 6.68 2.69 12.19
3/18/2021 2:45:00 AM 4.85 40.73 0.039 6.66 2.63 12.19
3/18/2021 3:00:00 AM 4.83 40.694 0.039 6.67 2.63 12.2
3/18/2021 3:15:00 AM 4.81 40.658 0.039 6.68 2.61 12.2
3/18/2021 3:30:00 AM 4.8 40.64 0.039 6.67 2.63 12.2
3/18/2021 3:45:00 AM 4.79 40.622 0.039 6.67 2.67 12.21
3/18/2021 4:00:00 AM 4.78 40.604 0.039 6.67 2.6 12.21
3/18/2021 4:15:00 AM 4.77 40.586 0.039 6.68 2.77 12.21
3/18/2021 4:30:00 AM 4.76 40.568 0.039 6.68 2.64 12.21
3/18/2021 4:45:00 AM 4.75 40.55 0.039 6.69 2.64 12.21
3/18/2021 5:00:00 AM 4.74 40.532 0.039 6.68 2.63 12.22
3/18/2021 5:15:00 AM 4.74 40.532 0.039 6.67 2.62 12.21
3/18/2021 5:30:00 AM 4.74 40.532 0.039 6.67 2.6 12.21
3/18/2021 5:45:00 AM 4.73 40.514 0.039 6.66 2.56 12.21
3/18/2021 6:00:00 AM 4.73 40.514 0.039 6.67 2.64 12.22
3/18/2021 6:15:00 AM 4.73 40.514 0.039 6.68 2.73 12.21
3/18/2021 6:30:00 AM 4.72 40.496 0.039 6.66 2.67 12.22
3/18/2021 6:45:00 AM 4.72 40.496 0.039 6.68 2.67 12.21
3/18/2021 7:00:00 AM 4.72 40.496 0.039 6.69 2.66 12.21
3/18/2021 7:15:00 AM 4.71 40.478 0.039 6.69 2.72 12.21
3/18/2021 7:30:00 AM 4.71 40.478 0.039 6.67 2.7 12.21
3/18/2021 7:45:00 AM 4.71 40.478 0.039 6.68 2.65 12.21
3/18/2021 8:00:00 AM 4.7 40.46 0.039 6.67 2.63 12.22
3/18/2021 8:15:00 AM 4.7 40.46 0.039 6.67 2.66 12.23
3/18/2021 8:30:00 AM 4.7 40.46 0.039 6.68 2.71 12.24
3/18/2021 8:45:00 AM 4.71 40.478 0.039 6.68 2.7 12.25
3/18/2021 9:00:00 AM 4.71 40.478 0.039 6.69 2.72 12.26
3/18/2021 9:15:00 AM 4.72 40.496 0.039 6.69 2.63 12.27
3/18/2021 9:30:00 AM 4.73 40.514 0.039 6.69 2.68 12.28
3/18/2021 9:45:00 AM 4.74 40.532 0.039 6.7 2.77 12.3
3/18/2021 10:00:00 AM 4.75 40.55 0.039 6.7 2.78 12.31
3/18/2021 10:15:00 AM 4.76 40.568 0.039 6.71 2.72 12.32
3/18/2021 10:30:00 AM 4.78 40.604 0.039 6.71 2.78 12.33
3/18/2021 10:45:00 AM 4.8 40.64 0.039 6.7 2.69 12.34
3/18/2021 11:00:00 AM 4.82 40.676 0.039 6.71 2.84 12.35
3/18/2021 11:15:00 AM 4.84 40.712 0.039 6.73 2.82 12.34
3/18/2021 11:30:00 AM 4.86 40.748 0.039 6.73 2.7 12.36
3/18/2021 11:45:00 AM 4.89 40.802 0.039 6.73 2.81 12.35
3/18/2021 12:00:00 PM 4.91 40.838 0.039 6.72 3.08 12.35
3/18/2021 12:15:00 PM 4.93 40.874 0.039 6.73 3.02 12.35
3/18/2021 12:30:00 PM 4.95 40.91 0.039 6.73 3.07 12.34
3/18/2021 12:45:00 PM 4.97 40.946 0.039 6.74 3.13 12.35
3/18/2021 1:00:00 PM 5 41 0.039 6.73 3.1 12.35
3/18/2021 1:15:00 PM 5.03 41.054 0.039 6.74 3.21 12.35
3/18/2021 1:30:00 PM 5.06 41.108 0.039 6.75 3.18 12.35
3/18/2021 1:45:00 PM 5.09 41.162 0.039 6.75 3.26 12.34
3/18/2021 2:00:00 PM 5.11 41.198 0.039 6.75 3.25 12.33
3/18/2021 2:15:00 PM 5.13 41.234 0.039 6.74 3.38 12.32
3/18/2021 2:30:00 PM 5.15 41.27 0.039 6.76 3.24 12.3
3/18/2021 2:45:00 PM 5.16 41.288 0.039 6.76 3.31 12.29
3/18/2021 3:00:00 PM 5.16 41.288 0.039 6.76 3.36 12.27
3/18/2021 3:15:00 PM 5.16 41.288 0.039 6.75 3.25 12.27
3/18/2021 3:30:00 PM 5.17 41.306 0.039 6.74 3.37 12.27
3/18/2021 3:45:00 PM 5.17 41.306 0.039 6.76 3.33 12.27
3/18/2021 4:00:00 PM 5.15 41.27 0.039 6.75 3.37 12.25
3/18/2021 4:15:00 PM 5.14 41.252 0.039 6.73 3.51 12.23
3/18/2021 4:30:00 PM 5.13 41.234 0.039 6.72 3.44 12.21
3/18/2021 4:45:00 PM 5.12 41.216 0.039 6.71 3.52 12.22
3/18/2021 5:00:00 PM 5.1 41.18 0.039 6.71 3.59 12.21
3/18/2021 5:15:00 PM 5.07 41.126 0.039 6.71 3.62 12.22
3/18/2021 5:30:00 PM 5.05 41.09 0.039 6.71 3.56 12.22
3/18/2021 5:45:00 PM 5.03 41.054 0.039 6.7 3.51 12.22
3/18/2021 6:00:00 PM 5.01 41.018 0.039 6.68 3.64 12.23
3/18/2021 6:15:00 PM 4.98 40.964 0.039 6.68 3.71 12.21
3/18/2021 6:30:00 PM 4.96 40.928 0.039 6.67 3.69 12.2
3/18/2021 6:45:00 PM 4.94 40.892 0.039 6.68 3.82 12.19
3/18/2021 7:00:00 PM 4.91 40.838 0.04 6.67 3.87 12.18
3/18/2021 7:15:00 PM 4.89 40.802 0.04 6.65 3.9 12.18
3/18/2021 7:30:00 PM 4.86 40.748 0.04 6.65 3.84 12.19
3/18/2021 7:45:00 PM 4.83 40.694 0.04 6.65 3.94 12.19
3/18/2021 8:00:00 PM 4.8 40.64 0.04 6.64 3.89 12.19
3/18/2021 8:15:00 PM 4.76 40.568 0.04 6.63 3.85 12.2
3/18/2021 8:30:00 PM 4.72 40.496 0.04 6.64 3.65 12.21
3/18/2021 8:45:00 PM 4.69 40.442 0.04 6.64 3.74 12.22
3/18/2021 9:00:00 PM 4.66 40.388 0.04 6.63 3.79 12.22
3/18/2021 9:15:00 PM 4.62 40.316 0.04 6.61 3.6 12.24
3/18/2021 9:30:00 PM 4.6 40.28 0.04 6.61 3.62 12.25
3/18/2021 9:45:00 PM 4.57 40.226 0.04 6.63 3.64 12.25
3/18/2021 10:00:00 PM 4.54 40.172 0.04 6.63 3.57 12.27
3/18/2021 10:15:00 PM 4.5 40.1 0.04 6.62 3.5 12.28
3/18/2021 10:30:00 PM 4.46 40.028 0.04 6.62 3.47 12.29
3/18/2021 10:45:00 PM 4.42 39.956 0.04 6.62 3.39 12.31
3/18/2021 11:00:00 PM 4.39 39.902 0.04 6.6 3.3 12.32
3/18/2021 11:15:00 PM 4.35 39.83 0.04 6.62 3.3 12.33
3/18/2021 11:30:00 PM 4.31 39.758 0.04 6.61 3.13 12.35
3/18/2021 11:45:00 PM 4.26 39.668 0.04 6.61 3.17 12.36
3/19/2021 12:00:00 AM 4.21 39.578 0.04 6.61 3.1 12.38
3/19/2021 12:15:00 AM 4.16 39.488 0.04 6.6 3.19 12.39
3/19/2021 12:30:00 AM 4.11 39.398 0.04 6.6 3.08 12.41
3/19/2021 12:45:00 AM 4.06 39.308 0.04 6.6 3.06 12.44
3/19/2021 1:00:00 AM 4.01 39.218 0.04 6.6 3.02 12.45
3/19/2021 1:15:00 AM 3.96 39.128 0.04 6.61 2.91 12.47
3/19/2021 1:30:00 AM 3.91 39.038 0.04 6.59 2.96 12.49
3/19/2021 1:45:00 AM 3.86 38.948 0.04 6.59 2.88 12.51
3/19/2021 2:00:00 AM 3.82 38.876 0.04 6.58 2.93 12.52
3/19/2021 2:15:00 AM 3.77 38.786 0.04 6.57 2.89 12.54
3/19/2021 2:30:00 AM 3.73 38.714 0.04 6.59 2.83 12.56
3/19/2021 2:45:00 AM 3.67 38.606 0.04 6.6 2.87 12.58
3/19/2021 3:00:00 AM 3.62 38.516 0.04 6.59 2.9 12.59
3/19/2021 3:15:00 AM 3.55 38.39 0.04 6.6 2.83 12.62
3/19/2021 3:30:00 AM 3.5 38.3 0.04 6.59 2.79 12.65
3/19/2021 3:45:00 AM 3.44 38.192 0.04 6.59 2.74 12.67
3/19/2021 4:00:00 AM 3.38 38.084 0.04 6.59 2.79 12.69
3/19/2021 4:15:00 AM 3.33 37.994 0.04 6.6 2.79 12.7
3/19/2021 4:30:00 AM 3.27 37.886 0.04 6.58 2.74 12.73
3/19/2021 4:45:00 AM 3.23 37.814 0.04 6.58 2.79 12.75
3/19/2021 5:00:00 AM 3.18 37.724 0.04 6.58 2.76 12.77
3/19/2021 5:15:00 AM 3.13 37.634 0.04 6.59 2.78 12.79
3/19/2021 5:30:00 AM 3.08 37.544 0.04 6.58 2.69 12.81
3/19/2021 5:45:00 AM 3.04 37.472 0.04 6.58 2.71 12.83
3/19/2021 6:00:00 AM 2.99 37.382 0.04 6.58 2.68 12.85
3/19/2021 6:15:00 AM 2.94 37.292 0.04 6.59 2.65 12.87
3/19/2021 6:30:00 AM 2.9 37.22 0.04 6.59 2.6 12.89
3/19/2021 6:45:00 AM 2.86 37.148 0.04 6.58 2.65 12.91
3/19/2021 7:00:00 AM 2.82 37.076 0.04 6.57 2.62 12.93
3/19/2021 7:15:00 AM 2.78 37.004 0.04 6.57 2.7 12.95
3/19/2021 7:30:00 AM 2.73 36.914 0.04 6.58 2.79 12.97
3/19/2021 7:45:00 AM 2.69 36.842 0.04 6.58 2.64 13
3/19/2021 8:00:00 AM 2.65 36.77 0.04 6.58 2.66 13.03
3/19/2021 8:15:00 AM 2.62 36.716 0.04 6.58 2.61 13.07
3/19/2021 8:30:00 AM 2.59 36.662 0.04 6.59 2.65 13.11
3/19/2021 8:45:00 AM 2.57 36.626 0.04 6.6 2.57 13.15
3/19/2021 9:00:00 AM 2.55 36.59 0.04 6.62 2.57 13.18
3/19/2021 9:15:00 AM 2.53 36.554 0.04 6.63 2.57 13.21
3/19/2021 9:30:00 AM 2.53 36.554 0.04 6.64 2.53 13.24
3/19/2021 9:45:00 AM 2.55 36.59 0.04 6.66 2.49 13.25
3/19/2021 10:00:00 AM 2.58 36.644 0.04 6.64 2.46 13.26
3/19/2021 10:15:00 AM 2.62 36.716 0.04 6.65 2.47 13.27
3/19/2021 10:30:00 AM 2.68 36.824 0.04 6.67 2.41 13.27
3/19/2021 10:45:00 AM 2.76 36.968 0.039 6.69 2.45 13.27
3/19/2021 11:00:00 AM 2.84 37.112 0.039 6.7 2.43 13.25
3/19/2021 11:15:00 AM 2.95 37.31 0.039 6.73 2.49 13.24
3/19/2021 11:30:00 AM 3.07 37.526 0.039 6.73 2.36 13.21
3/19/2021 11:45:00 AM 3.2 37.76 0.039 6.76 2.4 13.18
3/19/2021 12:00:00 PM 3.34 38.012 0.039 6.73 2.37 13.14
3/19/2021 12:15:00 PM 3.49 38.282 0.039 6.74 2.39 13.1
3/19/2021 12:30:00 PM 3.65 38.57 0.039 6.76 2.38 13.06
3/19/2021 12:45:00 PM 3.82 38.876 0.039 6.76 2.44 13.02
3/19/2021 1:00:00 PM 3.99 39.182 0.039 6.76 2.38 12.96
3/19/2021 1:15:00 PM 4.16 39.488 0.039 6.75 2.37 12.91
3/19/2021 1:30:00 PM 4.34 39.812 0.039 6.76 2.33 12.86
3/19/2021 1:45:00 PM 4.51 40.118 0.039 6.76 2.34 12.81
3/19/2021 2:00:00 PM 4.67 40.406 0.039 6.77 2.35 12.76
3/19/2021 2:15:00 PM 4.82 40.676 0.039 6.77 2.36 12.71
3/19/2021 2:30:00 PM 4.96 40.928 0.039 6.79 2.32 12.66
3/19/2021 2:45:00 PM 5.1 41.18 0.039 6.77 2.42 12.62
3/19/2021 3:00:00 PM 5.23 41.414 0.039 6.78 2.35 12.57
3/19/2021 3:15:00 PM 5.36 41.648 0.039 6.78 2.37 12.51
3/19/2021 3:30:00 PM 5.49 41.882 0.039 6.79 2.37 12.47
3/19/2021 3:45:00 PM 5.6 42.08 0.039 6.8 2.38 12.44
3/19/2021 4:00:00 PM 5.7 42.26 0.039 6.79 2.37 12.4
3/19/2021 4:15:00 PM 5.78 42.404 0.039 6.79 2.33 12.36
3/19/2021 4:30:00 PM 5.85 42.53 0.039 6.79 2.37 12.33
3/19/2021 4:45:00 PM 5.9 42.62 0.039 6.8 2.44 12.31
3/19/2021 5:00:00 PM 5.92 42.656 0.039 6.8 2.42 12.29
3/19/2021 5:15:00 PM 5.92 42.656 0.039 6.79 2.42 12.27
3/19/2021 5:30:00 PM 5.88 42.584 0.039 6.8 2.46 12.27
3/19/2021 5:45:00 PM 5.85 42.53 0.039 6.78 2.45 12.26
3/19/2021 6:00:00 PM 5.8 42.44 0.039 6.78 2.34 12.26
3/19/2021 6:15:00 PM 5.74 42.332 0.039 6.77 2.4 12.26
3/19/2021 6:30:00 PM 5.66 42.188 0.039 6.75 2.44 12.26
3/19/2021 6:45:00 PM 5.57 42.026 0.039 6.74 2.45 12.27
3/19/2021 7:00:00 PM 5.46 41.828 0.039 6.71 2.49 12.28
3/19/2021 7:15:00 PM 5.36 41.648 0.039 6.69 2.46 12.29
3/19/2021 7:30:00 PM 5.27 41.486 0.039 6.67 2.51 12.28
3/19/2021 7:45:00 PM 5.17 41.306 0.039 6.66 2.59 12.29
3/19/2021 8:00:00 PM 5.07 41.126 0.039 6.64 2.56 12.3
3/19/2021 8:15:00 PM 4.98 40.964 0.039 6.62 2.55 12.3
3/19/2021 8:30:00 PM 4.89 40.802 0.039 6.61 2.61 12.32
3/19/2021 8:45:00 PM 4.8 40.64 0.039 6.6 2.52 12.35
3/19/2021 9:00:00 PM 4.72 40.496 0.039 6.59 2.68 12.38
3/19/2021 9:15:00 PM 4.63 40.334 0.039 6.59 2.58 12.41
3/19/2021 9:30:00 PM 4.55 40.19 0.039 6.59 2.59 12.43
3/19/2021 9:45:00 PM 4.48 40.064 0.039 6.58 2.54 12.45
3/19/2021 10:00:00 PM 4.4 39.92 0.039 6.59 2.62 12.48
3/19/2021 10:15:00 PM 4.33 39.794 0.039 6.58 2.59 12.5
3/19/2021 10:30:00 PM 4.26 39.668 0.039 6.58 2.51 12.52
3/19/2021 10:45:00 PM 4.19 39.542 0.039 6.57 2.58 12.55
3/19/2021 11:00:00 PM 4.12 39.416 0.039 6.55 2.59 12.58
3/19/2021 11:15:00 PM 4.05 39.29 0.039 6.58 2.65 12.61
3/19/2021 11:30:00 PM 3.98 39.164 0.039 6.57 2.58 12.63
3/19/2021 11:45:00 PM 3.92 39.056 0.039 6.57 2.62 12.65
3/20/2021 12:00:00 AM 3.86 38.948 0.039 6.56 2.6 12.67
3/20/2021 12:15:00 AM 3.8 38.84 0.039 6.55 2.55 12.69
3/20/2021 12:30:00 AM 3.75 38.75 0.039 6.58 2.6 12.72
3/20/2021 12:45:00 AM 3.69 38.642 0.039 6.57 2.55 12.74
3/20/2021 1:00:00 AM 3.64 38.552 0.039 6.58 2.56 12.76
3/20/2021 1:15:00 AM 3.59 38.462 0.039 6.57 2.77 12.78
3/20/2021 1:30:00 AM 3.53 38.354 0.039 6.58 2.71 12.8
3/20/2021 1:45:00 AM 3.49 38.282 0.039 6.58 2.71 12.82
3/20/2021 2:00:00 AM 3.44 38.192 0.039 6.57 2.78 12.83
3/20/2021 2:15:00 AM 3.39 38.102 0.039 6.58 2.72 12.86
3/20/2021 2:30:00 AM 3.35 38.03 0.039 6.59 2.68 12.87
3/20/2021 2:45:00 AM 3.3 37.94 0.039 6.58 2.64 12.89
3/20/2021 3:00:00 AM 3.26 37.868 0.039 6.57 2.65 12.9
3/20/2021 3:15:00 AM 3.22 37.796 0.039 6.57 2.69 12.91
3/20/2021 3:30:00 AM 3.18 37.724 0.039 6.58 2.65 12.93
3/20/2021 3:45:00 AM 3.14 37.652 0.039 6.56 2.62 12.95
3/20/2021 4:00:00 AM 3.1 37.58 0.039 6.57 2.71 12.97
3/20/2021 4:15:00 AM 3.07 37.526 0.039 6.57 2.69 12.98
3/20/2021 4:30:00 AM 3.03 37.454 0.039 6.55 2.6 13
3/20/2021 4:45:00 AM 3 37.4 0.039 6.57 2.73 13.01
3/20/2021 5:00:00 AM 2.96 37.328 0.039 6.56 2.65 13.03
3/20/2021 5:15:00 AM 2.93 37.274 0.039 6.56 2.64 13.04
3/20/2021 5:30:00 AM 2.89 37.202 0.039 6.57 2.69 13.05
3/20/2021 5:45:00 AM 2.86 37.148 0.039 6.58 2.64 13.06
3/20/2021 6:00:00 AM 2.83 37.094 0.039 6.57 2.67 13.08
3/20/2021 6:15:00 AM 2.8 37.04 0.039 6.58 2.68 13.09
3/20/2021 6:30:00 AM 2.76 36.968 0.039 6.57 2.63 13.1
3/20/2021 6:45:00 AM 2.73 36.914 0.039 6.56 2.64 13.11
3/20/2021 7:00:00 AM 2.71 36.878 0.039 6.56 2.66 13.12
3/20/2021 7:15:00 AM 2.68 36.824 0.039 6.56 2.62 13.14
3/20/2021 7:30:00 AM 2.65 36.77 0.039 6.58 2.67 13.15
3/20/2021 7:45:00 AM 2.63 36.734 0.039 6.58 2.6 13.18
3/20/2021 8:00:00 AM 2.61 36.698 0.039 6.57 2.54 13.21
3/20/2021 8:15:00 AM 2.6 36.68 0.039 6.6 2.67 13.23
3/20/2021 8:30:00 AM 2.59 36.662 0.039 6.6 2.57 13.26
3/20/2021 8:45:00 AM 2.6 36.68 0.039 6.61 2.74 13.29
3/20/2021 9:00:00 AM 2.61 36.698 0.039 6.61 2.52 13.31
3/20/2021 9:15:00 AM 2.64 36.752 0.039 6.63 2.61 13.32
3/20/2021 9:30:00 AM 2.68 36.824 0.039 6.64 2.64 13.33
3/20/2021 9:45:00 AM 2.74 36.932 0.039 6.65 2.58 13.34
3/20/2021 10:00:00 AM 2.82 37.076 0.039 6.68 2.58 13.33
3/20/2021 10:15:00 AM 2.91 37.238 0.039 6.71 2.5 13.32
3/20/2021 10:30:00 AM 3.02 37.436 0.039 6.69 2.52 13.3
3/20/2021 10:45:00 AM 3.15 37.67 0.039 6.72 2.54 13.28
3/20/2021 11:00:00 AM 3.29 37.922 0.039 6.73 2.58 13.24
3/20/2021 11:15:00 AM 3.44 38.192 0.039 6.76 2.55 13.2
3/20/2021 11:30:00 AM 3.61 38.498 0.039 6.78 2.55 13.16
3/20/2021 11:45:00 AM 3.8 38.84 0.039 6.77 2.56 13.11
3/20/2021 12:00:00 PM 3.99 39.182 0.039 6.77 2.62 13.06
3/20/2021 12:15:00 PM 4.19 39.542 0.038 6.78 2.57 13
3/20/2021 12:30:00 PM 4.4 39.92 0.038 6.78 2.62 12.94
3/20/2021 12:45:00 PM 4.6 40.28 0.038 6.81 2.61 12.88
3/20/2021 1:00:00 PM 4.82 40.676 0.038 6.8 2.64 12.81
3/20/2021 1:15:00 PM 5.03 41.054 0.038 6.83 2.63 12.74
3/20/2021 1:30:00 PM 5.25 41.45 0.038 6.82 2.62 12.67
3/20/2021 1:45:00 PM 5.46 41.828 0.038 6.82 2.59 12.6
3/20/2021 2:00:00 PM 5.67 42.206 0.038 6.82 2.63 12.55
3/20/2021 2:15:00 PM 5.88 42.584 0.038 6.84 2.59 12.47
3/20/2021 2:30:00 PM 6.07 42.926 0.038 6.83 3.46 12.41
3/20/2021 2:45:00 PM 6.27 43.286 0.038 6.8 10.13 12.35
3/20/2021 3:00:00 PM 6.45 43.61 0.038 6.85 2.68 12.28
3/20/2021 3:15:00 PM 6.62 43.916 0.038 6.85 2.63 12.23
3/20/2021 3:30:00 PM 6.76 44.168 0.038 6.84 2.7 12.18
3/20/2021 3:45:00 PM 6.9 44.42 0.038 6.85 2.68 12.13
3/20/2021 4:00:00 PM 7.02 44.636 0.038 6.85 2.7 12.09
3/20/2021 4:15:00 PM 7.12 44.816 0.038 6.84 2.75 12.05
3/20/2021 4:30:00 PM 7.19 44.942 0.038 6.84 2.71 12.01
3/20/2021 4:45:00 PM 7.25 45.05 0.038 6.83 2.5 11.98
3/20/2021 5:00:00 PM 7.3 45.14 0.038 6.82 2.57 11.96
3/20/2021 5:15:00 PM 7.31 45.158 0.035 6.81 7.84 11.93
3/20/2021 5:30:00 PM 7.3 45.14 0.032 6.81 1.81 11.92
3/20/2021 5:45:00 PM 7.27 45.086 0.038 6.84 2.71 11.91
3/20/2021 6:00:00 PM 7.24 45.032 0.038 6.8 2.9 11.9
3/20/2021 6:15:00 PM 7.18 44.924 0.038 6.79 2.91 11.89
3/20/2021 6:30:00 PM 7.11 44.798 0.038 6.79 2.57 11.88
3/20/2021 6:45:00 PM 7.02 44.636 0.038 6.75 3.14 11.88
3/20/2021 7:00:00 PM 6.92 44.456 0.038 6.71 2.79 11.88
3/20/2021 7:15:00 PM 6.81 44.258 0.038 6.71 2.82 11.88
3/20/2021 7:30:00 PM 6.69 44.042 0.038 6.69 3.5 11.89
3/20/2021 7:45:00 PM 6.56 43.808 0.038 6.68 2.67 11.89
3/20/2021 8:00:00 PM 6.44 43.592 0.038 6.64 2.55 11.9
3/20/2021 8:15:00 PM 6.32 43.376 0.038 6.62 2.74 11.93
3/20/2021 8:30:00 PM 6.21 43.178 0.038 6.6 2.71 11.95
3/20/2021 8:45:00 PM 6.09 42.962 0.038 6.6 2.7 11.98
3/20/2021 9:00:00 PM 5.99 42.782 0.038 6.6 2.66 12.01
3/20/2021 9:15:00 PM 5.87 42.566 0.038 6.59 2.66 12.04
3/20/2021 9:30:00 PM 5.77 42.386 0.038 6.55 2.65 12.06
3/20/2021 9:45:00 PM 5.67 42.206 0.038 6.57 2.74 12.09
3/20/2021 10:00:00 PM 5.58 42.044 0.038 6.57 2.68 12.12
3/20/2021 10:15:00 PM 5.49 41.882 0.038 6.57 2.69 12.15
3/20/2021 10:30:00 PM 5.39 41.702 0.039 6.55 2.71 12.18
3/20/2021 10:45:00 PM 5.3 41.54 0.039 6.56 2.67 12.21
3/20/2021 11:00:00 PM 5.21 41.378 0.039 6.55 2.68 12.24
3/20/2021 11:15:00 PM 5.12 41.216 0.039 6.53 2.63 12.28
3/20/2021 11:30:00 PM 5.03 41.054 0.039 6.55 2.63 12.31
3/20/2021 11:45:00 PM 4.95 40.91 0.039 6.56 2.7 12.33
3/21/2021 12:00:00 AM 4.86 40.748 0.039 6.56 2.62 12.36
3/21/2021 12:15:00 AM 4.78 40.604 0.039 6.54 2.66 12.38
3/21/2021 12:30:00 AM 4.71 40.478 0.039 6.55 2.67 12.41
3/21/2021 12:45:00 AM 4.63 40.334 0.039 6.57 2.59 12.44
3/21/2021 1:00:00 AM 4.56 40.208 0.039 6.56 2.65 12.47
3/21/2021 1:15:00 AM 4.49 40.082 0.039 6.57 2.66 12.49
3/21/2021 1:30:00 AM 4.42 39.956 0.039 6.56 2.67 12.51
3/21/2021 1:45:00 AM 4.36 39.848 0.039 6.56 2.67 12.53
3/21/2021 2:00:00 AM 4.3 39.74 0.039 6.56 2.62 12.55
3/21/2021 2:15:00 AM 4.24 39.632 0.039 6.56 2.64 12.57
3/21/2021 2:30:00 AM 4.18 39.524 0.039 6.56 2.67 12.59
3/21/2021 2:45:00 AM 4.12 39.416 0.039 6.56 2.64 12.61
3/21/2021 3:00:00 AM 4.07 39.326 0.039 6.57 2.6 12.63
3/21/2021 3:15:00 AM 4.01 39.218 0.039 6.57 2.61 12.65
3/21/2021 3:30:00 AM 3.96 39.128 0.039 6.57 2.61 12.66
3/21/2021 3:45:00 AM 3.91 39.038 0.039 6.57 2.62 12.68
3/21/2021 4:00:00 AM 3.86 38.948 0.039 6.56 2.6 12.7
3/21/2021 4:15:00 AM 3.81 38.858 0.039 6.56 2.6 12.72
3/21/2021 4:30:00 AM 3.77 38.786 0.039 6.56 2.57 12.74
3/21/2021 4:45:00 AM 3.72 38.696 0.039 6.56 2.55 12.75
3/21/2021 5:00:00 AM 3.68 38.624 0.039 6.56 2.6 12.77
3/21/2021 5:15:00 AM 3.63 38.534 0.039 6.55 2.48 12.78
3/21/2021 5:30:00 AM 3.59 38.462 0.039 6.58 2.56 12.8
3/21/2021 5:45:00 AM 3.55 38.39 0.039 6.57 2.61 12.81
3/21/2021 6:00:00 AM 3.51 38.318 0.039 6.57 2.52 12.83
3/21/2021 6:15:00 AM 3.47 38.246 0.039 6.56 2.57 12.84
3/21/2021 6:30:00 AM 3.43 38.174 0.039 6.56 2.59 12.86
3/21/2021 6:45:00 AM 3.39 38.102 0.035 6.6 9.32 12.87
3/21/2021 7:00:00 AM 3.36 38.048 0.039 6.56 2.56 12.89
3/21/2021 7:15:00 AM 3.32 37.976 0.039 6.56 2.57 12.9
3/21/2021 7:30:00 AM 3.29 37.922 0.039 6.56 2.53 12.92
3/21/2021 7:45:00 AM 3.27 37.886 0.039 6.56 2.54 12.95
3/21/2021 8:00:00 AM 3.24 37.832 0.039 6.57 2.56 12.98
3/21/2021 8:15:00 AM 3.22 37.796 0.039 6.58 2.5 13.01
3/21/2021 8:30:00 AM 3.21 37.778 0.039 6.58 2.48 13.04
3/21/2021 8:45:00 AM 3.21 37.778 0.039 6.59 2.53 13.07
3/21/2021 9:00:00 AM 3.21 37.778 0.039 6.62 2.56 13.09
3/21/2021 9:15:00 AM 3.24 37.832 0.039 6.62 2.49 13.11
3/21/2021 9:30:00 AM 3.28 37.904 0.039 6.63 2.41 13.12
3/21/2021 9:45:00 AM 3.34 38.012 0.038 6.66 2.43 13.12
3/21/2021 10:00:00 AM 3.42 38.156 0.038 6.66 2.43 13.12
3/21/2021 10:15:00 AM 3.52 38.336 0.038 6.69 2.48 13.11
3/21/2021 10:30:00 AM 3.63 38.534 0.036 6.76 10.41 13.1
3/21/2021 10:45:00 AM 3.76 38.768 0.035 6.76 11.25 13.07
3/21/2021 11:00:00 AM 3.9 39.02 0.033 6.79 5.48 13.03
3/21/2021 11:15:00 AM 4.06 39.308 0.031 6.8 2.89 13
3/21/2021 11:30:00 AM 4.23 39.614 0.029 6.81 2.3 12.96
3/21/2021 11:45:00 AM 4.42 39.956 0.022 6.82 2.8 12.91
3/21/2021 12:00:00 PM 4.61 40.298 0.01 6.82 2.38 12.86
3/21/2021 12:15:00 PM 4.82 40.676 0.038 6.82 2.32 12.8
3/21/2021 12:30:00 PM 5.04 41.072 0.038 6.81 2.35 12.74
3/21/2021 12:45:00 PM 5.26 41.468 0.038 6.83 2.31 12.67
3/21/2021 1:00:00 PM 5.48 41.864 0.038 6.82 2.3 12.61
3/21/2021 1:15:00 PM 5.7 42.26 0.038 6.83 2.31 12.53
3/21/2021 1:30:00 PM 5.93 42.674 0.038 6.83 2.3 12.47
3/21/2021 1:45:00 PM 6.15 43.07 0.038 6.83 2.38 12.4
3/21/2021 2:00:00 PM 6.37 43.466 0.038 6.83 2.41 12.33
3/21/2021 2:15:00 PM 6.59 43.862 0.038 6.84 2.4 12.27
3/21/2021 2:30:00 PM 6.8 44.24 0.038 6.83 2.37 12.2
3/21/2021 2:45:00 PM 6.99 44.582 0.038 6.84 2.3 12.13
3/21/2021 3:00:00 PM 7.19 44.942 0.038 6.84 2.32 12.07
3/21/2021 3:15:00 PM 7.36 45.248 0.038 6.87 2.39 12.01
3/21/2021 3:30:00 PM 7.51 45.518 0.038 6.85 2.36 11.96
3/21/2021 3:45:00 PM 7.65 45.77 0.038 6.85 2.43 11.92
3/21/2021 4:00:00 PM 7.78 46.004 0.038 6.86 2.49 11.86
3/21/2021 4:15:00 PM 7.89 46.202 0.038 6.86 2.5 11.83
3/21/2021 4:30:00 PM 7.97 46.346 0.038 6.85 2.39 11.79
3/21/2021 4:45:00 PM 8.03 46.454 0.038 6.85 2.48 11.76
3/21/2021 5:00:00 PM 8.06 46.508 0.038 6.83 2.44 11.73
3/21/2021 5:15:00 PM 8.08 46.544 0.038 6.81 2.43 11.71
3/21/2021 5:30:00 PM 8.06 46.508 0.038 6.82 2.36 11.7
3/21/2021 5:45:00 PM 8.03 46.454 0.038 6.83 2.4 11.69
3/21/2021 6:00:00 PM 7.99 46.382 0.038 6.82 2.43 11.68
3/21/2021 6:15:00 PM 7.92 46.256 0.038 6.8 2.45 11.68
3/21/2021 6:30:00 PM 7.84 46.112 0.038 6.78 2.43 11.67
3/21/2021 6:45:00 PM 7.74 45.932 0.038 6.77 2.48 11.66
3/21/2021 7:00:00 PM 7.63 45.734 0.038 6.74 2.46 11.67
3/21/2021 7:15:00 PM 7.51 45.518 0.038 6.76 2.47 11.67
3/21/2021 7:30:00 PM 7.39 45.302 0.038 6.73 2.47 11.67
3/21/2021 7:45:00 PM 7.25 45.05 0.038 6.7 2.46 11.67
3/21/2021 8:00:00 PM 7.12 44.816 0.038 6.7 2.53 11.68
3/21/2021 8:15:00 PM 6.99 44.582 0.038 6.67 2.58 11.7
3/21/2021 8:30:00 PM 6.86 44.348 0.038 6.66 2.59 11.73
3/21/2021 8:45:00 PM 6.74 44.132 0.038 6.63 2.52 11.75
3/21/2021 9:00:00 PM 6.62 43.916 0.038 6.61 2.58 11.78
3/21/2021 9:15:00 PM 6.5 43.7 0.038 6.6 2.57 11.82
3/21/2021 9:30:00 PM 6.38 43.484 0.038 6.58 2.59 11.85
3/21/2021 9:45:00 PM 6.27 43.286 0.038 6.59 2.63 11.87
3/21/2021 10:00:00 PM 6.16 43.088 0.038 6.59 2.59 11.91
3/21/2021 10:15:00 PM 6.05 42.89 0.038 6.58 2.6 11.94
3/21/2021 10:30:00 PM 5.94 42.692 0.038 6.55 2.56 11.97
3/21/2021 10:45:00 PM 5.84 42.512 0.038 6.57 2.58 12
3/21/2021 11:00:00 PM 5.74 42.332 0.038 6.58 2.62 12.04
3/21/2021 11:15:00 PM 5.64 42.152 0.038 6.56 2.58 12.06
3/21/2021 11:30:00 PM 5.54 41.972 0.038 6.57 2.61 12.09
3/21/2021 11:45:00 PM 5.45 41.81 0.038 6.56 2.54 12.12
3/22/2021 12:00:00 AM 5.36 41.648 0.038 6.57 2.59 12.15
3/22/2021 12:15:00 AM 5.27 41.486 0.038 6.57 2.64 12.19
3/22/2021 12:30:00 AM 5.18 41.324 0.038 6.57 2.54 12.21
3/22/2021 12:45:00 AM 5.1 41.18 0.038 6.56 2.53 12.24
3/22/2021 1:00:00 AM 5.02 41.036 0.038 6.58 2.62 12.26
3/22/2021 1:15:00 AM 4.94 40.892 0.038 6.58 2.58 12.29
3/22/2021 1:30:00 AM 4.86 40.748 0.038 6.58 2.59 12.32
3/22/2021 1:45:00 AM 4.79 40.622 0.038 6.58 2.53 12.34
3/22/2021 2:00:00 AM 4.72 40.496 0.038 6.58 2.57 12.37
3/22/2021 2:15:00 AM 4.65 40.37 0.038 6.59 2.51 12.38
3/22/2021 2:30:00 AM 4.59 40.262 0.038 6.58 2.56 12.4
3/22/2021 2:45:00 AM 4.53 40.154 0.038 6.58 2.48 12.42
3/22/2021 3:00:00 AM 4.48 40.064 0.038 6.6 2.5 12.43
3/22/2021 3:15:00 AM 4.43 39.974 0.038 6.57 2.48 12.45
3/22/2021 3:30:00 AM 4.38 39.884 0.038 6.58 2.48 12.47
3/22/2021 3:45:00 AM 4.33 39.794 0.038 6.58 2.49 12.49
3/22/2021 4:00:00 AM 4.28 39.704 0.039 6.58 2.46 12.5
3/22/2021 4:15:00 AM 4.24 39.632 0.038 6.57 2.43 12.52
3/22/2021 4:30:00 AM 4.19 39.542 0.039 6.58 2.49 12.53
3/22/2021 4:45:00 AM 4.14 39.452 0.038 6.57 2.49 12.54
3/22/2021 5:00:00 AM 4.1 39.38 0.038 6.58 2.5 12.57
3/22/2021 5:15:00 AM 4.05 39.29 0.038 6.58 2.45 12.57
3/22/2021 5:30:00 AM 4.01 39.218 0.038 6.58 2.45 12.59
3/22/2021 5:45:00 AM 3.96 39.128 0.038 6.58 2.51 12.61
3/22/2021 6:00:00 AM 3.92 39.056 0.039 6.58 2.53 12.62
3/22/2021 6:15:00 AM 3.88 38.984 0.038 6.59 2.5 12.64
3/22/2021 6:30:00 AM 3.84 38.912 0.038 6.58 2.47 12.65
3/22/2021 6:45:00 AM 3.81 38.858 0.038 6.57 2.49 12.66
3/22/2021 7:00:00 AM 3.77 38.786 0.038 6.58 2.44 12.68
3/22/2021 7:15:00 AM 3.74 38.732 0.038 6.6 2.45 12.69
3/22/2021 7:30:00 AM 3.71 38.678 0.038 6.6 2.47 12.72
3/22/2021 7:45:00 AM 3.69 38.642 0.038 6.61 2.48 12.75
3/22/2021 8:00:00 AM 3.67 38.606 0.038 6.6 2.43 12.78
3/22/2021 8:15:00 AM 3.65 38.57 0.038 6.6 2.51 12.8
3/22/2021 8:30:00 AM 3.65 38.57 0.038 6.63 2.51 12.84
3/22/2021 8:45:00 AM 3.66 38.588 0.038 6.64 2.45 12.87
3/22/2021 9:00:00 AM 3.67 38.606 0.038 6.64 2.4 12.89
3/22/2021 9:15:00 AM 3.7 38.66 0.038 6.65 2.46 12.91
3/22/2021 9:30:00 AM 3.75 38.75 0.038 6.68 2.39 12.92
3/22/2021 9:45:00 AM 3.82 38.876 0.038 6.69 2.44 12.92
3/22/2021 10:00:00 AM 3.9 39.02 0.038 6.7 2.45 12.92
3/22/2021 10:15:00 AM 4 39.2 0.038 6.74 2.41 12.9
3/22/2021 10:30:00 AM 4.12 39.416 0.038 6.75 2.37 12.88
3/22/2021 10:45:00 AM 4.26 39.668 0.038 6.76 2.48 12.85
3/22/2021 11:00:00 AM 4.42 39.956 0.038 6.76 2.43 12.82
3/22/2021 11:15:00 AM 4.58 40.244 0.038 6.77 2.4 12.79
3/22/2021 11:30:00 AM 4.76 40.568 0.038 6.79 2.33 12.74
3/22/2021 11:45:00 AM 4.95 40.91 0.038 6.8 2.37 12.7
3/22/2021 12:00:00 PM 5.15 41.27 0.038 6.81 2.31 12.65
3/22/2021 12:15:00 PM 5.35 41.63 0.038 6.82 2.36 12.59
3/22/2021 12:30:00 PM 5.56 42.008 0.038 6.85 2.33 12.53
3/22/2021 12:45:00 PM 5.77 42.386 0.038 6.82 2.36 12.47
3/22/2021 1:00:00 PM 5.99 42.782 0.038 6.83 2.4 12.4
3/22/2021 1:15:00 PM 6.2 43.16 0.038 6.84 2.38 12.34
3/22/2021 1:30:00 PM 6.42 43.556 0.038 6.87 2.4 12.28
3/22/2021 1:45:00 PM 6.63 43.934 0.038 6.87 2.4 12.21
3/22/2021 2:00:00 PM 6.86 44.348 0.038 6.87 2.34 12.15
3/22/2021 2:15:00 PM 7.06 44.708 0.038 6.88 2.39 12.08
3/22/2021 2:30:00 PM 7.26 45.068 0.038 6.9 2.34 12.02
3/22/2021 2:45:00 PM 7.45 45.41 0.037 6.88 2.38 11.95
3/22/2021 3:00:00 PM 7.63 45.734 0.037 6.9 2.39 11.89
3/22/2021 3:15:00 PM 7.8 46.04 0.037 6.76 2.34 11.85
3/22/2021 3:30:00 PM 7.96 46.328 0.037 6.88 2.45 11.8
3/22/2021 3:45:00 PM 8.1 46.58 0.037 6.86 2.47 11.74
3/22/2021 4:00:00 PM 8.21 46.778 0.037 6.87 2.37 11.7
3/22/2021 4:15:00 PM 8.32 46.976 0.037 6.88 2.46 11.66
3/22/2021 4:30:00 PM 8.39 47.102 0.037 6.87 2.38 11.63
3/22/2021 4:45:00 PM 8.45 47.21 0.037 6.88 2.4 11.59
3/22/2021 5:00:00 PM 8.49 47.282 0.037 6.9 2.46 11.57
3/22/2021 5:15:00 PM 8.5 47.3 0.037 6.87 2.42 11.54
3/22/2021 5:30:00 PM 8.5 47.3 0.037 6.87 2.46 11.52
3/22/2021 5:45:00 PM 8.48 47.264 0.037 6.86 2.45 11.51
3/22/2021 6:00:00 PM 8.43 47.174 0.037 6.84 2.42 11.5
3/22/2021 6:15:00 PM 8.39 47.102 0.037 6.81 2.5 11.48
3/22/2021 6:30:00 PM 8.31 46.958 0.037 6.8 2.52 11.48
3/22/2021 6:45:00 PM 8.22 46.796 0.037 6.79 2.55 11.48
3/22/2021 7:00:00 PM 8.12 46.616 0.037 6.78 2.59 11.47
3/22/2021 7:15:00 PM 8.01 46.418 0.037 6.78 2.52 11.46
3/22/2021 7:30:00 PM 7.89 46.202 0.038 6.74 2.5 11.46
3/22/2021 7:45:00 PM 7.77 45.986 0.038 6.74 2.58 11.45
3/22/2021 8:00:00 PM 7.64 45.752 0.038 6.7 2.64 11.46
3/22/2021 8:15:00 PM 7.52 45.536 0.038 6.71 2.63 11.49
3/22/2021 8:30:00 PM 7.39 45.302 0.038 6.69 2.68 11.5
3/22/2021 8:45:00 PM 7.26 45.068 0.038 6.68 2.65 11.53
3/22/2021 9:00:00 PM 7.13 44.834 0.038 6.66 2.65 11.56
3/22/2021 9:15:00 PM 7.01 44.618 0.038 6.65 2.62 11.59
3/22/2021 9:30:00 PM 6.88 44.384 0.038 6.61 2.65 11.62
3/22/2021 9:45:00 PM 6.75 44.15 0.038 6.62 2.67 11.65
3/22/2021 10:00:00 PM 6.63 43.934 0.038 6.63 2.69 11.69
3/22/2021 10:15:00 PM 6.51 43.718 0.038 6.63 2.77 11.72
3/22/2021 10:30:00 PM 6.4 43.52 0.038 6.63 2.76 11.76
3/22/2021 10:45:00 PM 6.28 43.304 0.038 6.62 2.7 11.79
3/22/2021 11:00:00 PM 6.17 43.106 0.036 6.61 11.55 11.84
3/22/2021 11:15:00 PM 6.07 42.926 0.038 6.63 2.68 11.86
3/22/2021 11:30:00 PM 5.96 42.728 0.034 6.61 2.55 11.9
3/22/2021 11:45:00 PM 5.87 42.566 0.034 6.64 2.53 11.93
3/23/2021 12:00:00 AM 5.78 42.404 0.035 6.62 2.54 11.95
3/23/2021 12:15:00 AM 5.69 42.242 0.035 6.62 2.54 11.98
3/23/2021 12:30:00 AM 5.61 42.098 0.035 6.64 2.56 12.01
3/23/2021 12:45:00 AM 5.54 41.972 0.036 6.64 2.6 12.03
3/23/2021 1:00:00 AM 5.47 41.846 0.035 6.63 2.55 12.06
3/23/2021 1:15:00 AM 5.4 41.72 0.036 6.63 2.45 12.09
3/23/2021 1:30:00 AM 5.33 41.594 0.038 6.63 2.47 12.1
3/23/2021 1:45:00 AM 5.26 41.468 0.038 6.68 2.47 12.13
3/23/2021 2:00:00 AM 5.19 41.342 0.038 6.68 2.53 12.15
3/23/2021 2:15:00 AM 5.12 41.216 0.038 6.68 2.43 12.17
3/23/2021 2:30:00 AM 5.06 41.108 0.038 6.67 2.51 12.19
3/23/2021 2:45:00 AM 5 41 0.038 6.66 2.42 12.21
3/23/2021 3:00:00 AM 4.94 40.892 0.038 6.65 2.47 12.23
3/23/2021 3:15:00 AM 4.89 40.802 0.038 6.65 2.45 12.25
3/23/2021 3:30:00 AM 4.84 40.712 0.038 6.65 2.38 12.26
3/23/2021 3:45:00 AM 4.8 40.64 0.038 6.64 2.35 12.27
3/23/2021 4:00:00 AM 4.75 40.55 0.038 6.64 2.45 12.29
3/23/2021 4:15:00 AM 4.71 40.478 0.038 6.62 2.45 12.3
3/23/2021 4:30:00 AM 4.67 40.406 0.038 6.63 2.51 12.32
3/23/2021 4:45:00 AM 4.63 40.334 0.038 6.63 2.45 12.33
3/23/2021 5:00:00 AM 4.58 40.244 0.038 6.63 2.44 12.34
3/23/2021 5:15:00 AM 4.54 40.172 0.038 6.63 2.42 12.35
3/23/2021 5:30:00 AM 4.5 40.1 0.038 6.62 2.38 12.37
3/23/2021 5:45:00 AM 4.46 40.028 0.038 6.63 2.45 12.39
3/23/2021 6:00:00 AM 4.42 39.956 0.038 6.64 2.45 12.4
3/23/2021 6:15:00 AM 4.38 39.884 0.038 6.62 2.37 12.41
3/23/2021 6:30:00 AM 4.34 39.812 0.038 6.62 2.41 12.43
3/23/2021 6:45:00 AM 4.3 39.74 0.038 6.62 2.42 12.44
3/23/2021 7:00:00 AM 4.26 39.668 0.038 6.63 2.53 12.45
3/23/2021 7:15:00 AM 4.23 39.614 0.038 6.63 2.45 12.47
3/23/2021 7:30:00 AM 4.2 39.56 0.038 6.63 2.41 12.5
3/23/2021 7:45:00 AM 4.18 39.524 0.038 6.64 2.38 12.53
3/23/2021 8:00:00 AM 4.16 39.488 0.038 6.65 2.39 12.57
3/23/2021 8:15:00 AM 4.15 39.47 0.038 6.65 2.42 12.6
3/23/2021 8:30:00 AM 4.14 39.452 0.038 6.67 2.38 12.64
3/23/2021 8:45:00 AM 4.15 39.47 0.038 6.69 2.39 12.67
3/23/2021 9:00:00 AM 4.17 39.506 0.038 6.71 2.45 12.69
3/23/2021 9:15:00 AM 4.21 39.578 0.038 6.73 2.36 12.71
3/23/2021 9:30:00 AM 4.26 39.668 0.038 6.73 2.35 12.73
3/23/2021 9:45:00 AM 4.32 39.776 0.038 6.75 2.38 12.73
3/23/2021 10:00:00 AM 4.4 39.92 0.038 6.75 2.33 12.72
3/23/2021 10:15:00 AM 4.5 40.1 0.038 6.78 2.3 12.71
3/23/2021 10:30:00 AM 4.62 40.316 0.038 6.79 2.36 12.7
3/23/2021 10:45:00 AM 4.74 40.532 0.038 6.8 2.3 12.68
3/23/2021 11:00:00 AM 4.89 40.802 0.038 6.82 2.29 12.66
3/23/2021 11:15:00 AM 5.05 41.09 0.038 6.83 2.32 12.62
3/23/2021 11:30:00 AM 5.23 41.414 0.038 6.84 2.32 12.59
3/23/2021 11:45:00 AM 5.41 41.738 0.038 6.86 2.33 12.55
3/23/2021 12:00:00 PM 5.6 42.08 0.037 6.88 2.25 12.5
3/23/2021 12:15:00 PM 5.8 42.44 0.037 6.87 2.3 12.45
3/23/2021 12:30:00 PM 5.99 42.782 0.037 6.89 2.42 12.4
3/23/2021 12:45:00 PM 6.19 43.142 0.037 6.89 2.26 12.35
3/23/2021 1:00:00 PM 6.36 43.448 0.037 6.9 2.28 12.29
3/23/2021 1:15:00 PM 6.57 43.826 0.037 6.9 2.24 12.23
3/23/2021 1:30:00 PM 6.74 44.132 0.037 6.91 2.3 12.18
3/23/2021 1:45:00 PM 6.96 44.528 0.037 6.91 2.24 12.12
3/23/2021 2:00:00 PM 7.11 44.798 0.037 6.92 2.32 12.06
3/23/2021 2:15:00 PM 7.28 45.104 0.037 6.92 2.33 12.01
3/23/2021 2:30:00 PM 7.41 45.338 0.037 6.93 2.31 11.96
3/23/2021 2:45:00 PM 7.55 45.59 0.037 6.93 2.29 11.9
3/23/2021 3:00:00 PM 7.67 45.806 0.037 6.93 2.35 11.87
3/23/2021 3:15:00 PM 7.78 46.004 0.037 6.95 2.38 11.84
3/23/2021 3:30:00 PM 7.86 46.148 0.037 6.95 2.34 11.79
3/23/2021 3:45:00 PM 7.92 46.256 0.037 6.93 2.36 11.75
3/23/2021 4:00:00 PM 7.98 46.364 0.037 6.93 2.39 11.74
3/23/2021 4:15:00 PM 8.03 46.454 0.037 6.92 2.4 11.7
3/23/2021 4:30:00 PM 8.06 46.508 0.037 6.93 2.38 11.69
3/23/2021 4:45:00 PM 8.1 46.58 0.037 6.92 2.57 11.67
3/23/2021 5:00:00 PM 8.12 46.616 0.037 6.92 2.42 11.65
3/23/2021 5:15:00 PM 8.15 46.67 0.037 6.91 2.44 11.64
3/23/2021 5:30:00 PM 8.14 46.652 0.037 6.91 2.47 11.62
3/23/2021 5:45:00 PM 8.12 46.616 0.037 6.89 2.47 11.59
3/23/2021 6:00:00 PM 8.1 46.58 0.037 6.87 2.6 11.59
3/23/2021 6:15:00 PM 8.08 46.544 0.037 6.89 2.5 11.58
3/23/2021 6:30:00 PM 8.04 46.472 0.037 6.86 2.49 11.57
3/23/2021 6:45:00 PM 8 46.4 0.037 6.85 2.49 11.55
3/23/2021 7:00:00 PM 7.95 46.31 0.037 6.84 2.64 11.54
3/23/2021 7:15:00 PM 7.9 46.22 0.037 6.81 2.54 11.52
3/23/2021 7:30:00 PM 7.83 46.094 0.037 6.79 2.61 11.49
3/23/2021 7:45:00 PM 7.75 45.95 0.037 6.76 2.6 11.46
3/23/2021 8:00:00 PM 7.68 45.824 0.037 6.76 2.73 11.45
3/23/2021 8:15:00 PM 7.61 45.698 0.037 6.75 2.74 11.46
3/23/2021 8:30:00 PM 7.53 45.554 0.037 6.73 2.78 11.45
3/23/2021 8:45:00 PM 7.45 45.41 0.037 6.71 2.71 11.47
3/23/2021 9:00:00 PM 7.37 45.266 0.037 6.72 2.81 11.49
3/23/2021 9:15:00 PM 7.29 45.122 0.037 6.71 2.81 11.5
3/23/2021 9:30:00 PM 7.21 44.978 0.038 6.7 2.8 11.52
3/23/2021 9:45:00 PM 7.12 44.816 0.038 6.69 2.89 11.53
3/23/2021 10:00:00 PM 7.04 44.672 0.038 6.69 2.75 11.55
3/23/2021 10:15:00 PM 6.97 44.546 0.038 6.69 2.84 11.57
3/23/2021 10:30:00 PM 6.9 44.42 0.038 6.67 2.8 11.59
3/23/2021 10:45:00 PM 6.82 44.276 0.038 6.68 2.78 11.61
3/23/2021 11:00:00 PM 6.74 44.132 0.038 6.65 2.83 11.63
3/23/2021 11:15:00 PM 6.66 43.988 0.038 6.65 2.79 11.65
3/23/2021 11:30:00 PM 6.58 43.844 0.038 6.65 2.8 11.68
3/23/2021 11:45:00 PM 6.5 43.7 0.038 6.65 2.77 11.7
3/24/2021 12:00:00 AM 6.43 43.574 0.038 6.64 2.73 11.72
3/24/2021 12:15:00 AM 6.36 43.448 0.038 6.64 2.79 11.74
3/24/2021 12:30:00 AM 6.29 43.322 0.038 6.63 2.76 11.76
3/24/2021 12:45:00 AM 6.23 43.214 0.038 6.63 2.82 11.77
3/24/2021 1:00:00 AM 6.18 43.124 0.038 6.65 2.76 11.8
3/24/2021 1:15:00 AM 6.14 43.052 0.038 6.65 2.75 11.81
3/24/2021 1:30:00 AM 6.09 42.962 0.038 6.63 2.85 11.82
3/24/2021 1:45:00 AM 6.05 42.89 0.038 6.65 2.79 11.84
3/24/2021 2:00:00 AM 6.02 42.836 0.038 6.66 2.85 11.85
3/24/2021 2:15:00 AM 5.99 42.782 0.038 6.65 2.83 11.86
3/24/2021 2:30:00 AM 5.96 42.728 0.038 6.65 2.79 11.86
3/24/2021 2:45:00 AM 5.94 42.692 0.038 6.65 2.75 11.87
3/24/2021 3:00:00 AM 5.93 42.674 0.038 6.63 2.7 11.88
3/24/2021 3:15:00 AM 5.92 42.656 0.038 6.65 2.71 11.88
3/24/2021 3:30:00 AM 5.91 42.638 0.038 6.65 2.78 11.88
3/24/2021 3:45:00 AM 5.91 42.638 0.038 6.65 2.86 11.88
3/24/2021 4:00:00 AM 5.9 42.62 0.038 6.65 2.8 11.88
3/24/2021 4:15:00 AM 5.9 42.62 0.038 6.65 2.78 11.89
3/24/2021 4:30:00 AM 5.89 42.602 0.038 6.66 2.75 11.88
3/24/2021 4:45:00 AM 5.9 42.62 0.038 6.63 2.81 11.89
3/24/2021 5:00:00 AM 5.9 42.62 0.038 6.66 2.84 11.88
3/24/2021 5:15:00 AM 5.9 42.62 0.038 6.65 2.77 11.88
3/24/2021 5:30:00 AM 5.91 42.638 0.038 6.67 2.79 11.88
3/24/2021 5:45:00 AM 5.92 42.656 0.038 6.66 2.75 11.88
3/24/2021 6:00:00 AM 5.93 42.674 0.038 6.65 2.72 11.87
3/24/2021 6:15:00 AM 5.94 42.692 0.038 6.67 2.82 11.87
3/24/2021 6:30:00 AM 5.96 42.728 0.038 6.66 2.88 11.86
3/24/2021 6:45:00 AM 5.97 42.746 0.038 6.66 2.85 11.86
3/24/2021 7:00:00 AM 5.98 42.764 0.038 6.67 2.92 11.86
3/24/2021 7:15:00 AM 6 42.8 0.038 6.65 2.84 11.86
3/24/2021 7:30:00 AM 6.01 42.818 0.038 6.66 2.94 11.85
3/24/2021 7:45:00 AM 6.03 42.854 0.037 6.66 2.97 11.86
3/24/2021 8:00:00 AM 6.04 42.872 0.037 6.65 2.93 11.86
3/24/2021 8:15:00 AM 6.06 42.908 0.037 6.67 3.01 11.86
3/24/2021 8:30:00 AM 6.08 42.944 0.037 6.67 3.1 11.86
3/24/2021 8:45:00 AM 6.1 42.98 0.037 6.66 3.04 11.87
3/24/2021 9:00:00 AM 6.12 43.016 0.037 6.65 3.14 11.89
3/24/2021 9:15:00 AM 6.15 43.07 0.037 6.64 3.02 11.9
3/24/2021 9:30:00 AM 6.18 43.124 0.037 6.66 3.12 11.93
3/24/2021 9:45:00 AM 6.21 43.178 0.037 6.68 3.21 11.95
3/24/2021 10:00:00 AM 6.25 43.25 0.037 6.66 3.33 11.97
3/24/2021 10:15:00 AM 6.3 43.34 0.037 6.7 3.44 11.99
3/24/2021 10:30:00 AM 6.36 43.448 0.037 6.71 3.52 12.01
3/24/2021 10:45:00 AM 6.42 43.556 0.037 6.71 3.51 12.01
3/24/2021 11:00:00 AM 6.47 43.646 0.037 6.73 3.69 12.01
3/24/2021 11:15:00 AM 6.52 43.736 0.037 6.72 3.9 12
3/24/2021 11:30:00 AM 6.57 43.826 0.037 6.72 3.98 11.98
3/24/2021 11:45:00 AM 6.61 43.898 0.037 6.75 3.97 11.98
3/24/2021 12:00:00 PM 6.66 43.988 0.037 6.74 4.21 11.96
3/24/2021 12:15:00 PM 6.7 44.06 0.037 6.78 4.22 11.96
3/24/2021 12:30:00 PM 6.75 44.15 0.037 6.79 4.08 11.95
3/24/2021 12:45:00 PM 6.81 44.258 0.037 6.79 4.23 11.95
3/24/2021 1:00:00 PM 6.87 44.366 0.037 6.8 4.28 11.94
3/24/2021 1:15:00 PM 6.93 44.474 0.037 6.81 4.15 11.92
3/24/2021 1:30:00 PM 7.01 44.618 0.037 6.82 4.18 11.91
3/24/2021 1:45:00 PM 7.07 44.726 0.037 6.83 4.13 11.89
3/24/2021 2:00:00 PM 7.14 44.852 0.037 6.81 4.4 11.87
3/24/2021 2:15:00 PM 7.19 44.942 0.037 6.76 4.19 11.85
3/24/2021 2:30:00 PM 7.26 45.068 0.037 6.77 4.15 11.83
3/24/2021 2:45:00 PM 7.3 45.14 0.037 6.78 4.12 11.81
3/24/2021 3:00:00 PM 7.36 45.248 0.037 6.79 3.96 11.79
3/24/2021 3:15:00 PM 7.41 45.338 0.037 6.79 3.88 11.76
3/24/2021 3:30:00 PM 7.45 45.41 0.036 6.77 3.91 11.73
3/24/2021 3:45:00 PM 7.48 45.464 0.036 6.78 3.83 11.72
3/24/2021 4:00:00 PM 7.52 45.536 0.036 6.77 3.63 11.71
3/24/2021 4:15:00 PM 7.55 45.59 0.036 6.78 3.89 11.68
3/24/2021 4:30:00 PM 7.58 45.644 0.036 6.78 3.76 11.68
3/24/2021 4:45:00 PM 7.61 45.698 0.036 6.78 3.67 11.67
3/24/2021 5:00:00 PM 7.62 45.716 0.036 6.79 3.7 11.65
3/24/2021 5:15:00 PM 7.63 45.734 0.037 6.76 3.61 11.63
3/24/2021 5:30:00 PM 7.63 45.734 0.037 6.74 3.62 11.6
3/24/2021 5:45:00 PM 7.63 45.734 0.037 6.82 3.53 11.58
3/24/2021 6:00:00 PM 7.62 45.716 0.037 6.81 3.67 11.56
3/24/2021 6:15:00 PM 7.62 45.716 0.037 6.78 3.58 11.54
3/24/2021 6:30:00 PM 7.61 45.698 0.037 6.76 3.59 11.53
3/24/2021 6:45:00 PM 7.6 45.68 0.037 6.75 3.53 11.5
3/24/2021 7:00:00 PM 7.58 45.644 0.037 6.73 3.64 11.49
3/24/2021 7:15:00 PM 7.58 45.644 0.037 6.72 3.77 11.48
3/24/2021 7:30:00 PM 7.56 45.608 0.037 6.7 3.75 11.45
3/24/2021 7:45:00 PM 7.53 45.554 0.037 6.69 3.82 11.44
3/24/2021 8:00:00 PM 7.51 45.518 0.037 6.68 3.84 11.43
3/24/2021 8:15:00 PM 7.48 45.464 0.037 6.68 3.99 11.41
3/24/2021 8:30:00 PM 7.45 45.41 0.037 6.66 3.94 11.42
3/24/2021 8:45:00 PM 7.42 45.356 0.037 6.65 3.87 11.42
3/24/2021 9:00:00 PM 7.39 45.302 0.037 6.63 3.88 11.43
3/24/2021 9:15:00 PM 7.36 45.248 0.037 6.63 4.02 11.42
3/24/2021 9:30:00 PM 7.34 45.212 0.037 6.64 4.11 11.43
3/24/2021 9:45:00 PM 7.3 45.14 0.037 6.65 4.09 11.44
3/24/2021 10:00:00 PM 7.28 45.104 0.037 6.62 4.08 11.44
3/24/2021 10:15:00 PM 7.25 45.05 0.037 6.61 4.22 11.45
3/24/2021 10:30:00 PM 7.22 44.996 0.037 6.6 4.19 11.46
3/24/2021 10:45:00 PM 7.19 44.942 0.037 6.61 4.18 11.47
3/24/2021 11:00:00 PM 7.17 44.906 0.037 6.64 4.2 11.47
3/24/2021 11:15:00 PM 7.14 44.852 0.037 6.6 4.23 11.48
3/24/2021 11:30:00 PM 7.12 44.816 0.037 6.6 4.21 11.49
3/24/2021 11:45:00 PM 7.1 44.78 0.037 6.58 4.31 11.49
3/25/2021 12:00:00 AM 7.09 44.762 0.037 6.55 4.6 11.49
3/25/2021 12:15:00 AM 7.08 44.744 0.037 6.57 4.5 11.5
3/25/2021 12:30:00 AM 7.07 44.726 0.037 6.6 4.38 11.51
3/25/2021 12:45:00 AM 7.06 44.708 0.037 6.6 4.46 11.51
3/25/2021 1:00:00 AM 7.05 44.69 0.037 6.59 4.41 11.51
3/25/2021 1:15:00 AM 7.05 44.69 0.037 6.6 4.52 11.51
3/25/2021 1:30:00 AM 7.05 44.69 0.037 6.6 5.24 11.51
3/25/2021 1:45:00 AM 7.05 44.69 0.037 6.61 4.63 11.51
3/25/2021 2:00:00 AM 7.05 44.69 0.037 6.61 4.65 11.51
3/25/2021 2:15:00 AM 7.05 44.69 0.037 6.59 4.52 11.51
3/25/2021 2:30:00 AM 7.05 44.69 0.037 6.59 4.7 11.51
3/25/2021 2:45:00 AM 7.05 44.69 0.037 6.61 4.55 11.51
3/25/2021 3:00:00 AM 7.05 44.69 0.037 6.59 4.63 11.51
3/25/2021 3:15:00 AM 7.05 44.69 0.037 6.59 4.59 11.51
3/25/2021 3:30:00 AM 7.05 44.69 0.037 6.6 4.66 11.51
3/25/2021 3:45:00 AM 7.05 44.69 0.037 6.59 4.64 11.51
3/25/2021 4:00:00 AM 7.04 44.672 0.037 6.58 4.82 11.51
3/25/2021 4:15:00 AM 7.04 44.672 0.037 6.58 4.75 11.51
3/25/2021 4:30:00 AM 7.03 44.654 0.037 6.59 4.63 11.51
3/25/2021 4:45:00 AM 7.03 44.654 0.037 6.59 4.74 11.51
3/25/2021 5:00:00 AM 7.03 44.654 0.037 6.59 4.69 11.51
3/25/2021 5:15:00 AM 7.03 44.654 0.037 6.59 4.69 11.51
3/25/2021 5:30:00 AM 7.03 44.654 0.037 6.56 4.74 11.51
3/25/2021 5:45:00 AM 7.02 44.636 0.037 6.58 4.76 11.51
3/25/2021 6:00:00 AM 7.03 44.654 0.037 6.57 4.83 11.51
3/25/2021 6:15:00 AM 7.03 44.654 0.037 6.6 4.93 11.52
3/25/2021 6:30:00 AM 7.03 44.654 0.037 6.58 4.81 11.52
3/25/2021 6:45:00 AM 7.03 44.654 0.037 6.59 4.87 11.52
3/25/2021 7:00:00 AM 7.02 44.636 0.037 6.6 5.03 11.52
3/25/2021 7:15:00 AM 7.03 44.654 0.037 6.6 4.88 11.52
3/25/2021 7:30:00 AM 7.03 44.654 0.037 6.56 4.82 11.53
3/25/2021 7:45:00 AM 7.03 44.654 0.037 6.56 4.79 11.55
3/25/2021 8:00:00 AM 7.03 44.654 0.037 6.58 4.74 11.56
3/25/2021 8:15:00 AM 7.04 44.672 0.037 6.58 4.93 11.58
3/25/2021 8:30:00 AM 7.05 44.69 0.037 6.61 4.8 11.61
3/25/2021 8:45:00 AM 7.06 44.708 0.037 6.59 4.64 11.63
3/25/2021 9:00:00 AM 7.09 44.762 0.037 6.61 4.66 11.66
3/25/2021 9:15:00 AM 7.12 44.816 0.037 6.65 4.73 11.69
3/25/2021 9:30:00 AM 7.15 44.87 0.036 6.65 4.61 11.71
3/25/2021 9:45:00 AM 7.21 44.978 0.036 6.67 4.48 11.74
3/25/2021 10:00:00 AM 7.27 45.086 0.036 6.71 4.39 11.75
3/25/2021 10:15:00 AM 7.33 45.194 0.036 6.71 4.35 11.76
3/25/2021 10:30:00 AM 7.39 45.302 0.036 6.73 4.41 11.76
3/25/2021 10:45:00 AM 7.47 45.446 0.036 6.75 4.51 11.77
3/25/2021 11:00:00 AM 7.56 45.608 0.036 6.77 4.43 11.76
3/25/2021 11:15:00 AM 7.68 45.824 0.036 6.78 4.37 11.75
3/25/2021 11:30:00 AM 7.79 46.022 0.036 6.79 4.37 11.73
3/25/2021 11:45:00 AM 7.93 46.274 0.036 6.79 4.28 11.69
3/25/2021 12:00:00 PM 8.08 46.544 0.036 6.8 4.46 11.66
3/25/2021 12:15:00 PM 8.25 46.85 0.036 6.83 4.4 11.63
3/25/2021 12:30:00 PM 8.42 47.156 0.036 6.81 4.33 11.59
3/25/2021 12:45:00 PM 8.59 47.462 0.036 6.82 4.33 11.55
3/25/2021 1:00:00 PM 8.76 47.768 0.036 6.83 4.27 11.51
3/25/2021 1:15:00 PM 8.93 48.074 0.036 6.83 4.27 11.48
3/25/2021 1:30:00 PM 9.08 48.344 0.036 6.84 4.25 11.43
3/25/2021 1:45:00 PM 9.24 48.632 0.036 6.85 4.47 11.39
3/25/2021 2:00:00 PM 9.38 48.884 0.036 6.87 4.4 11.35
3/25/2021 2:15:00 PM 9.52 49.136 0.036 6.85 4.19 11.31
3/25/2021 2:30:00 PM 9.65 49.37 0.036 6.82 4.29 11.27
3/25/2021 2:45:00 PM 9.77 49.586 0.036 6.83 4.35 11.23
3/25/2021 3:00:00 PM 9.89 49.802 0.036 6.85 4.33 11.19
3/25/2021 3:15:00 PM 9.98 49.964 0.036 6.81 4.43 11.16
3/25/2021 3:30:00 PM 10.05 50.09 0.036 6.86 4.31 11.13
3/25/2021 3:45:00 PM 10.09 50.162 0.036 6.72 4.4 11.11
3/25/2021 4:00:00 PM 10.13 50.234 0.036 6.83 4.43 11.08
3/25/2021 4:15:00 PM 10.15 50.27 0.036 6.8 4.54 11.06
3/25/2021 4:30:00 PM 10.16 50.288 0.036 6.82 4.3 11.04
3/25/2021 4:45:00 PM 10.17 50.306 0.036 6.79 4.43 11.02
3/25/2021 5:00:00 PM 10.16 50.288 0.036 6.82 4.38 11
3/25/2021 5:15:00 PM 10.16 50.288 0.036 6.79 4.38 10.99
3/25/2021 5:30:00 PM 10.14 50.252 0.036 6.79 4.33 10.97
3/25/2021 5:45:00 PM 10.12 50.216 0.036 6.77 4.43 10.94
3/25/2021 6:00:00 PM 10.09 50.162 0.036 6.75 4.44 10.93
3/25/2021 6:15:00 PM 10.05 50.09 0.036 6.74 4.41 10.9
3/25/2021 6:30:00 PM 10 50 0.036 6.72 4.54 10.88
3/25/2021 6:45:00 PM 9.94 49.892 0.036 6.7 4.63 10.87
3/25/2021 7:00:00 PM 9.87 49.766 0.036 6.69 4.47 10.85
3/25/2021 7:15:00 PM 9.8 49.64 0.036 6.67 4.49 10.84
3/25/2021 7:30:00 PM 9.72 49.496 0.036 6.65 4.48 10.83
3/25/2021 7:45:00 PM 9.64 49.352 0.036 6.57 4.43 10.82
3/25/2021 8:00:00 PM 9.57 49.226 0.036 6.54 4.77 10.82
3/25/2021 8:15:00 PM 9.49 49.082 0.036 6.52 4.74 10.82
3/25/2021 8:30:00 PM 9.42 48.956 0.036 6.56 4.87 10.83
3/25/2021 8:45:00 PM 9.35 48.83 0.036 6.57 4.78 10.84
3/25/2021 9:00:00 PM 9.29 48.722 0.036 6.57 4.75 10.85
3/25/2021 9:15:00 PM 9.23 48.614 0.036 6.57 4.68 10.87
3/25/2021 9:30:00 PM 9.17 48.506 0.036 6.56 4.75 10.88
3/25/2021 9:45:00 PM 9.11 48.398 0.036 6.57 4.71 10.89
3/25/2021 10:00:00 PM 9.06 48.308 0.036 6.57 4.71 10.9
3/25/2021 10:15:00 PM 9.01 48.218 0.036 6.57 4.71 10.91
3/25/2021 10:30:00 PM 8.96 48.128 0.036 6.53 4.72 10.93
3/25/2021 10:45:00 PM 8.91 48.038 0.036 6.58 4.75 10.94
3/25/2021 11:00:00 PM 8.86 47.948 0.036 6.57 4.62 10.94
3/25/2021 11:15:00 PM 8.82 47.876 0.036 6.55 4.91 10.96
3/25/2021 11:30:00 PM 8.79 47.822 0.036 6.55 4.61 10.96
3/25/2021 11:45:00 PM 8.76 47.768 0.036 6.56 4.6 10.97
3/26/2021 12:00:00 AM 8.75 47.75 0.036 6.57 4.58 10.98
3/26/2021 12:15:00 AM 8.74 47.732 0.036 6.56 4.73 10.98
3/26/2021 12:30:00 AM 8.72 47.696 0.036 6.38 4.4 10.98
3/26/2021 12:45:00 AM 8.7 47.66 0.036 6.35 4.66 10.98
3/26/2021 1:00:00 AM 8.68 47.624 0.036 6.43 4.49 10.99
3/26/2021 1:15:00 AM 8.66 47.588 0.036 6.5 4.57 10.99
3/26/2021 1:30:00 AM 8.64 47.552 0.036 6.56 4.39 10.99
3/26/2021 1:45:00 AM 8.61 47.498 0.036 6.55 4.66 11
3/26/2021 2:00:00 AM 8.59 47.462 0.036 6.55 4.55 11
3/26/2021 2:15:00 AM 8.58 47.444 0.036 6.55 4.5 11
3/26/2021 2:30:00 AM 8.57 47.426 0.036 6.55 4.53 11
3/26/2021 2:45:00 AM 8.56 47.408 0.036 6.57 4.59 11
3/26/2021 3:00:00 AM 8.56 47.408 0.036 6.56 4.5 11
3/26/2021 3:15:00 AM 8.55 47.39 0.036 6.57 4.5 11
3/26/2021 3:30:00 AM 8.57 47.426 0.036 6.59 4.56 10.99
3/26/2021 3:45:00 AM 8.58 47.444 0.036 6.57 4.65 10.99
3/26/2021 4:00:00 AM 8.58 47.444 0.036 6.57 4.52 10.98
3/26/2021 4:15:00 AM 8.56 47.408 0.036 6.58 4.58 10.98
3/26/2021 4:30:00 AM 8.55 47.39 0.036 6.59 4.58 10.97
3/26/2021 4:45:00 AM 8.53 47.354 0.036 6.59 4.56 10.97
3/26/2021 5:00:00 AM 8.52 47.336 0.036 6.57 4.51 10.97
3/26/2021 5:15:00 AM 8.51 47.318 0.036 6.57 4.55 10.97
3/26/2021 5:30:00 AM 8.49 47.282 0.036 6.58 4.55 10.97
3/26/2021 5:45:00 AM 8.48 47.264 0.036 6.58 4.5 10.97
3/26/2021 6:00:00 AM 8.47 47.246 0.036 6.57 4.5 10.96
3/26/2021 6:15:00 AM 8.47 47.246 0.036 6.57 4.5 10.96
3/26/2021 6:30:00 AM 8.45 47.21 0.036 6.58 4.5 10.97
3/26/2021 6:45:00 AM 8.44 47.192 0.036 6.6 4.74 10.97
3/26/2021 7:00:00 AM 8.43 47.174 0.036 6.6 4.61 10.97
3/26/2021 7:15:00 AM 8.44 47.192 0.036 6.59 4.64 10.97
3/26/2021 7:30:00 AM 8.42 47.156 0.036 6.61 4.62 10.98
3/26/2021 7:45:00 AM 8.41 47.138 0.036 6.61 4.73 11
3/26/2021 8:00:00 AM 8.41 47.138 0.036 6.61 4.71 11.02
3/26/2021 8:15:00 AM 8.42 47.156 0.036 6.64 4.73 11.06
3/26/2021 8:30:00 AM 8.43 47.174 0.036 6.64 4.66 11.08
3/26/2021 8:45:00 AM 8.46 47.228 0.036 6.65 4.71 11.11
3/26/2021 9:00:00 AM 8.49 47.282 0.036 6.67 4.67 11.12
3/26/2021 9:15:00 AM 8.52 47.336 0.036 6.65 4.62 11.12
3/26/2021 9:30:00 AM 8.57 47.426 0.036 6.68 4.6 11.14
3/26/2021 9:45:00 AM 8.65 47.57 0.036 6.7 4.46 11.16
3/26/2021 10:00:00 AM 8.69 47.642 0.036 6.7 4.57 11.17
3/26/2021 10:15:00 AM 8.74 47.732 0.036 6.7 4.57 11.16
3/26/2021 10:30:00 AM 8.79 47.822 0.036 6.75 4.74 11.17
3/26/2021 10:45:00 AM 8.82 47.876 0.036 6.73 4.64 11.16
3/26/2021 11:00:00 AM 8.85 47.93 0.036 6.72 4.62 11.15
3/26/2021 11:15:00 AM 8.88 47.984 0.036 6.72 4.59 11.15
3/26/2021 11:30:00 AM 8.93 48.074 0.036 6.76 4.47 11.16
3/26/2021 11:45:00 AM 8.99 48.182 0.036 6.73 4.15 11.17
3/26/2021 12:00:00 PM 9 48.2 0.036 6.76 4.28 11.16
3/26/2021 12:15:00 PM 9.01 48.218 0.036 6.74 4.37 11.14
3/26/2021 12:30:00 PM 9.03 48.254 0.036 6.74 4.37 11.14
3/26/2021 12:45:00 PM 9.04 48.272 0.036 6.74 5.02 11.14
3/26/2021 1:00:00 PM 9.08 48.344 0.036 6.72 5.08 11.15
3/26/2021 1:15:00 PM 9.17 48.506 0.036 6.74 4.55 11.16
3/26/2021 1:30:00 PM 9.22 48.596 0.036 6.72 4.45 11.17
3/26/2021 1:45:00 PM 9.27 48.686 0.036 6.79 4.1 11.16
3/26/2021 2:00:00 PM 9.33 48.794 0.035 6.79 4.08 11.16
3/26/2021 2:15:00 PM 9.41 48.938 0.035 6.8 4.02 11.15
3/26/2021 2:30:00 PM 9.42 48.956 0.035 6.8 4.04 11.15
3/26/2021 2:45:00 PM 9.49 49.082 0.035 6.8 4 11.15
3/26/2021 3:00:00 PM 9.51 49.118 0.035 6.81 4.12 11.14
3/26/2021 3:15:00 PM 9.53 49.154 0.035 6.79 4.17 11.14
3/26/2021 3:30:00 PM 9.53 49.154 0.035 6.77 4.13 11.14
3/26/2021 3:45:00 PM 9.5 49.1 0.035 6.78 4.02 11.12
3/26/2021 4:00:00 PM 9.45 49.01 0.035 6.77 4.06 11.11
3/26/2021 4:15:00 PM 9.41 48.938 0.036 6.77 4.09 11.11
3/26/2021 4:30:00 PM 9.38 48.884 0.036 6.76 4.09 11.11
3/26/2021 4:45:00 PM 9.32 48.776 0.036 6.78 4.06 11.11
3/26/2021 5:00:00 PM 9.27 48.686 0.036 6.78 4.04 11.12
3/26/2021 5:15:00 PM 9.22 48.596 0.036 6.78 3.94 11.14
3/26/2021 5:30:00 PM 9.15 48.47 0.036 6.76 3.93 11.14
3/26/2021 5:45:00 PM 9.08 48.344 0.036 6.75 3.93 11.14
3/26/2021 6:00:00 PM 9.01 48.218 0.036 6.74 3.98 11.14
3/26/2021 6:15:00 PM 8.94 48.092 0.036 6.77 3.92 11.15
3/26/2021 6:30:00 PM 8.86 47.948 0.036 6.72 4.2 11.15
3/26/2021 6:45:00 PM 8.77 47.786 0.036 6.69 4.03 11.15
3/26/2021 7:00:00 PM 8.69 47.642 0.036 6.64 4.15 11.15
3/26/2021 7:15:00 PM 8.6 47.48 0.036 6.61 4.29 11.15
3/26/2021 7:30:00 PM 8.52 47.336 0.036 6.61 4.04 11.15
3/26/2021 7:45:00 PM 8.44 47.192 0.036 6.59 4.1 11.16
3/26/2021 8:00:00 PM 8.37 47.066 0.036 6.6 4.11 11.16
3/26/2021 8:15:00 PM 8.31 46.958 0.036 6.58 3.91 11.16
3/26/2021 8:30:00 PM 8.26 46.868 0.036 6.57 4.22 11.17
3/26/2021 8:45:00 PM 8.21 46.778 0.036 6.58 4.07 11.18
3/26/2021 9:00:00 PM 8.16 46.688 0.036 6.56 4.07 11.19
3/26/2021 9:15:00 PM 8.11 46.598 0.036 6.57 4.03 11.21
3/26/2021 9:30:00 PM 8.07 46.526 0.036 6.55 3.95 11.22
3/26/2021 9:45:00 PM 8.02 46.436 0.036 6.64 4.01 11.23
3/26/2021 10:00:00 PM 7.98 46.364 0.036 6.59 3.84 11.25
3/26/2021 10:15:00 PM 7.93 46.274 0.036 6.59 3.81 11.26
3/26/2021 10:30:00 PM 7.89 46.202 0.036 6.59 3.92 11.26
3/26/2021 10:45:00 PM 7.85 46.13 0.036 6.59 3.82 11.28
3/26/2021 11:00:00 PM 7.81 46.058 0.036 6.6 3.85 11.29
3/26/2021 11:15:00 PM 7.77 45.986 0.036 6.59 3.91 11.31
3/26/2021 11:30:00 PM 7.72 45.896 0.036 6.57 3.66 11.32
3/26/2021 11:45:00 PM 7.67 45.806 0.037 6.58 3.7 11.33
3/27/2021 12:00:00 AM 7.64 45.752 0.037 6.57 3.68 11.33
3/27/2021 12:15:00 AM 7.61 45.698 0.037 6.57 3.76 11.36
3/27/2021 12:30:00 AM 7.59 45.662 0.037 6.58 3.65 11.36
3/27/2021 12:45:00 AM 7.57 45.626 0.037 6.59 3.67 11.36
3/27/2021 1:00:00 AM 7.55 45.59 0.037 6.58 3.81 11.38
3/27/2021 1:15:00 AM 7.53 45.554 0.037 6.6 3.74 11.37
3/27/2021 1:30:00 AM 7.51 45.518 0.037 6.6 3.65 11.37
3/27/2021 1:45:00 AM 7.5 45.5 0.037 6.6 3.62 11.4
3/27/2021 2:00:00 AM 7.49 45.482 0.037 6.61 3.63 11.39
3/27/2021 2:15:00 AM 7.47 45.446 0.037 6.62 3.71 11.39
3/27/2021 2:30:00 AM 7.46 45.428 0.037 6.62 3.5 11.39
3/27/2021 2:45:00 AM 7.45 45.41 0.037 6.62 3.63 11.4
3/27/2021 3:00:00 AM 7.44 45.392 0.037 6.62 3.54 11.4
3/27/2021 3:15:00 AM 7.43 45.374 0.037 6.61 3.59 11.4
3/27/2021 3:30:00 AM 7.42 45.356 0.037 6.62 3.62 11.4
3/27/2021 3:45:00 AM 7.41 45.338 0.037 6.6 3.57 11.41
3/27/2021 4:00:00 AM 7.41 45.338 0.037 6.63 3.57 11.41
3/27/2021 4:15:00 AM 7.4 45.32 0.037 6.62 3.57 11.41
3/27/2021 4:30:00 AM 7.39 45.302 0.037 6.61 3.52 11.42
3/27/2021 4:45:00 AM 7.39 45.302 0.037 6.57 3.41 11.42
3/27/2021 5:00:00 AM 7.38 45.284 0.037 6.63 3.5 11.42
3/27/2021 5:15:00 AM 7.38 45.284 0.037 6.64 3.43 11.42
3/27/2021 5:30:00 AM 7.37 45.266 0.037 6.62 3.92 11.42
3/27/2021 5:45:00 AM 7.37 45.266 0.037 6.63 3.75 11.42
3/27/2021 6:00:00 AM 7.36 45.248 0.037 6.62 3.53 11.43
3/27/2021 6:15:00 AM 7.35 45.23 0.037 6.62 3.47 11.43
3/27/2021 6:30:00 AM 7.34 45.212 0.037 6.61 3.44 11.43
3/27/2021 6:45:00 AM 7.34 45.212 0.037 6.62 3.37 11.44
3/27/2021 7:00:00 AM 7.33 45.194 0.037 6.62 3.49 11.44
3/27/2021 7:15:00 AM 7.32 45.176 0.037 6.65 3.42 11.45
3/27/2021 7:30:00 AM 7.32 45.176 0.037 6.65 3.5 11.47
3/27/2021 7:45:00 AM 7.31 45.158 0.037 6.65 3.35 11.49
3/27/2021 8:00:00 AM 7.32 45.176 0.037 6.66 3.34 11.52
3/27/2021 8:15:00 AM 7.34 45.212 0.037 6.67 3.44 11.56
3/27/2021 8:30:00 AM 7.36 45.248 0.037 6.69 3.27 11.6
3/27/2021 8:45:00 AM 7.38 45.284 0.037 6.7 3.36 11.63
3/27/2021 9:00:00 AM 7.41 45.338 0.037 6.74 3.12 11.67
3/27/2021 9:15:00 AM 7.44 45.392 0.037 6.71 3.23 11.69
3/27/2021 9:30:00 AM 7.48 45.464 0.037 6.75 3.2 11.71
3/27/2021 9:45:00 AM 7.53 45.554 0.036 6.75 3.13 11.73
3/27/2021 10:00:00 AM 7.58 45.644 0.036 6.79 3.21 11.74
3/27/2021 10:15:00 AM 7.62 45.716 0.036 6.8 3.22 11.74
3/27/2021 10:30:00 AM 7.68 45.824 0.036 6.8 3.12 11.73
3/27/2021 10:45:00 AM 7.78 46.004 0.036 6.83 3.12 11.73
3/27/2021 11:00:00 AM 7.85 46.13 0.036 6.84 3.15 11.72
3/27/2021 11:15:00 AM 7.92 46.256 0.036 6.86 3.03 11.71
3/27/2021 11:30:00 AM 8 46.4 0.036 6.87 3.01 11.71
3/27/2021 11:45:00 AM 8.1 46.58 0.036 6.89 2.98 11.69
3/27/2021 12:00:00 PM 8.25 46.85 0.036 6.91 3.03 11.66
3/27/2021 12:15:00 PM 8.41 47.138 0.036 6.91 11.46 11.62
3/27/2021 12:30:00 PM 8.56 47.408 0.036 6.9 3.07 11.59
3/27/2021 12:45:00 PM 8.7 47.66 0.036 6.92 3.13 11.55
3/27/2021 1:00:00 PM 8.88 47.984 0.036 6.92 3.32 11.51
3/27/2021 1:15:00 PM 9.05 48.29 0.036 6.92 3.31 11.47
3/27/2021 1:30:00 PM 9.21 48.578 0.036 6.92 3.05 11.44
3/27/2021 1:45:00 PM 9.37 48.866 0.036 6.96 3.06 11.4
3/27/2021 2:00:00 PM 9.53 49.154 0.036 6.91 3.18 11.36
3/27/2021 2:15:00 PM 9.64 49.352 0.036 6.92 3.06 11.32
3/27/2021 2:30:00 PM 9.76 49.568 0.036 6.94 3.26 11.29
3/27/2021 2:45:00 PM 9.87 49.766 0.036 6.92 3.03 11.26
3/27/2021 3:00:00 PM 9.95 49.91 0.036 6.92 3.1 11.24
3/27/2021 3:15:00 PM 10.02 50.036 0.036 6.93 3.12 11.21
3/27/2021 3:30:00 PM 10.07 50.126 0.036 6.91 3.12 11.19
3/27/2021 3:45:00 PM 10.14 50.252 0.036 6.9 3.05 11.16
3/27/2021 4:00:00 PM 10.18 50.324 0.036 6.93 3.1 11.14
3/27/2021 4:15:00 PM 10.22 50.396 0.036 6.93 3.13 11.12
3/27/2021 4:30:00 PM 10.24 50.432 0.036 6.92 3.07 11.11
3/27/2021 4:45:00 PM 10.27 50.486 0.036 6.89 3.24 11.09
3/27/2021 5:00:00 PM 10.28 50.504 0.036 6.9 3.34 11.07
3/27/2021 5:15:00 PM 10.28 50.504 0.036 6.9 3.17 11.04
3/27/2021 5:30:00 PM 10.29 50.522 0.036 6.89 3.19 11.03
3/27/2021 5:45:00 PM 10.29 50.522 0.036 6.92 3.16 11.02
3/27/2021 6:00:00 PM 10.27 50.486 0.036 6.89 3.2 10.99
3/27/2021 6:15:00 PM 10.24 50.432 0.036 6.89 3.04 10.97
3/27/2021 6:30:00 PM 10.2 50.36 0.036 6.87 3.03 10.95
3/27/2021 6:45:00 PM 10.14 50.252 0.036 6.86 3.06 10.93
3/27/2021 7:00:00 PM 10.07 50.126 0.036 6.81 3.07 10.9
3/27/2021 7:15:00 PM 9.98 49.964 0.036 6.79 3.14 10.87
3/27/2021 7:30:00 PM 9.89 49.802 0.036 6.77 3.04 10.85
3/27/2021 7:45:00 PM 9.79 49.622 0.037 6.73 3.2 10.84
3/27/2021 8:00:00 PM 9.69 49.442 0.037 6.72 3.32 10.82
3/27/2021 8:15:00 PM 9.59 49.262 0.037 6.71 3.29 10.82
3/27/2021 8:30:00 PM 9.49 49.082 0.037 6.69 3.24 10.83
3/27/2021 8:45:00 PM 9.39 48.902 0.037 6.67 3.22 10.83
3/27/2021 9:00:00 PM 9.3 48.74 0.037 6.66 3.26 10.85
3/27/2021 9:15:00 PM 9.2 48.56 0.037 6.65 3.21 10.86
3/27/2021 9:30:00 PM 9.11 48.398 0.037 6.63 3.24 10.88
3/27/2021 9:45:00 PM 9.02 48.236 0.037 6.64 3.18 10.9
3/27/2021 10:00:00 PM 8.93 48.074 0.037 6.63 3.28 10.92
3/27/2021 10:15:00 PM 8.84 47.912 0.037 6.63 3.15 10.94
3/27/2021 10:30:00 PM 8.75 47.75 0.037 6.61 3.39 10.96
3/27/2021 10:45:00 PM 8.66 47.588 0.037 6.61 3.17 10.99
3/27/2021 11:00:00 PM 8.57 47.426 0.037 6.61 3.27 11.01
3/27/2021 11:15:00 PM 8.49 47.282 0.037 6.6 3.23 11.03
3/27/2021 11:30:00 PM 8.41 47.138 0.037 6.61 3.17 11.05
3/27/2021 11:45:00 PM 8.33 46.994 0.037 6.61 3.17 11.07
3/28/2021 12:00:00 AM 8.26 46.868 0.037 6.61 3.17 11.08
3/28/2021 12:15:00 AM 8.18 46.724 0.037 6.62 3.21 11.1
3/28/2021 12:30:00 AM 8.11 46.598 0.037 6.61 3.2 11.12
3/28/2021 12:45:00 AM 8.04 46.472 0.037 6.62 3.13 11.14
3/28/2021 1:00:00 AM 7.97 46.346 0.037 6.6 3.16 11.16
3/28/2021 1:15:00 AM 7.9 46.22 0.037 6.61 3.18 11.17
3/28/2021 1:30:00 AM 7.83 46.094 0.037 6.6 3.17 11.18
3/28/2021 1:45:00 AM 7.76 45.968 0.037 6.6 3.12 11.2
3/28/2021 2:00:00 AM 7.71 45.878 0.037 6.59 3.03 11.21
3/28/2021 2:15:00 AM 7.65 45.77 0.037 6.59 3.1 11.24
3/28/2021 2:30:00 AM 7.59 45.662 0.037 6.6 3.04 11.26
3/28/2021 2:45:00 AM 7.54 45.572 0.037 6.59 3.25 11.27
3/28/2021 3:00:00 AM 7.48 45.464 0.037 6.61 3.15 11.28
3/28/2021 3:15:00 AM 7.43 45.374 0.038 6.61 3.18 11.28
3/28/2021 3:30:00 AM 7.38 45.284 0.038 6.6 3.11 11.3
3/28/2021 3:45:00 AM 7.33 45.194 0.038 6.6 3.13 11.31
3/28/2021 4:00:00 AM 7.29 45.122 0.038 6.6 3.05 11.32
3/28/2021 4:15:00 AM 7.25 45.05 0.038 6.63 3.02 11.33
3/28/2021 4:30:00 AM 7.21 44.978 0.038 6.61 3.11 11.34
3/28/2021 4:45:00 AM 7.18 44.924 0.038 6.6 2.99 11.34
3/28/2021 5:00:00 AM 7.15 44.87 0.038 6.56 3.16 11.35
3/28/2021 5:15:00 AM 7.13 44.834 0.038 6.53 3.07 11.35
3/28/2021 5:30:00 AM 7.11 44.798 0.038 6.52 3.07 11.36
3/28/2021 5:45:00 AM 7.09 44.762 0.038 6.52 3.07 11.36
3/28/2021 6:00:00 AM 7.07 44.726 0.038 6.57 3.03 11.37
3/28/2021 6:15:00 AM 7.06 44.708 0.038 6.63 3.08 11.37
3/28/2021 6:30:00 AM 7.05 44.69 0.038 6.64 3.08 11.38
3/28/2021 6:45:00 AM 7.04 44.672 0.038 6.64 3.11 11.37
3/28/2021 7:00:00 AM 7.05 44.69 0.038 6.62 3.05 11.37
3/28/2021 7:15:00 AM 7.05 44.69 0.038 6.62 3.08 11.37
3/28/2021 7:30:00 AM 7.06 44.708 0.038 6.65 3.08 11.38
3/28/2021 7:45:00 AM 7.08 44.744 0.038 6.66 3.04 11.38
3/28/2021 8:00:00 AM 7.1 44.78 0.038 6.66 3.04 11.38
3/28/2021 8:15:00 AM 7.13 44.834 0.037 6.67 3.02 11.39
3/28/2021 8:30:00 AM 7.17 44.906 0.037 6.69 2.99 11.41
3/28/2021 8:45:00 AM 7.21 44.978 0.037 6.73 3.01 11.43
3/28/2021 9:00:00 AM 7.24 45.032 0.037 6.74 3.03 11.43
3/28/2021 9:15:00 AM 7.29 45.122 0.037 6.76 2.96 11.43
3/28/2021 9:30:00 AM 7.32 45.176 0.037 6.77 3.03 11.44
3/28/2021 9:45:00 AM 7.36 45.248 0.037 6.77 2.86 11.44
3/28/2021 10:00:00 AM 7.4 45.32 0.037 6.77 2.84 11.44
3/28/2021 10:15:00 AM 7.44 45.392 0.037 6.78 2.89 11.44
3/28/2021 10:30:00 AM 7.49 45.482 0.037 6.81 2.91 11.45
3/28/2021 10:45:00 AM 7.55 45.59 0.037 6.82 2.8 11.46
3/28/2021 11:00:00 AM 7.62 45.716 0.037 6.84 2.79 11.46
3/28/2021 11:15:00 AM 7.69 45.842 0.037 6.85 2.87 11.47
3/28/2021 11:30:00 AM 7.76 45.968 0.037 6.87 2.86 11.47
3/28/2021 11:45:00 AM 7.83 46.094 0.037 6.87 2.84 11.47
3/28/2021 12:00:00 PM 7.9 46.22 0.037 6.88 2.87 11.46
3/28/2021 12:15:00 PM 7.98 46.364 0.037 6.9 2.87 11.46
3/28/2021 12:30:00 PM 8.05 46.49 0.037 6.91 2.89 11.45
3/28/2021 12:45:00 PM 8.12 46.616 0.037 6.9 2.94 11.44
3/28/2021 1:00:00 PM 8.17 46.706 0.037 6.9 2.86 11.42
3/28/2021 1:15:00 PM 8.22 46.796 0.037 6.9 2.85 11.4
3/28/2021 1:30:00 PM 8.26 46.868 0.037 6.91 2.97 11.38
3/28/2021 1:45:00 PM 8.29 46.922 0.037 6.9 2.91 11.35
3/28/2021 2:00:00 PM 8.31 46.958 0.037 6.91 2.98 11.32
3/28/2021 2:15:00 PM 8.34 47.012 0.037 6.9 2.94 11.29
3/28/2021 2:30:00 PM 8.38 47.084 0.037 6.88 2.97 11.26
3/28/2021 2:45:00 PM 8.4 47.12 0.037 6.82 3.2 11.25
3/28/2021 3:00:00 PM 8.4 47.12 0.037 6.85 3.05 11.23
3/28/2021 3:15:00 PM 8.4 47.12 0.037 6.82 3.4 11.22
3/28/2021 3:30:00 PM 8.4 47.12 0.037 6.83 3.35 11.2
3/28/2021 3:45:00 PM 8.41 47.138 0.037 6.83 3.65 11.19
3/28/2021 4:00:00 PM 8.41 47.138 0.037 6.82 3.66 11.19
3/28/2021 4:15:00 PM 8.42 47.156 0.037 6.81 3.91 11.21
3/28/2021 4:30:00 PM 8.41 47.138 0.037 6.82 3.84 11.21
3/28/2021 4:45:00 PM 8.41 47.138 0.037 6.81 3.99 11.22
3/28/2021 5:00:00 PM 8.42 47.156 0.037 6.83 4.11 11.25
3/28/2021 5:15:00 PM 8.43 47.174 0.037 6.81 4.22 11.27
3/28/2021 5:30:00 PM 8.43 47.174 0.037 6.81 4.33 11.26
3/28/2021 5:45:00 PM 8.42 47.156 0.037 6.81 4.49 11.27
3/28/2021 6:00:00 PM 8.4 47.12 0.037 6.8 4.63 11.26
3/28/2021 6:15:00 PM 8.39 47.102 0.037 6.79 4.88 11.24
3/28/2021 6:30:00 PM 8.35 47.03 0.037 6.79 4.84 11.22
3/28/2021 6:45:00 PM 8.32 46.976 0.037 6.79 5.02 11.21
3/28/2021 7:00:00 PM 8.28 46.904 0.037 6.76 5.02 11.19
3/28/2021 7:15:00 PM 8.24 46.832 0.037 6.75 4.88 11.16
3/28/2021 7:30:00 PM 8.18 46.724 0.037 6.75 4.8 11.14
3/28/2021 7:45:00 PM 8.11 46.598 0.037 6.74 4.82 11.12
3/28/2021 8:00:00 PM 8.05 46.49 0.037 6.71 4.68 11.12
3/28/2021 8:15:00 PM 7.99 46.382 0.037 6.7 4.57 11.11
3/28/2021 8:30:00 PM 7.94 46.292 0.037 6.7 4.41 11.12
3/28/2021 8:45:00 PM 7.88 46.184 0.037 6.68 4.33 11.11
3/28/2021 9:00:00 PM 7.82 46.076 0.037 6.67 4.33 11.12
3/28/2021 9:15:00 PM 7.75 45.95 0.037 6.65 4.05 11.14
3/28/2021 9:30:00 PM 7.69 45.842 0.037 6.65 3.93 11.15
3/28/2021 9:45:00 PM 7.63 45.734 0.038 6.64 3.89 11.17
3/28/2021 10:00:00 PM 7.58 45.644 0.038 6.64 3.8 11.19
3/28/2021 10:15:00 PM 7.51 45.518 0.038 6.64 3.83 11.19
3/28/2021 10:30:00 PM 7.46 45.428 0.038 6.64 3.69 11.21
3/28/2021 10:45:00 PM 7.39 45.302 0.038 6.64 3.63 11.24
3/28/2021 11:00:00 PM 7.33 45.194 0.038 6.64 3.62 11.26
3/28/2021 11:15:00 PM 7.26 45.068 0.038 6.6 3.47 11.27
3/28/2021 11:30:00 PM 7.2 44.96 0.038 6.61 3.46 11.29
3/28/2021 11:45:00 PM 7.14 44.852 0.038 6.62 3.44 11.32
3/29/2021 12:00:00 AM 7.08 44.744 0.038 6.61 3.42 11.33
3/29/2021 12:15:00 AM 6.99 44.582 0.038 6.6 3.44 11.35
3/29/2021 12:30:00 AM 6.92 44.456 0.038 6.62 3.29 11.38
3/29/2021 12:45:00 AM 6.87 44.366 0.038 6.61 3.28 11.4
3/29/2021 1:00:00 AM 6.82 44.276 0.038 6.62 3.24 11.42
3/29/2021 1:15:00 AM 6.75 44.15 0.038 6.6 3.29 11.44
3/29/2021 1:30:00 AM 6.67 44.006 0.038 6.61 3.24 11.46
3/29/2021 1:45:00 AM 6.6 43.88 0.038 6.62 3.26 11.49
3/29/2021 2:00:00 AM 6.54 43.772 0.038 6.61 3.17 11.51
3/29/2021 2:15:00 AM 6.47 43.646 0.038 6.32 3.39 11.53
3/29/2021 2:30:00 AM 6.42 43.556 0.038 6.36 3.25 11.55
3/29/2021 2:45:00 AM 6.37 43.466 0.038 6.37 3.12 11.57
3/29/2021 3:00:00 AM 6.32 43.376 0.038 6.39 3.11 11.59
3/29/2021 3:15:00 AM 6.27 43.286 0.038 6.39 3.15 11.6
3/29/2021 3:30:00 AM 6.21 43.178 0.038 6.39 3.08 11.62
3/29/2021 3:45:00 AM 6.15 43.07 0.038 6.39 3.16 11.64
3/29/2021 4:00:00 AM 6.08 42.944 0.038 6.39 3.13 11.67
3/29/2021 4:15:00 AM 6.03 42.854 0.038 6.39 3.01 11.68
3/29/2021 4:30:00 AM 5.99 42.782 0.038 6.4 3.08 11.7
3/29/2021 4:45:00 AM 5.95 42.71 0.038 6.42 3.07 11.72
3/29/2021 5:00:00 AM 5.92 42.656 0.038 6.41 3.16 11.74
3/29/2021 5:15:00 AM 5.88 42.584 0.038 6.41 3.01 11.75
3/29/2021 5:30:00 AM 5.85 42.53 0.038 6.42 3.52 11.76
3/29/2021 5:45:00 AM 5.81 42.458 0.038 6.43 3.11 11.78
3/29/2021 6:00:00 AM 5.78 42.404 0.038 6.42 3.11 11.79
3/29/2021 6:15:00 AM 5.75 42.35 0.038 6.42 3.11 11.81
3/29/2021 6:30:00 AM 5.71 42.278 0.038 6.44 3.07 11.82
3/29/2021 6:45:00 AM 5.68 42.224 0.038 6.44 2.99 11.84
3/29/2021 7:00:00 AM 5.65 42.17 0.038 6.43 2.99 11.85
3/29/2021 7:15:00 AM 5.63 42.134 0.038 6.45 2.94 11.87
3/29/2021 7:30:00 AM 5.6 42.08 0.038 6.46 2.93 11.89
3/29/2021 7:45:00 AM 5.56 42.008 0.038 6.44 2.94 11.91
3/29/2021 8:00:00 AM 5.55 41.99 0.038 6.47 2.91 11.94
3/29/2021 8:15:00 AM 5.51 41.918 0.038 6.47 2.84 11.98
3/29/2021 8:30:00 AM 5.5 41.9 0.038 6.49 2.83 12.02
3/29/2021 8:45:00 AM 5.49 41.882 0.038 6.51 2.8 12.07
3/29/2021 9:00:00 AM 5.48 41.864 0.038 6.54 2.83 12.13
3/29/2021 9:15:00 AM 5.46 41.828 0.038 6.53 2.83 12.17
3/29/2021 9:30:00 AM 5.46 41.828 0.038 6.54 2.77 12.19
3/29/2021 9:45:00 AM 5.48 41.864 0.038 6.55 2.81 12.23
3/29/2021 10:00:00 AM 5.49 41.882 0.038 6.57 2.67 12.27
3/29/2021 10:15:00 AM 5.5 41.9 0.038 6.59 2.69 12.31
3/29/2021 10:30:00 AM 5.53 41.954 0.037 6.62 2.7 12.33
3/29/2021 10:45:00 AM 5.57 42.026 0.037 6.65 2.7 12.35
3/29/2021 11:00:00 AM 5.61 42.098 0.037 6.66 2.64 12.37
3/29/2021 11:15:00 AM 5.65 42.17 0.037 6.68 2.63 12.37
3/29/2021 11:30:00 AM 5.7 42.26 0.037 6.69 2.63 12.38
3/29/2021 11:45:00 AM 5.79 42.422 0.037 6.74 2.63 12.37
3/29/2021 12:00:00 PM 5.91 42.638 0.037 6.74 2.65 12.36
3/29/2021 12:15:00 PM 6 42.8 0.037 6.74 2.67 12.35
3/29/2021 12:30:00 PM 6.11 42.998 0.037 6.76 2.67 12.33
3/29/2021 12:45:00 PM 6.31 43.358 0.037 6.77 2.66 12.29
3/29/2021 1:00:00 PM 6.46 43.628 0.037 6.82 2.6 12.25
3/29/2021 1:15:00 PM 6.55 43.79 0.037 6.81 2.59 12.22
3/29/2021 1:30:00 PM 6.68 44.024 0.037 6.8 2.65 12.19
3/29/2021 1:45:00 PM 6.83 44.294 0.037 6.8 2.66 12.13
3/29/2021 2:00:00 PM 7.04 44.672 0.037 6.79 2.64 12.08
3/29/2021 2:15:00 PM 7.22 44.996 0.037 6.94 2.65 12.04
3/29/2021 2:30:00 PM 7.36 45.248 0.037 6.92 2.66 11.99
3/29/2021 2:45:00 PM 7.5 45.5 0.037 6.93 2.68 11.95
3/29/2021 3:00:00 PM 7.63 45.734 0.037 6.93 2.69 11.91
3/29/2021 3:15:00 PM 7.74 45.932 0.037 6.92 2.66 11.86
3/29/2021 3:30:00 PM 7.88 46.184 0.037 6.91 2.66 11.83
3/29/2021 3:45:00 PM 8.01 46.418 0.037 6.92 2.68 11.79
3/29/2021 4:00:00 PM 8.12 46.616 0.037 6.93 2.56 11.75
3/29/2021 4:15:00 PM 8.22 46.796 0.037 6.92 2.65 11.71
3/29/2021 4:30:00 PM 8.28 46.904 0.037 6.93 2.65 11.68
3/29/2021 4:45:00 PM 8.33 46.994 0.037 6.93 2.63 11.66
3/29/2021 5:00:00 PM 8.35 47.03 0.037 6.94 2.67 11.63
3/29/2021 5:15:00 PM 8.36 47.048 0.037 6.93 2.81 11.62
3/29/2021 5:30:00 PM 8.35 47.03 0.037 6.92 2.63 11.6
3/29/2021 5:45:00 PM 8.32 46.976 0.037 6.92 2.52 11.58
3/29/2021 6:00:00 PM 8.27 46.886 0.037 6.92 2.67 11.57
3/29/2021 6:15:00 PM 8.23 46.814 0.037 6.9 2.7 11.57
3/29/2021 6:30:00 PM 8.17 46.706 0.037 6.89 2.61 11.55
3/29/2021 6:45:00 PM 8.1 46.58 0.037 6.87 2.58 11.54
3/29/2021 7:00:00 PM 8.01 46.418 0.037 6.86 2.62 11.53
3/29/2021 7:15:00 PM 7.91 46.238 0.037 6.8 2.63 11.5
3/29/2021 7:30:00 PM 7.81 46.058 0.037 6.79 2.58 11.49
3/29/2021 7:45:00 PM 7.69 45.842 0.037 6.76 2.56 11.46
3/29/2021 8:00:00 PM 7.58 45.644 0.037 6.6 2.61 11.46
3/29/2021 8:15:00 PM 7.48 45.464 0.037 6.58 2.7 11.47
3/29/2021 8:30:00 PM 7.38 45.284 0.037 6.55 2.74 11.47
3/29/2021 8:45:00 PM 7.28 45.104 0.037 6.52 2.76 11.49
3/29/2021 9:00:00 PM 7.18 44.924 0.037 6.51 2.73 11.5
3/29/2021 9:15:00 PM 7.08 44.744 0.038 6.5 2.84 11.52
3/29/2021 9:30:00 PM 6.99 44.582 0.038 6.49 2.66 11.54
3/29/2021 9:45:00 PM 6.9 44.42 0.038 6.49 2.78 11.56
3/29/2021 10:00:00 PM 6.82 44.276 0.038 6.49 2.82 11.59
3/29/2021 10:15:00 PM 6.73 44.114 0.038 6.49 2.73 11.61
3/29/2021 10:30:00 PM 6.64 43.952 0.038 6.47 2.77 11.63
3/29/2021 10:45:00 PM 6.56 43.808 0.038 6.47 2.8 11.66
3/29/2021 11:00:00 PM 6.48 43.664 0.038 6.47 2.68 11.68
3/29/2021 11:15:00 PM 6.4 43.52 0.038 6.47 2.7 11.7
3/29/2021 11:30:00 PM 6.32 43.376 0.038 6.47 2.66 11.73
3/29/2021 11:45:00 PM 6.24 43.232 0.038 6.47 2.7 11.75
3/30/2021 12:00:00 AM 6.17 43.106 0.038 6.47 2.69 11.77
3/30/2021 12:15:00 AM 6.1 42.98 0.038 6.47 2.7 11.8
3/30/2021 12:30:00 AM 6.03 42.854 0.038 6.47 2.76 11.82
3/30/2021 12:45:00 AM 5.97 42.746 0.038 6.46 2.63 11.84
3/30/2021 1:00:00 AM 5.9 42.62 0.038 6.46 2.7 11.86
3/30/2021 1:15:00 AM 5.84 42.512 0.038 6.46 2.7 11.88
3/30/2021 1:30:00 AM 5.78 42.404 0.038 6.47 2.64 11.9
3/30/2021 1:45:00 AM 5.73 42.314 0.038 6.46 2.67 11.91
3/30/2021 2:00:00 AM 5.68 42.224 0.038 6.47 2.62 11.94
3/30/2021 2:15:00 AM 5.62 42.116 0.038 6.47 2.61 11.95
3/30/2021 2:30:00 AM 5.57 42.026 0.038 6.46 2.6 11.96
3/30/2021 2:45:00 AM 5.52 41.936 0.038 6.47 2.65 11.98
3/30/2021 3:00:00 AM 5.48 41.864 0.038 6.47 2.6 12
3/30/2021 3:15:00 AM 5.43 41.774 0.038 6.47 2.67 12.01
3/30/2021 3:30:00 AM 5.39 41.702 0.038 6.48 2.64 12.03
3/30/2021 3:45:00 AM 5.35 41.63 0.038 6.47 2.68 12.04
3/30/2021 4:00:00 AM 5.31 41.558 0.038 6.47 2.56 12.06
3/30/2021 4:15:00 AM 5.27 41.486 0.038 6.48 2.64 12.07
3/30/2021 4:30:00 AM 5.22 41.396 0.038 6.5 2.64 12.08
3/30/2021 4:45:00 AM 5.19 41.342 0.038 6.48 2.58 12.09
3/30/2021 5:00:00 AM 5.15 41.27 0.038 6.49 2.63 12.1
3/30/2021 5:15:00 AM 5.12 41.216 0.038 6.47 2.6 12.11
3/30/2021 5:30:00 AM 5.08 41.144 0.038 6.48 2.63 12.13
3/30/2021 5:45:00 AM 5.05 41.09 0.038 6.47 2.63 12.14
3/30/2021 6:00:00 AM 5.01 41.018 0.038 6.48 2.63 12.14
3/30/2021 6:15:00 AM 4.98 40.964 0.038 6.47 2.66 12.17
3/30/2021 6:30:00 AM 4.95 40.91 0.038 6.48 2.57 12.17
3/30/2021 6:45:00 AM 4.92 40.856 0.038 6.48 2.56 12.17
3/30/2021 7:00:00 AM 4.89 40.802 0.038 6.48 2.61 12.19
3/30/2021 7:15:00 AM 4.87 40.766 0.038 6.48 2.61 12.22
3/30/2021 7:30:00 AM 4.84 40.712 0.038 6.49 2.58 12.25
3/30/2021 7:45:00 AM 4.82 40.676 0.038 6.49 2.58 12.28
3/30/2021 8:00:00 AM 4.81 40.658 0.038 6.51 2.67 12.32
3/30/2021 8:15:00 AM 4.81 40.658 0.038 6.52 2.61 12.35
3/30/2021 8:30:00 AM 4.81 40.658 0.038 6.54 2.61 12.39
3/30/2021 8:45:00 AM 4.83 40.694 0.038 6.55 2.55 12.42
3/30/2021 9:00:00 AM 4.86 40.748 0.038 6.58 2.62 12.45
3/30/2021 9:15:00 AM 4.91 40.838 0.038 6.6 2.53 12.47
3/30/2021 9:30:00 AM 4.98 40.964 0.037 6.63 2.57 12.49
3/30/2021 9:45:00 AM 5.06 41.108 0.037 6.65 2.54 12.49
3/30/2021 10:00:00 AM 5.17 41.306 0.037 6.67 2.5 12.5
3/30/2021 10:15:00 AM 5.29 41.522 0.037 6.7 2.52 12.49
3/30/2021 10:30:00 AM 5.44 41.792 0.037 6.71 2.41 12.47
3/30/2021 10:45:00 AM 5.59 42.062 0.037 6.75 2.4 12.44
3/30/2021 11:00:00 AM 5.76 42.368 0.037 6.77 2.45 12.42
3/30/2021 11:15:00 AM 5.93 42.674 0.037 6.77 2.47 12.37
3/30/2021 11:30:00 AM 6.11 42.998 0.037 6.79 2.5 12.34
3/30/2021 11:45:00 AM 6.3 43.34 0.037 6.79 2.42 12.29
3/30/2021 12:00:00 PM 6.5 43.7 0.037 6.81 2.43 12.25
3/30/2021 12:15:00 PM 6.72 44.096 0.037 6.81 2.45 12.19
3/30/2021 12:30:00 PM 6.94 44.492 0.037 6.81 2.43 12.13
3/30/2021 12:45:00 PM 7.17 44.906 0.037 6.81 2.46 12.07
3/30/2021 1:00:00 PM 7.4 45.32 0.037 6.82 2.47 12.01
3/30/2021 1:15:00 PM 7.63 45.734 0.037 6.82 2.4 11.94
3/30/2021 1:30:00 PM 7.86 46.148 0.037 6.84 2.41 11.88
3/30/2021 1:45:00 PM 8.09 46.562 0.037 6.84 2.44 11.82
3/30/2021 2:00:00 PM 8.32 46.976 0.037 6.85 2.44 11.76
3/30/2021 2:15:00 PM 8.53 47.354 0.037 6.86 2.46 11.7
3/30/2021 2:30:00 PM 8.74 47.732 0.037 6.86 2.41 11.63
3/30/2021 2:45:00 PM 8.94 48.092 0.037 6.85 2.48 11.58
3/30/2021 3:00:00 PM 9.13 48.434 0.037 6.86 2.45 11.52
3/30/2021 3:15:00 PM 9.31 48.758 0.037 6.86 2.46 11.47
3/30/2021 3:30:00 PM 9.47 49.046 0.037 6.88 2.47 11.42
3/30/2021 3:45:00 PM 9.63 49.334 0.037 6.87 2.48 11.37
3/30/2021 4:00:00 PM 9.75 49.55 0.037 6.87 2.57 11.33
3/30/2021 4:15:00 PM 9.84 49.712 0.037 6.98 2.51 11.29
3/30/2021 4:30:00 PM 9.9 49.82 0.037 6.86 2.52 11.27
3/30/2021 4:45:00 PM 9.96 49.928 0.037 6.89 2.54 11.24
3/30/2021 5:00:00 PM 9.99 49.982 0.037 6.87 2.63 11.22
3/30/2021 5:15:00 PM 10 50 0.036 6.86 2.5 11.19
3/30/2021 5:30:00 PM 9.99 49.982 0.037 6.86 2.55 11.18
3/30/2021 5:45:00 PM 9.95 49.91 0.037 6.85 2.57 11.15
3/30/2021 6:00:00 PM 9.91 49.838 0.037 6.83 2.52 11.14
3/30/2021 6:15:00 PM 9.85 49.73 0.037 6.82 2.5 11.13
3/30/2021 6:30:00 PM 9.77 49.586 0.037 6.82 2.54 11.12
3/30/2021 6:45:00 PM 9.7 49.46 0.037 6.67 2.58 11.11
3/30/2021 7:00:00 PM 9.61 49.298 0.037 6.73 2.57 11.09
3/30/2021 7:15:00 PM 9.51 49.118 0.037 6.74 2.54 11.07
3/30/2021 7:30:00 PM 9.42 48.956 0.037 6.7 2.65 11.04
3/30/2021 7:45:00 PM 9.31 48.758 0.037 6.69 2.59 11.01
3/30/2021 8:00:00 PM 9.21 48.578 0.037 6.68 2.64 10.99
3/30/2021 8:15:00 PM 9.11 48.398 0.037 6.65 2.63 10.99
3/30/2021 8:30:00 PM 9.02 48.236 0.037 6.66 2.63 10.99
3/30/2021 8:45:00 PM 8.93 48.074 0.037 6.64 2.66 10.99
3/30/2021 9:00:00 PM 8.85 47.93 0.037 6.63 2.66 11
3/30/2021 9:15:00 PM 8.77 47.786 0.037 6.63 2.66 11.01
3/30/2021 9:30:00 PM 8.7 47.66 0.037 6.63 2.67 11.02
3/30/2021 9:45:00 PM 8.63 47.534 0.037 6.62 2.72 11.04
3/30/2021 10:00:00 PM 8.56 47.408 0.037 6.63 2.7 11.05
3/30/2021 10:15:00 PM 8.49 47.282 0.037 6.62 2.68 11.07
3/30/2021 10:30:00 PM 8.43 47.174 0.038 6.62 2.64 11.08
3/30/2021 10:45:00 PM 8.37 47.066 0.038 6.61 2.75 11.1
3/30/2021 11:00:00 PM 8.31 46.958 0.038 6.61 2.7 11.11
3/30/2021 11:15:00 PM 8.25 46.85 0.038 6.61 2.75 11.13
3/30/2021 11:30:00 PM 8.19 46.742 0.038 6.61 2.65 11.15
3/30/2021 11:45:00 PM 8.14 46.652 0.038 6.61 2.68 11.16
3/31/2021 12:00:00 AM 8.08 46.544 0.038 6.61 2.67 11.18
3/31/2021 12:15:00 AM 8.02 46.436 0.038 6.59 2.66 11.2
3/31/2021 12:30:00 AM 7.97 46.346 0.038 6.6 2.74 11.2
3/31/2021 12:45:00 AM 7.92 46.256 0.038 6.6 2.81 11.21
3/31/2021 1:00:00 AM 7.88 46.184 0.038 6.6 2.63 11.24
3/31/2021 1:15:00 AM 7.84 46.112 0.038 6.6 2.6 11.24
3/31/2021 1:30:00 AM 7.8 46.04 0.038 6.6 2.66 11.24
3/31/2021 1:45:00 AM 7.76 45.968 0.038 6.61 2.64 11.27
3/31/2021 2:00:00 AM 7.73 45.914 0.038 6.58 2.62 11.27
3/31/2021 2:15:00 AM 7.7 45.86 0.038 6.6 2.63 11.28
3/31/2021 2:30:00 AM 7.67 45.806 0.038 6.61 2.7 11.28
3/31/2021 2:45:00 AM 7.64 45.752 0.038 6.6 2.67 11.3
3/31/2021 3:00:00 AM 7.61 45.698 0.038 6.61 2.59 11.3
3/31/2021 3:15:00 AM 7.57 45.626 0.038 6.6 2.64 11.3
3/31/2021 3:30:00 AM 7.55 45.59 0.038 6.6 2.6 11.31
3/31/2021 3:45:00 AM 7.52 45.536 0.038 6.61 2.57 11.32
3/31/2021 4:00:00 AM 7.5 45.5 0.038 6.61 2.62 11.32
3/31/2021 4:15:00 AM 7.48 45.464 0.038 6.61 2.58 11.32
3/31/2021 4:30:00 AM 7.46 45.428 0.038 6.61 2.58 11.33
3/31/2021 4:45:00 AM 7.44 45.392 0.038 6.6 2.58 11.33
3/31/2021 5:00:00 AM 7.42 45.356 0.038 6.6 2.65 11.35
3/31/2021 5:15:00 AM 7.4 45.32 0.038 6.62 2.57 11.35
3/31/2021 5:30:00 AM 7.38 45.284 0.038 6.61 2.63 11.35
3/31/2021 5:45:00 AM 7.36 45.248 0.038 6.59 2.59 11.36
3/31/2021 6:00:00 AM 7.34 45.212 0.038 6.59 2.61 11.36
3/31/2021 6:15:00 AM 7.32 45.176 0.038 6.61 2.59 11.37
3/31/2021 6:30:00 AM 7.31 45.158 0.038 6.6 2.62 11.37
3/31/2021 6:45:00 AM 7.29 45.122 0.038 6.61 2.68 11.38
3/31/2021 7:00:00 AM 7.28 45.104 0.038 6.61 2.64 11.38
3/31/2021 7:15:00 AM 7.27 45.086 0.038 6.61 2.66 11.4
3/31/2021 7:30:00 AM 7.26 45.068 0.038 6.62 2.63 11.41
3/31/2021 7:45:00 AM 7.26 45.068 0.038 6.61 2.56 11.43
3/31/2021 8:00:00 AM 7.27 45.086 0.038 6.63 2.58 11.45
3/31/2021 8:15:00 AM 7.28 45.104 0.038 6.63 2.61 11.45
3/31/2021 8:30:00 AM 7.28 45.104 0.038 6.64 2.57 11.47
3/31/2021 8:45:00 AM 7.3 45.14 0.038 6.62 2.58 11.48
3/31/2021 9:00:00 AM 7.31 45.158 0.038 6.65 2.62 11.51
3/31/2021 9:15:00 AM 7.32 45.176 0.038 6.66 2.52 11.53
3/31/2021 9:30:00 AM 7.33 45.194 0.038 6.66 2.49 11.53
3/31/2021 9:45:00 AM 7.34 45.212 0.037 6.67 2.49 11.54
3/31/2021 10:00:00 AM 7.35 45.23 0.037 6.68 2.53 11.55
3/31/2021 10:15:00 AM 7.37 45.266 0.037 6.68 2.6 11.56
3/31/2021 10:30:00 AM 7.39 45.302 0.037 6.71 2.55 11.6
3/31/2021 10:45:00 AM 7.42 45.356 0.037 6.71 2.54 11.62
3/31/2021 11:00:00 AM 7.45 45.41 0.037 6.75 2.54 11.65
3/31/2021 11:15:00 AM 7.48 45.464 0.037 6.75 2.61 11.67
3/31/2021 11:30:00 AM 7.51 45.518 0.037 6.75 2.47 11.66
3/31/2021 11:45:00 AM 7.53 45.554 0.037 6.75 2.58 11.65
3/31/2021 12:00:00 PM 7.56 45.608 0.037 6.75 2.58 11.64
3/31/2021 12:15:00 PM 7.58 45.644 0.037 6.78 2.62 11.63
3/31/2021 12:30:00 PM 7.61 45.698<